Darstellungsparameter: Aktuell verwendete Einstellungen:
Skalierung der Graphiken ... ?
xyx+y,   Skalierungsfaktor:      Skalierung: Modus: x, Faktor: 1
Darstellungszeitraum ... ?
Vom - - bis: - -   Zeitraum: 19.02.2019 - 18.05.2019
Min/Max/Avg-Anzeige ... ?
Zeige MMA aktuell
Zeige MMA Monat
Zeige MMA alles
Zeige --A aktuell
Zeige --A Monat
Zeige --A alles
Keine MMA-Anzeige
MMA:
Average (ber die Originaldaten)
MMA-Basis: 17.04.2019 - 19.05.2019
Quicknavigation für Darstellung... ?
Tage:      1T, 2T, 3T, 5T -1T -2T -3T -5T +1T +2T +3T +5T
Wochen: 1W, 2W, 3W -1W -2W -3W +1W +2W +3W
Monate: 1M, 3M, 6M -1M -3M -6M +1M +3M +6M
Jahre:    1J, 3J, 5J, 10J -1J -3J -5J -10J +1J +3J +5J +10J
Nutze für die Darstellung ... ?
Originaldaten oder ...
Mittelwerte Minima Maxima auf...
Stundenbasis Tagesbasis Wochenbasis
Monatsbasis Jahresbasis      Datenbasis: Mittelwerte auf Stundenbasis
Darstellen als:
Statistik (Auto) Statistik J:M      Darstellung:
Zur Graphik,    zurück zur Übersicht aller Sensoren.
 
Tabellarische Datenbersicht: ?
 
Sensor: Nr:Datum:Temp:Abs-Feuchte:Windchill:Wind:
Aussen-T/F 1 19-02-2019 00:00:00 1.725 C 5.02 g/m*3 1.73 C 0 km/h
2 19-02-2019 01:00:00 1.83333 C 5.1 g/m*3 1.83 C 0 km/h
3 19-02-2019 02:00:00 1.85 C 5.13 g/m*3 1.85 C 0 km/h
4 19-02-2019 03:00:00 2.34167 C 5.37 g/m*3 2.34 C 0.93333 km/h
5 19-02-2019 04:00:00 3.7 C 5.86 g/m*3 3.7 C 4.41667 km/h
6 19-02-2019 05:00:00 4.04167 C 5.79 g/m*3 4.04 C 2.93333 km/h
7 19-02-2019 06:00:00 4.99167 C 5.96 g/m*3 4.99 C 4.41667 km/h
8 19-02-2019 07:00:00 5.2 C 6.21 g/m*3 5.2 C 2.93333 km/h
9 19-02-2019 08:00:00 4.89167 C 6.27 g/m*3 4.89 C 1.06667 km/h
10 19-02-2019 09:00:00 5.25 C 6.55 g/m*3 4.28 C 5.225 km/h
11 19-02-2019 10:00:00 6.34167 C 7 g/m*3 4.59 C 8.48333 km/h
12 19-02-2019 11:00:00 7.28333 C 7.31 g/m*3 5.93 C 7.53333 km/h
13 19-02-2019 12:00:00 8.71667 C 7.61 g/m*3 8.07 C 5.75833 km/h
14 19-02-2019 13:00:00 9.94167 C 7.5 g/m*3 8.69 C 9.29167 km/h
15 19-02-2019 14:00:00 10.65 C 7.29 g/m*3 9.26 C 10.9 km/h
16 19-02-2019 15:00:00 10.94167 C 7.23 g/m*3 10.05 C 8.34167 km/h
17 19-02-2019 16:00:00 10.9 C 7.18 g/m*3 10.28 C 6.98333 km/h
18 19-02-2019 17:00:00 9.69167 C 6.87 g/m*3 9.69 C 4.15833 km/h
19 19-02-2019 18:00:00 7.28333 C 6.56 g/m*3 7.28 C 4.54167 km/h
20 19-02-2019 19:00:00 6.225 C 6.41 g/m*3 6.23 C 4.13333 km/h
21 19-02-2019 20:00:00 5.44167 C 6.24 g/m*3 5.44 C 3.33333 km/h
22 19-02-2019 21:00:00 4.85 C 6.03 g/m*3 4.85 C 0.53333 km/h
23 19-02-2019 22:00:00 3.46667 C 5.6 g/m*3 3.47 C 0.66667 km/h
24 19-02-2019 23:00:00 3.05 C 5.53 g/m*3 3.05 C 0.66667 km/h
25 20-02-2019 00:00:00 2.6 C 5.4 g/m*3 2.6 C 0.8 km/h
Sensor: Nr:Datum:Temp:Abs-Feuchte:Windchill:Wind:
Aussen-T/F 26 20-02-2019 01:00:00 1.78333 C 5.11 g/m*3 1.78 C 0 km/h
27 20-02-2019 02:00:00 1.19167 C 4.96 g/m*3 1.19 C 0.13333 km/h
28 20-02-2019 03:00:00 1.1 C 4.96 g/m*3 1.1 C 1.2 km/h
29 20-02-2019 04:00:00 0.875 C 4.89 g/m*3 0.88 C 0.66667 km/h
30 20-02-2019 05:00:00 1 C 4.96 g/m*3 1 C 1.06667 km/h
31 20-02-2019 06:00:00 0.86667 C 4.92 g/m*3 0.87 C 0.4 km/h
32 20-02-2019 07:00:00 0.73333 C 4.89 g/m*3 0.73 C 1.2 km/h
33 20-02-2019 08:00:00 1.30833 C 5.11 g/m*3 1.31 C 2.41667 km/h
34 20-02-2019 09:00:00 3.09167 C 5.78 g/m*3 0.06 C 11.43333 km/h
35 20-02-2019 10:00:00 4.40833 C 6.25 g/m*3 1.7 C 11.16667 km/h
36 20-02-2019 11:00:00 6.075 C 6.72 g/m*3 3.9 C 10.225 km/h
37 20-02-2019 12:00:00 7.49167 C 7.04 g/m*3 6.21 C 7.36667 km/h
38 20-02-2019 13:00:00 9.86667 C 7.29 g/m*3 8.2 C 11.7 km/h
39 20-02-2019 14:00:00 10.85833 C 7.37 g/m*3 9.95 C 8.325 km/h
40 20-02-2019 15:00:00 11.08333 C 7.35 g/m*3 11.08 C 6.15833 km/h
41 20-02-2019 16:00:00 11.375 C 7.3 g/m*3 11.38 C 6.84167 km/h
42 20-02-2019 17:00:00 10.35 C 7.12 g/m*3 10.35 C 3.875 km/h
43 20-02-2019 18:00:00 7.29167 C 6.63 g/m*3 7.29 C 3.86667 km/h
44 20-02-2019 19:00:00 6.16667 C 6.43 g/m*3 6.17 C 2.53333 km/h
45 20-02-2019 20:00:00 4.86667 C 6.04 g/m*3 4.87 C 0.26667 km/h
46 20-02-2019 21:00:00 3.775 C 5.73 g/m*3 3.78 C 0 km/h
47 20-02-2019 22:00:00 2.7 C 5.41 g/m*3 2.7 C 0 km/h
48 20-02-2019 23:00:00 2.10833 C 5.28 g/m*3 2.11 C 0.13333 km/h
49 21-02-2019 00:00:00 1.575 C 5.1 g/m*3 1.58 C 0 km/h
50 21-02-2019 01:00:00 1.58333 C 5.14 g/m*3 1.58 C 0.26667 km/h
Sensor: Nr:Datum:Temp:Abs-Feuchte:Windchill:Wind:
Aussen-T/F 51 21-02-2019 02:00:00 1.06667 C 4.96 g/m*3 1.07 C 0 km/h
52 21-02-2019 03:00:00 0.74167 C 4.89 g/m*3 0.74 C 0.26667 km/h
53 21-02-2019 04:00:00 0.91667 C 4.95 g/m*3 0.92 C 1.33333 km/h
54 21-02-2019 05:00:00 1.06667 C 5.02 g/m*3 1.07 C 1.2 km/h
55 21-02-2019 06:00:00 1.25 C 5.08 g/m*3 1.25 C 0.93333 km/h
56 21-02-2019 07:00:00 1.21667 C 5.08 g/m*3 1.22 C 0.4 km/h
57 21-02-2019 08:00:00 2.10833 C 5.43 g/m*3 2.11 C 0.4 km/h
58 21-02-2019 09:00:00 2.84167 C 5.71 g/m*3 2.84 C 0.66667 km/h
59 21-02-2019 10:00:00 3.91667 C 6.13 g/m*3 3.92 C 1.2 km/h
60 21-02-2019 11:00:00 5.725 C 6.76 g/m*3 5.73 C 0.93333 km/h
61 21-02-2019 12:00:00 8.33333 C 7.59 g/m*3 8.33 C 2.94167 km/h
62 21-02-2019 13:00:00 11.3 C 8.35 g/m*3 11.3 C 6.29167 km/h
63 21-02-2019 14:00:00 12.6 C 8.52 g/m*3 12.6 C 6.30833 km/h
64 21-02-2019 15:00:00 13.325 C 8.59 g/m*3 13.33 C 6.44167 km/h
65 21-02-2019 16:00:00 13.34167 C 8.58 g/m*3 13.34 C 5.49167 km/h
66 21-02-2019 17:00:00 12.48333 C 8.77 g/m*3 12.48 C 2.13333 km/h
67 21-02-2019 18:00:00 10.56667 C 8.39 g/m*3 10.57 C 2.4 km/h
68 21-02-2019 19:00:00 9.74167 C 8.06 g/m*3 9.74 C 3.46667 km/h
69 21-02-2019 20:00:00 9.18333 C 7.98 g/m*3 9.18 C 0.53333 km/h
70 21-02-2019 21:00:00 9.325 C 8.15 g/m*3 9.32 C 0.66667 km/h
71 21-02-2019 22:00:00 9.275 C 8.01 g/m*3 9.28 C 0.13333 km/h
72 21-02-2019 23:00:00 9.21667 C 7.99 g/m*3 9.22 C 1.6 km/h
73 22-02-2019 00:00:00 9.575 C 8.12 g/m*3 9.57 C 2.675 km/h
74 22-02-2019 01:00:00 9.76667 C 8.17 g/m*3 9.77 C 0.4 km/h
75 22-02-2019 02:00:00 9.325 C 8.12 g/m*3 9.32 C 0.53333 km/h
Sensor: Nr:Datum:Temp:Abs-Feuchte:Windchill:Wind:
Aussen-T/F 76 22-02-2019 03:00:00 9.55 C 8.41 g/m*3 9.55 C 0.53333 km/h
77 22-02-2019 04:00:00 9.66667 C 8.55 g/m*3 9.67 C 0.53333 km/h
78 22-02-2019 05:00:00 9.34167 C 8.49 g/m*3 9.34 C 0.53333 km/h
79 22-02-2019 06:00:00 9.34167 C 8.56 g/m*3 9.34 C 2.13333 km/h
80 22-02-2019 07:00:00 9.225 C 8.53 g/m*3 9.23 C 0.53333 km/h
81 22-02-2019 08:00:00 9.16667 C 8.55 g/m*3 9.17 C 0.66667 km/h
82 22-02-2019 09:00:00 9.50833 C 8.74 g/m*3 9.51 C 0.13333 km/h
83 22-02-2019 10:00:00 9.93333 C 8.98 g/m*3 9.93 C 0 km/h
84 22-02-2019 11:00:00 10.64167 C 9.28 g/m*3 10.64 C 1.86667 km/h
85 22-02-2019 12:00:00 11.6 C 9.14 g/m*3 11.6 C 5.1 km/h
86 22-02-2019 13:00:00 12.46667 C 9.01 g/m*3 12.47 C 4.26667 km/h
87 22-02-2019 14:00:00 12.83333 C 8.75 g/m*3 12.83 C 2.8 km/h
88 22-02-2019 15:00:00 13.275 C 8.57 g/m*3 13.28 C 1.33333 km/h
89 22-02-2019 16:00:00 12.84167 C 8.24 g/m*3 12.84 C 1.86667 km/h
90 22-02-2019 17:00:00 11.825 C 8.03 g/m*3 11.83 C 0.26667 km/h
91 22-02-2019 18:00:00 9.075 C 7.36 g/m*3 9.07 C 1.73333 km/h
92 22-02-2019 19:00:00 8.55 C 7.38 g/m*3 8.55 C 4.13333 km/h
93 22-02-2019 20:00:00 8.99167 C 7.52 g/m*3 8.99 C 1.46667 km/h
94 22-02-2019 21:00:00 8.475 C 7.35 g/m*3 8.48 C 2.53333 km/h
95 22-02-2019 22:00:00 6.94167 C 6.86 g/m*3 6.94 C 3.06667 km/h
96 22-02-2019 23:00:00 5.95 C 6.63 g/m*3 5.95 C 2.66667 km/h
97 23-02-2019 00:00:00 5.31667 C 6.41 g/m*3 5.32 C 0.8 km/h
98 23-02-2019 01:00:00 4.55 C 6.15 g/m*3 4.55 C 0 km/h
99 23-02-2019 02:00:00 4.18333 C 6.05 g/m*3 4.18 C 0 km/h
100 23-02-2019 03:00:00 3.81667 C 5.96 g/m*3 3.82 C 0.93333 km/h
Sensor: Nr:Datum:Temp:Abs-Feuchte:Windchill:Wind:
Aussen-T/F 101 23-02-2019 04:00:00 4.26667 C 6.15 g/m*3 4.27 C 1.33333 km/h
102 23-02-2019 05:00:00 4.525 C 6.16 g/m*3 4.53 C 4.025 km/h
103 23-02-2019 06:00:00 4.83333 C 6.04 g/m*3 4.83 C 0.93333 km/h
104 23-02-2019 07:00:00 4.79167 C 5.83 g/m*3 4.79 C 1.6 km/h
105 23-02-2019 08:00:00 4.85 C 5.72 g/m*3 4.85 C 3.74167 km/h
106 23-02-2019 09:00:00 4.775 C 5.58 g/m*3 2.75 C 8.48333 km/h
107 23-02-2019 10:00:00 4.95 C 5.54 g/m*3 3.9 C 5.34167 km/h
108 23-02-2019 11:00:00 6.125 C 5.78 g/m*3 5.05 C 5.89167 km/h
109 23-02-2019 12:00:00 7.625 C 5.84 g/m*3 6.17 C 8.20833 km/h
110 23-02-2019 13:00:00 9.05833 C 5.91 g/m*3 7.61 C 9.41667 km/h
111 23-02-2019 14:00:00 10.01667 C 5.59 g/m*3 9.38 C 6.43333 km/h
112 23-02-2019 15:00:00 10.78333 C 4.42 g/m*3 10.58 C 5.21667 km/h
113 23-02-2019 16:00:00 10.71667 C 4.63 g/m*3 10.72 C 3.2 km/h
114 23-02-2019 17:00:00 7.99167 C 5.22 g/m*3 7.99 C 2.13333 km/h
115 23-02-2019 18:00:00 5.45833 C 4.97 g/m*3 5.46 C 0 km/h
116 23-02-2019 19:00:00 4.36667 C 4.82 g/m*3 4.37 C 0 km/h
117 23-02-2019 20:00:00 3.38333 C 4.64 g/m*3 3.38 C 0 km/h
118 23-02-2019 21:00:00 2.03333 C 4.42 g/m*3 2.03 C 0 km/h
119 23-02-2019 22:00:00 0.98333 C 4.29 g/m*3 0.98 C 0 km/h
120 23-02-2019 23:00:00 0.45833 C 4.18 g/m*3 0.46 C 0 km/h
121 24-02-2019 00:00:00 -0.25833 C 4.07 g/m*3 -0.26 C 0 km/h
122 24-02-2019 01:00:00 -0.66667 C 4.03 g/m*3 -0.67 C 0 km/h
123 24-02-2019 02:00:00 -1.16667 C 3.93 g/m*3 -1.17 C 0 km/h
124 24-02-2019 03:00:00 -1.5 C 3.89 g/m*3 -1.5 C 0 km/h
125 24-02-2019 04:00:00 -1.73333 C 3.87 g/m*3 -1.73 C 0 km/h
Sensor: Nr:Datum:Temp:Abs-Feuchte:Windchill:Wind:
Aussen-T/F 126 24-02-2019 05:00:00 -1.875 C 3.83 g/m*3 -1.88 C 0 km/h
127 24-02-2019 06:00:00 -2.06667 C 3.8 g/m*3 -2.07 C 0 km/h
128 24-02-2019 07:00:00 -2.35833 C 3.75 g/m*3 -2.36 C 0 km/h
129 24-02-2019 08:00:00 -2.10833 C 3.85 g/m*3 -2.11 C 0 km/h
130 24-02-2019 09:00:00 -1.49167 C 4.01 g/m*3 -1.49 C 0 km/h
131 24-02-2019 10:00:00 0.36667 C 4.41 g/m*3 0.37 C 0 km/h
132 24-02-2019 11:00:00 4.09167 C 4.98 g/m*3 4.09 C 0 km/h
133 24-02-2019 12:00:00 7.35 C 5.24 g/m*3 7.35 C 0 km/h
134 24-02-2019 13:00:00 10.45833 C 4.27 g/m*3 10.46 C 4.40833 km/h
135 24-02-2019 14:00:00 11.89167 C 3.86 g/m*3 11.89 C 6.7 km/h
136 24-02-2019 15:00:00 12.41667 C 4.27 g/m*3 12.42 C 2.8 km/h
137 24-02-2019 16:00:00 11.80833 C 4.9 g/m*3 11.81 C 3.2 km/h
138 24-02-2019 17:00:00 10.3 C 5.02 g/m*3 10.3 C 0.4 km/h
139 24-02-2019 18:00:00 8.44167 C 4.82 g/m*3 8.44 C 4 km/h
140 24-02-2019 19:00:00 6.86667 C 4.69 g/m*3 6.87 C 3.73333 km/h
141 24-02-2019 20:00:00 4.93333 C 4.49 g/m*3 4.93 C 0.26667 km/h
142 24-02-2019 21:00:00 3.36667 C 4.36 g/m*3 3.37 C 0 km/h
143 24-02-2019 22:00:00 2.54167 C 4.29 g/m*3 2.54 C 0 km/h
144 24-02-2019 23:00:00 1.81667 C 4.23 g/m*3 1.82 C 0 km/h
145 25-02-2019 00:00:00 1.175 C 4.15 g/m*3 1.18 C 0 km/h
146 25-02-2019 01:00:00 0.925 C 4.18 g/m*3 0.93 C 0 km/h
147 25-02-2019 02:00:00 0.13333 C 4.09 g/m*3 0.13 C 0 km/h
148 25-02-2019 03:00:00 -0.00833 C 4.07 g/m*3 -0.01 C 0 km/h
149 25-02-2019 04:00:00 -0.58333 C 4.01 g/m*3 -0.58 C 0 km/h
150 25-02-2019 05:00:00 -0.70833 C 4.02 g/m*3 -0.71 C 0.66667 km/h
Sensor: Nr:Datum:Temp:Abs-Feuchte:Windchill:Wind:
Aussen-T/F 151 25-02-2019 06:00:00 -0.86667 C 4.01 g/m*3 -0.87 C 0.13333 km/h
152 25-02-2019 07:00:00 -1.21667 C 3.93 g/m*3 -1.22 C 0 km/h
153 25-02-2019 08:00:00 -1.2 C 4 g/m*3 -1.2 C 0 km/h
154 25-02-2019 09:00:00 -0.69167 C 4.1 g/m*3 -0.69 C 0 km/h
155 25-02-2019 10:00:00 0.81667 C 4.46 g/m*3 0.82 C 0 km/h
156 25-02-2019 11:00:00 4.675 C 5.17 g/m*3 4.68 C 1.06667 km/h
157 25-02-2019 12:00:00 8.70833 C 5.81 g/m*3 8.71 C 1.06667 km/h
158 25-02-2019 13:00:00 12.55 C 5.88 g/m*3 12.55 C 0.26667 km/h
159 25-02-2019 14:00:00 14.74167 C 5.89 g/m*3 14.74 C 1.86667 km/h
160 25-02-2019 15:00:00 14.175 C 6.05 g/m*3 14.18 C 1.73333 km/h
161 25-02-2019 16:00:00 14.375 C 6.12 g/m*3 14.38 C 2.13333 km/h
162 25-02-2019 17:00:00 13.64167 C 6.24 g/m*3 13.64 C 5.6 km/h
163 25-02-2019 18:00:00 11.1 C 6.03 g/m*3 11.1 C 5.6 km/h
164 25-02-2019 19:00:00 9.075 C 5.92 g/m*3 9.07 C 0.4 km/h
165 25-02-2019 20:00:00 7.04167 C 5.67 g/m*3 7.04 C 0 km/h
166 25-02-2019 21:00:00 5.575 C 5.41 g/m*3 5.58 C 0 km/h
167 25-02-2019 22:00:00 4.55 C 5.24 g/m*3 4.55 C 0 km/h
168 25-02-2019 23:00:00 3.25 C 5.05 g/m*3 3.25 C 0 km/h
169 26-02-2019 00:00:00 2.425 C 4.92 g/m*3 2.42 C 0 km/h
170 26-02-2019 01:00:00 1.93333 C 4.91 g/m*3 1.93 C 0 km/h
171 26-02-2019 02:00:00 1.39167 C 4.78 g/m*3 1.39 C 0 km/h
172 26-02-2019 03:00:00 0.63333 C 4.61 g/m*3 0.63 C 0 km/h
173 26-02-2019 04:00:00 0.325 C 4.56 g/m*3 0.33 C 0 km/h
174 26-02-2019 05:00:00 0.21667 C 4.58 g/m*3 0.22 C 0.8 km/h
175 26-02-2019 06:00:00 -0.31667 C 4.4 g/m*3 -0.32 C 0.13333 km/h
Sensor: Nr:Datum:Temp:Abs-Feuchte:Windchill:Wind:
Aussen-T/F 176 26-02-2019 07:00:00 -0.48333 C 4.39 g/m*3 -0.48 C 0.13333 km/h
177 26-02-2019 08:00:00 -0.10833 C 4.54 g/m*3 -0.11 C 0.53333 km/h
178 26-02-2019 09:00:00 0.80833 C 4.85 g/m*3 0.81 C 0.13333 km/h
179 26-02-2019 10:00:00 2.60833 C 5.47 g/m*3 2.61 C 0.13333 km/h
180 26-02-2019 11:00:00 5.75 C 6.19 g/m*3 5.75 C 0 km/h
181 26-02-2019 12:00:00 9.50833 C 6.6 g/m*3 9.51 C 0 km/h
182 26-02-2019 13:00:00 13.85833 C 7.8 g/m*3 13.86 C 0 km/h
183 26-02-2019 14:00:00 16.15833 C 7.61 g/m*3 16.16 C 0 km/h
184 26-02-2019 15:00:00 15.49167 C 7.3 g/m*3 15.49 C 0 km/h
185 26-02-2019 16:00:00 15.44167 C 7.31 g/m*3 15.44 C 3.33333 km/h
186 26-02-2019 17:00:00 14.75833 C 7.39 g/m*3 14.76 C 6.13333 km/h
187 26-02-2019 18:00:00 12.56667 C 7.02 g/m*3 12.57 C 4.93333 km/h
188 26-02-2019 19:00:00 10.34167 C 6.85 g/m*3 10.34 C 0.53333 km/h
189 26-02-2019 20:00:00 8.18333 C 6.39 g/m*3 8.18 C 0 km/h
190 26-02-2019 21:00:00 6.8 C 6.19 g/m*3 6.8 C 0 km/h
191 26-02-2019 22:00:00 5.61667 C 5.93 g/m*3 5.62 C 0 km/h
192 26-02-2019 23:00:00 4.56667 C 5.74 g/m*3 4.57 C 0 km/h
193 27-02-2019 00:00:00 3.55833 C 5.51 g/m*3 3.56 C 0 km/h
194 27-02-2019 01:00:00 2.85 C 5.36 g/m*3 2.85 C 0 km/h
195 27-02-2019 02:00:00 2.25 C 5.22 g/m*3 2.25 C 0 km/h
196 27-02-2019 03:00:00 1.45833 C 4.98 g/m*3 1.46 C 0 km/h
197 27-02-2019 04:00:00 0.78333 C 4.8 g/m*3 0.78 C 0 km/h
198 27-02-2019 05:00:00 0.5 C 4.74 g/m*3 0.5 C 0 km/h
199 27-02-2019 06:00:00 0.125 C 4.64 g/m*3 0.13 C 0 km/h
200 27-02-2019 07:00:00 -0.375 C 4.49 g/m*3 -0.38 C 0 km/h
Sensor: Nr:Datum:Temp:Abs-Feuchte:Windchill:Wind:
Aussen-T/F 201 27-02-2019 08:00:00 -0.25833 C 4.55 g/m*3 -0.26 C 0 km/h
202 27-02-2019 09:00:00 0.41667 C 4.79 g/m*3 0.42 C 0 km/h
203 27-02-2019 10:00:00 2.4 C 5.52 g/m*3 2.4 C 0 km/h
204 27-02-2019 11:00:00 5.5 C 6.68 g/m*3 5.5 C 0 km/h
205 27-02-2019 12:00:00 9.75833 C 7.66 g/m*3 9.76 C 0 km/h
206 27-02-2019 13:00:00 14.69167 C 8.26 g/m*3 14.69 C 0 km/h
207 27-02-2019 14:00:00 17.19167 C 7.64 g/m*3 17.19 C 0 km/h
208 27-02-2019 15:00:00 16.10833 C 7.05 g/m*3 16.11 C 0.93333 km/h
209 27-02-2019 16:00:00 16.25 C 7 g/m*3 16.25 C 4.4 km/h
210 27-02-2019 17:00:00 15.71667 C 6.83 g/m*3 15.72 C 6.13333 km/h
211 27-02-2019 18:00:00 13.55833 C 6.44 g/m*3 13.56 C 4.55833 km/h
212 27-02-2019 19:00:00 10.89167 C 6.35 g/m*3 10.89 C 0 km/h
213 27-02-2019 20:00:00 8.7 C 6.09 g/m*3 8.7 C 0 km/h
214 27-02-2019 21:00:00 6.8 C 5.79 g/m*3 6.8 C 0 km/h
215 27-02-2019 22:00:00 5.55 C 5.67 g/m*3 5.55 C 0 km/h
216 27-02-2019 23:00:00 4.83333 C 5.55 g/m*3 4.83 C 0 km/h
217 28-02-2019 00:00:00 5.35 C 5.77 g/m*3 5.35 C 2.4 km/h
218 28-02-2019 01:00:00 4.93333 C 5.54 g/m*3 4.93 C 0.4 km/h
219 28-02-2019 02:00:00 3.675 C 5.4 g/m*3 3.68 C 3.20833 km/h
220 28-02-2019 03:00:00 2.94167 C 5.27 g/m*3 2.94 C 2.66667 km/h
221 28-02-2019 04:00:00 2.275 C 5.11 g/m*3 2.28 C 2.53333 km/h
222 28-02-2019 05:00:00 2.35833 C 5.18 g/m*3 2.36 C 3.35 km/h
223 28-02-2019 06:00:00 3.21667 C 5.45 g/m*3 1.38 C 6.85833 km/h
224 28-02-2019 07:00:00 3.75 C 5.43 g/m*3 2.47 C 5.5 km/h
225 28-02-2019 08:00:00 3.075 C 5.38 g/m*3 3.08 C 3.075 km/h
Sensor: Nr:Datum:Temp:Abs-Feuchte:Windchill:Wind:
Aussen-T/F 226 28-02-2019 09:00:00 4.68333 C 5.92 g/m*3 4.68 C 3.34167 km/h
227 28-02-2019 10:00:00 7.65833 C 6.83 g/m*3 6.03 C 9.01667 km/h
228 28-02-2019 11:00:00 11.56667 C 7.5 g/m*3 11.57 C 12.63333 km/h
229 28-02-2019 12:00:00 13.26667 C 7.75 g/m*3 13.27 C 11.16667 km/h
230 28-02-2019 13:00:00 14.95833 C 8.12 g/m*3 14.96 C 11.56667 km/h
231 28-02-2019 14:00:00 16.61667 C 8.6 g/m*3 16.62 C 12.89167 km/h
232 28-02-2019 15:00:00 16.76667 C 8.7 g/m*3 16.77 C 11.15 km/h
233 28-02-2019 16:00:00 15.20833 C 8.3 g/m*3 15.21 C 17.175 km/h
234 28-02-2019 17:00:00 12.73333 C 7.56 g/m*3 12.73 C 18.10833 km/h
235 28-02-2019 18:00:00 12.13333 C 7.68 g/m*3 12.13 C 9.425 km/h
236 28-02-2019 19:00:00 11.26667 C 7.7 g/m*3 11.27 C 8.86667 km/h
237 28-02-2019 20:00:00 11.09167 C 7.91 g/m*3 11.09 C 11.43333 km/h
238 28-02-2019 21:00:00 10.975 C 8.07 g/m*3 9.52 C 11.83333 km/h
239 28-02-2019 22:00:00 10.84167 C 8.1 g/m*3 9.6 C 10.20833 km/h
240 28-02-2019 23:00:00 10.26667 C 8.27 g/m*3 9.03 C 9.525 km/h
241 01-03-2019 00:00:00 9.075 C 8.14 g/m*3 9.07 C 4.68333 km/h
242 01-03-2019 01:00:00 8.68333 C 8.1 g/m*3 8.68 C 4.675 km/h
243 01-03-2019 02:00:00 8.69167 C 8.07 g/m*3 7.15 C 9.55 km/h
244 01-03-2019 03:00:00 8.8 C 7.96 g/m*3 7.33 C 9.275 km/h
245 01-03-2019 04:00:00 8.75833 C 7.9 g/m*3 8.12 C 5.75 km/h
246 01-03-2019 05:00:00 8.63333 C 7.9 g/m*3 8.63 C 3.60833 km/h
247 01-03-2019 06:00:00 8.20833 C 7.84 g/m*3 8.21 C 3.475 km/h
248 01-03-2019 07:00:00 8.21667 C 7.96 g/m*3 8.22 C 3.60833 km/h
249 01-03-2019 08:00:00 8.53333 C 8.13 g/m*3 8.53 C 2.8 km/h
250 01-03-2019 09:00:00 8.68333 C 8.21 g/m*3 8.68 C 0.8 km/h
Sensor: Nr:Datum:Temp:Abs-Feuchte:Windchill:Wind:
Aussen-T/F 251 01-03-2019 10:00:00 8.66667 C 8.28 g/m*3 8.67 C 0.26667 km/h
252 01-03-2019 11:00:00 8.75833 C 8.25 g/m*3 8.76 C 2.66667 km/h
253 01-03-2019 12:00:00 9.01667 C 8.07 g/m*3 7.09 C 12.21667 km/h
254 01-03-2019 13:00:00 8.49167 C 7.81 g/m*3 6.79 C 10.19167 km/h
255 01-03-2019 14:00:00 8.38333 C 7.66 g/m*3 7 C 8.475 km/h
256 01-03-2019 15:00:00 8.325 C 7.57 g/m*3 7.65 C 5.63333 km/h
257 01-03-2019 16:00:00 8.34167 C 7.65 g/m*3 8.34 C 4.68333 km/h
258 01-03-2019 17:00:00 8.28333 C 7.66 g/m*3 8.28 C 3.21667 km/h
259 01-03-2019 18:00:00 7.61667 C 7.21 g/m*3 5.35 C 12.5 km/h
260 01-03-2019 19:00:00 6.9 C 6.92 g/m*3 5.29 C 8.31667 km/h
261 01-03-2019 20:00:00 6.625 C 6.88 g/m*3 6.63 C 1.73333 km/h
262 01-03-2019 21:00:00 6.45 C 6.78 g/m*3 6.45 C 1.2 km/h
263 01-03-2019 22:00:00 6.375 C 6.71 g/m*3 6.38 C 1.73333 km/h
264 01-03-2019 23:00:00 6.53333 C 6.66 g/m*3 6.53 C 0.93333 km/h
265 02-03-2019 00:00:00 6.19167 C 6.55 g/m*3 6.19 C 4.30833 km/h
266 02-03-2019 01:00:00 5.85 C 6.4 g/m*3 5.85 C 1.6 km/h
267 02-03-2019 02:00:00 5.64167 C 6.43 g/m*3 5.64 C 0.93333 km/h
268 02-03-2019 03:00:00 5.65 C 6.43 g/m*3 5.65 C 1.46667 km/h
269 02-03-2019 04:00:00 5.7 C 6.47 g/m*3 5.7 C 0.26667 km/h
270 02-03-2019 05:00:00 6.10833 C 6.65 g/m*3 6.11 C 4.80833 km/h
271 02-03-2019 06:00:00 6.30833 C 6.74 g/m*3 6.31 C 3.73333 km/h
272 02-03-2019 07:00:00 6.65 C 6.89 g/m*3 6.65 C 4.68333 km/h
273 02-03-2019 08:00:00 7.01667 C 7.01 g/m*3 7.02 C 4.94167 km/h
274 02-03-2019 09:00:00 7.66667 C 7.19 g/m*3 5.96 C 9.41667 km/h
275 02-03-2019 10:00:00 8.05 C 7.28 g/m*3 6.73 C 7.925 km/h
Sensor: Nr:Datum:Temp:Abs-Feuchte:Windchill:Wind:
Aussen-T/F 276 02-03-2019 11:00:00 8.99167 C 7.53 g/m*3 7.61 C 9.025 km/h
277 02-03-2019 12:00:00 9.94167 C 7.75 g/m*3 8.71 C 9.16667 km/h
278 02-03-2019 13:00:00 10.63333 C 7.82 g/m*3 9.66 C 8.475 km/h
279 02-03-2019 14:00:00 11.40833 C 7.76 g/m*3 11.41 C 6.975 km/h
280 02-03-2019 15:00:00 11.925 C 7.67 g/m*3 11.93 C 8.75 km/h
281 02-03-2019 16:00:00 12.35 C 7.67 g/m*3 12.35 C 10.625 km/h
282 02-03-2019 17:00:00 11.35833 C 7.73 g/m*3 11.36 C 14.5 km/h
283 02-03-2019 18:00:00 10.55 C 7.84 g/m*3 9.09 C 11.28333 km/h
284 02-03-2019 19:00:00 9.84167 C 8 g/m*3 8.11 C 12.1 km/h
285 02-03-2019 20:00:00 9.53333 C 7.96 g/m*3 7.84 C 11.41667 km/h
286 02-03-2019 21:00:00 9.83333 C 8.13 g/m*3 7.98 C 12.9 km/h
287 02-03-2019 22:00:00 10.25 C 8.11 g/m*3 8.53 C 12.61667 km/h
288 02-03-2019 23:00:00 9.96667 C 7.8 g/m*3 8.58 C 10.08333 km/h
289 03-03-2019 00:00:00 9.05833 C 7.33 g/m*3 8.49 C 5.63333 km/h
290 03-03-2019 01:00:00 9.175 C 7.6 g/m*3 7.47 C 11.00833 km/h
291 03-03-2019 02:00:00 9.98333 C 7.63 g/m*3 8.19 C 12.74167 km/h
292 03-03-2019 03:00:00 10 C 7.61 g/m*3 8.3 C 12.09167 km/h
293 03-03-2019 04:00:00 10.225 C 7.71 g/m*3 8.5 C 12.63333 km/h
294 03-03-2019 05:00:00 10.20833 C 7.6 g/m*3 8.39 C 13.28333 km/h
295 03-03-2019 06:00:00 10.10833 C 7.65 g/m*3 8.51 C 11.55 km/h
296 03-03-2019 07:00:00 10.13333 C 7.68 g/m*3 8.28 C 13.425 km/h
297 03-03-2019 08:00:00 10.31667 C 7.81 g/m*3 7.58 C 22.11667 km/h
298 03-03-2019 09:00:00 10.875 C 8.06 g/m*3 8.13 C 24.125 km/h
299 03-03-2019 10:00:00 11.15833 C 8.19 g/m*3 11.16 C 26.01667 km/h
300 03-03-2019 11:00:00 11.00833 C 8.21 g/m*3 11.01 C 15.16667 km/h
Sensor: Nr:Datum:Temp:Abs-Feuchte:Windchill:Wind:
Aussen-T/F 301 03-03-2019 12:00:00 11.225 C 8.33 g/m*3 11.23 C 16.36667 km/h
302 03-03-2019 13:00:00 11.73333 C 8.44 g/m*3 11.73 C 11.15833 km/h
303 03-03-2019 14:00:00 11.79167 C 8.42 g/m*3 11.79 C 13.15833 km/h
304 03-03-2019 15:00:00 11.7 C 8.5 g/m*3 11.7 C 14.625 km/h
305 03-03-2019 16:00:00 11.7 C 8.52 g/m*3 11.7 C 14.36667 km/h
306 03-03-2019 17:00:00 11.9 C 8.41 g/m*3 11.9 C 13.43333 km/h
307 03-03-2019 18:00:00 12.18333 C 8.35 g/m*3 12.18 C 14.5 km/h
308 03-03-2019 19:00:00 12.28333 C 8.23 g/m*3 12.28 C 13.83333 km/h
309 03-03-2019 20:00:00 12.33333 C 8.27 g/m*3 12.33 C 14.36667 km/h
310 03-03-2019 21:00:00 12.33333 C 8.39 g/m*3 12.33 C 21.05 km/h
311 03-03-2019 22:00:00 12.525 C 8.43 g/m*3 12.53 C 18.36667 km/h
312 03-03-2019 23:00:00 12.75833 C 8.24 g/m*3 12.76 C 6.43333 km/h
313 04-03-2019 00:00:00 13.10833 C 8.13 g/m*3 13.11 C 8.33333 km/h
314 04-03-2019 01:00:00 13.50833 C 8.02 g/m*3 13.51 C 13.54167 km/h
315 04-03-2019 02:00:00 12.66667 C 8.38 g/m*3 12.67 C 27.74167 km/h
316 04-03-2019 03:00:00 11.79167 C 8.46 g/m*3 11.79 C 18.10833 km/h
317 04-03-2019 04:00:00 11.675 C 8.51 g/m*3 11.68 C 10.75 km/h
318 04-03-2019 05:00:00 11.63333 C 8.34 g/m*3 11.63 C 9.26667 km/h
319 04-03-2019 06:00:00 11.45 C 8.13 g/m*3 11.45 C 12.20833 km/h
320 04-03-2019 07:00:00 12 C 7.87 g/m*3 12 C 16.9 km/h
321 04-03-2019 08:00:00 11.49167 C 7.55 g/m*3 11.49 C 31.91667 km/h
322 04-03-2019 09:00:00 9.39167 C 6.9 g/m*3 6.12 C 25.475 km/h
323 04-03-2019 10:00:00 9.90833 C 7.15 g/m*3 6.92 C 23.85833 km/h
324 04-03-2019 11:00:00 11.23333 C 7.03 g/m*3 11.23 C 27.36667 km/h
325 04-03-2019 12:00:00 10.98333 C 7.29 g/m*3 8.02 C 27.63333 km/h
Sensor: Nr:Datum:Temp:Abs-Feuchte:Windchill:Wind:
Aussen-T/F 326 04-03-2019 13:00:00 9.73333 C 7.77 g/m*3 6.6 C 24.925 km/h
327 04-03-2019 14:00:00 9.44167 C 7.56 g/m*3 6.35 C 23.44167 km/h
328 04-03-2019 15:00:00 7.1 C 6.58 g/m*3 4.35 C 14.9 km/h
329 04-03-2019 16:00:00 7.54167 C 6.39 g/m*3 4.79 C 15.7 km/h
330 04-03-2019 17:00:00 7.4 C 6.26 g/m*3 5.15 C 12.1 km/h
331 04-03-2019 18:00:00 6.96667 C 6.22 g/m*3 4.79 C 11.15 km/h
332 04-03-2019 19:00:00 6.86667 C 6.25 g/m*3 4.1 C 14.63333 km/h
333 04-03-2019 20:00:00 6.95 C 6.29 g/m*3 4.51 C 12.625 km/h
334 04-03-2019 21:00:00 6.61667 C 6.29 g/m*3 4.54 C 10.225 km/h
335 04-03-2019 22:00:00 7.09167 C 6.45 g/m*3 4.2 C 15.96667 km/h
336 04-03-2019 23:00:00 6.7 C 6.36 g/m*3 4.47 C 11.13333 km/h
337 05-03-2019 00:00:00 6.875 C 6.26 g/m*3 4.45 C 12.475 km/h
338 05-03-2019 01:00:00 6.875 C 6.19 g/m*3 4.38 C 12.9 km/h
339 05-03-2019 02:00:00 6.79167 C 6.11 g/m*3 3.57 C 17.96667 km/h
340 05-03-2019 03:00:00 6.74167 C 6.13 g/m*3 3.6 C 17.16667 km/h
341 05-03-2019 04:00:00 6.425 C 6.04 g/m*3 3.58 C 14.49167 km/h
342 05-03-2019 05:00:00 6.35 C 6.01 g/m*3 3.45 C 14.76667 km/h
343 05-03-2019 06:00:00 6.24167 C 5.88 g/m*3 3.46 C 13.83333 km/h
344 05-03-2019 07:00:00 6.475 C 5.93 g/m*3 3.06 C 18.90833 km/h
345 05-03-2019 08:00:00 6.64167 C 6.07 g/m*3 3.23 C 19.16667 km/h
346 05-03-2019 09:00:00 6.50833 C 6.25 g/m*3 3.51 C 15.7 km/h
347 05-03-2019 10:00:00 6.625 C 6.44 g/m*3 4.3 C 11.56667 km/h
348 05-03-2019 11:00:00 6.99167 C 6.53 g/m*3 4.61 C 12.36667 km/h
349 05-03-2019 12:00:00 7.3 C 6.45 g/m*3 4.77 C 13.7 km/h
350 05-03-2019 13:00:00 7.96667 C 6.58 g/m*3 5.81 C 12.23333 km/h
Sensor: Nr:Datum:Temp:Abs-Feuchte:Windchill:Wind:
Aussen-T/F 351 05-03-2019 14:00:00 8.65 C 6.68 g/m*3 6.48 C 13.3 km/h
352 05-03-2019 15:00:00 8.95833 C 6.59 g/m*3 7.12 C 11.55833 km/h
353 05-03-2019 16:00:00 9.81667 C 6.76 g/m*3 8.31 C 10.625 km/h
354 05-03-2019 17:00:00 9.34167 C 6.68 g/m*3 7.93 C 9.54167 km/h
355 05-03-2019 18:00:00 7.13333 C 6.3 g/m*3 6.21 C 5.89167 km/h
356 05-03-2019 19:00:00 6.55 C 6.21 g/m*3 5.54 C 5.88333 km/h
357 05-03-2019 20:00:00 5.46667 C 5.97 g/m*3 5.47 C 1.46667 km/h
358 05-03-2019 21:00:00 4.275 C 5.8 g/m*3 4.28 C 0.66667 km/h
359 05-03-2019 22:00:00 4.70833 C 6.13 g/m*3 4.71 C 0.26667 km/h
360 05-03-2019 23:00:00 5.26667 C 6.36 g/m*3 5.27 C 0 km/h
361 06-03-2019 00:00:00 5.65 C 6.5 g/m*3 5.65 C 0.66667 km/h
362 06-03-2019 01:00:00 6.15 C 6.71 g/m*3 6.15 C 0.4 km/h
363 06-03-2019 02:00:00 7.03333 C 6.98 g/m*3 7.03 C 3.46667 km/h
364 06-03-2019 03:00:00 7 C 6.93 g/m*3 7 C 0.26667 km/h
365 06-03-2019 04:00:00 6.81667 C 6.97 g/m*3 6.82 C 2.675 km/h
366 06-03-2019 05:00:00 7.175 C 6.99 g/m*3 6.1 C 6.43333 km/h
367 06-03-2019 06:00:00 6.40833 C 6.68 g/m*3 6.41 C 2.675 km/h
368 06-03-2019 07:00:00 5.44167 C 6.38 g/m*3 5.44 C 1.2 km/h
369 06-03-2019 08:00:00 6.43333 C 6.8 g/m*3 6.43 C 2.93333 km/h
370 06-03-2019 09:00:00 8.15833 C 7.04 g/m*3 8.16 C 2.66667 km/h
371 06-03-2019 10:00:00 10.00833 C 7.18 g/m*3 10.01 C 4.025 km/h
372 06-03-2019 11:00:00 12.275 C 7.09 g/m*3 12.28 C 7.24167 km/h
373 06-03-2019 12:00:00 13.31667 C 6.85 g/m*3 13.32 C 6.58333 km/h
374 06-03-2019 13:00:00 13.375 C 7.08 g/m*3 13.38 C 5.35 km/h
375 06-03-2019 14:00:00 13.7 C 7.31 g/m*3 13.7 C 2.66667 km/h
Sensor: Nr:Datum:Temp:Abs-Feuchte:Windchill:Wind:
Aussen-T/F 376 06-03-2019 15:00:00 14.56667 C 7.34 g/m*3 14.57 C 3.875 km/h
377 06-03-2019 16:00:00 15.19167 C 7.45 g/m*3 15.19 C 4.14167 km/h
378 06-03-2019 17:00:00 13.93333 C 8.2 g/m*3 13.93 C 3.475 km/h
379 06-03-2019 18:00:00 13.00833 C 8.24 g/m*3 13.01 C 4.26667 km/h
380 06-03-2019 19:00:00 11.65833 C 8.48 g/m*3 11.66 C 1.86667 km/h
381 06-03-2019 20:00:00 10.65 C 8.31 g/m*3 10.65 C 0.4 km/h
382 06-03-2019 21:00:00 10.675 C 8.25 g/m*3 10.68 C 0.4 km/h
383 06-03-2019 22:00:00 10.66667 C 8.25 g/m*3 10.67 C 1.33333 km/h
384 06-03-2019 23:00:00 11.175 C 8.23 g/m*3 11.18 C 3.475 km/h
385 07-03-2019 00:00:00 11.05833 C 8.41 g/m*3 11.06 C 3.33333 km/h
386 07-03-2019 01:00:00 10.93333 C 8.72 g/m*3 10.93 C 2.26667 km/h
387 07-03-2019 02:00:00 10.025 C 8.63 g/m*3 10.03 C 0.53333 km/h
388 07-03-2019 03:00:00 9.58333 C 8.47 g/m*3 9.58 C 1.33333 km/h
389 07-03-2019 04:00:00 10.08333 C 8.37 g/m*3 10.08 C 3.46667 km/h
390 07-03-2019 05:00:00 11.45 C 8.2 g/m*3 11.45 C 9.40833 km/h
391 07-03-2019 06:00:00 12.05833 C 7.91 g/m*3 12.06 C 17.16667 km/h
392 07-03-2019 07:00:00 11.325 C 7.59 g/m*3 11.33 C 24.53333 km/h
393 07-03-2019 08:00:00 10.69167 C 7.45 g/m*3 7.94 C 23.58333 km/h
394 07-03-2019 09:00:00 10.06667 C 7.8 g/m*3 7.2 C 22.90833 km/h
395 07-03-2019 10:00:00 10.225 C 7.83 g/m*3 7.22 C 25.19167 km/h
396 07-03-2019 11:00:00 9.8 C 7.79 g/m*3 6.61 C 25.88333 km/h
397 07-03-2019 12:00:00 10.78333 C 7.37 g/m*3 8.11 C 22.94167 km/h
398 07-03-2019 13:00:00 12 C 7.32 g/m*3 12 C 19.70833 km/h
399 07-03-2019 14:00:00 10.40833 C 7.53 g/m*3 8.26 C 16.36667 km/h
400 07-03-2019 15:00:00 10.825 C 7.33 g/m*3 8.72 C 16.9 km/h
Sensor: Nr:Datum:Temp:Abs-Feuchte:Windchill:Wind:
Aussen-T/F 401 07-03-2019 16:00:00 9.88333 C 7.38 g/m*3 7.88 C 14.09167 km/h
402 07-03-2019 17:00:00 10.14167 C 7.11 g/m*3 8.18 C 14.23333 km/h
403 07-03-2019 18:00:00 9.45 C 6.57 g/m*3 7.2 C 15.3 km/h
404 07-03-2019 19:00:00 8.46667 C 6.77 g/m*3 6.09 C 14.5 km/h
405 07-03-2019 20:00:00 8.64167 C 6.6 g/m*3 5.82 C 18.5 km/h
406 07-03-2019 21:00:00 9.23333 C 6.67 g/m*3 6.58 C 18.36667 km/h
407 07-03-2019 22:00:00 9.2 C 6.67 g/m*3 6.59 C 17.83333 km/h
408 07-03-2019 23:00:00 8.64167 C 6.63 g/m*3 6.51 C 13.03333 km/h
409 08-03-2019 00:00:00 7.65833 C 6.81 g/m*3 5.87 C 9.80833 km/h
410 08-03-2019 01:00:00 7.05833 C 6.68 g/m*3 4.88 C 11.275 km/h
411 08-03-2019 02:00:00 8.15833 C 6.46 g/m*3 5.35 C 17.3 km/h
412 08-03-2019 03:00:00 8.15 C 6.27 g/m*3 5.34 C 17.3 km/h
413 08-03-2019 04:00:00 8.05 C 6.32 g/m*3 5.45 C 15.43333 km/h
414 08-03-2019 05:00:00 7.8 C 6.38 g/m*3 4.91 C 17.3 km/h
415 08-03-2019 06:00:00 7.60833 C 6.44 g/m*3 4.49 C 18.775 km/h
416 08-03-2019 07:00:00 7.7 C 6.52 g/m*3 4.39 C 20.775 km/h
417 08-03-2019 08:00:00 7.85 C 6.69 g/m*3 5.2 C 15.43333 km/h
418 08-03-2019 09:00:00 7.68333 C 6.91 g/m*3 5.2 C 13.96667 km/h
419 08-03-2019 10:00:00 7.75 C 6.92 g/m*3 5.57 C 12.1 km/h
420 08-03-2019 11:00:00 8.65833 C 6.84 g/m*3 6.53 C 13.03333 km/h
421 08-03-2019 12:00:00 9.21667 C 6.44 g/m*3 7.03 C 14.36667 km/h
422 08-03-2019 13:00:00 9.8 C 6.39 g/m*3 7.63 C 15.3 km/h
423 08-03-2019 14:00:00 10.34167 C 6.17 g/m*3 8.32 C 15.16667 km/h
424 08-03-2019 15:00:00 11.25 C 6.3 g/m*3 11.25 C 14.5 km/h
425 08-03-2019 16:00:00 10.26667 C 6.7 g/m*3 8.71 C 11.53333 km/h
Sensor: Nr:Datum:Temp:Abs-Feuchte:Windchill:Wind:
Aussen-T/F 426 08-03-2019 17:00:00 9.15833 C 6.91 g/m*3 7.81 C 9.00833 km/h
427 08-03-2019 18:00:00 7.425 C 6.79 g/m*3 6.63 C 5.625 km/h
428 08-03-2019 19:00:00 6.83333 C 6.73 g/m*3 6.83 C 1.06667 km/h
429 08-03-2019 20:00:00 6.3 C 6.63 g/m*3 6.3 C 0 km/h
430 08-03-2019 21:00:00 6.525 C 6.71 g/m*3 6.53 C 2.54167 km/h
431 08-03-2019 22:00:00 7.025 C 6.63 g/m*3 7.03 C 4.41667 km/h
432 08-03-2019 23:00:00 8.25833 C 6.55 g/m*3 7.31 C 6.56667 km/h
433 09-03-2019 00:00:00 8.56667 C 6.47 g/m*3 6.58 C 11.96667 km/h
434 09-03-2019 01:00:00 9.15833 C 6.47 g/m*3 6.65 C 16.9 km/h
435 09-03-2019 02:00:00 9.375 C 6.54 g/m*3 6.32 C 22.91667 km/h
436 09-03-2019 03:00:00 9.03333 C 6.75 g/m*3 5.29 C 30.29167 km/h
437 09-03-2019 04:00:00 7.95833 C 7 g/m*3 4.14 C 27.08333 km/h
438 09-03-2019 05:00:00 7.775 C 7.12 g/m*3 4.54 C 20.24167 km/h
439 09-03-2019 06:00:00 8.08333 C 7.31 g/m*3 5.71 C 13.83333 km/h
440 09-03-2019 07:00:00 8.63333 C 7.51 g/m*3 6.69 C 11.83333 km/h
441 09-03-2019 08:00:00 9.45 C 7.73 g/m*3 7.42 C 13.55833 km/h
442 09-03-2019 09:00:00 10.15833 C 7.94 g/m*3 7.91 C 16.76667 km/h
443 09-03-2019 10:00:00 10.50833 C 7.9 g/m*3 8.79 C 13.03333 km/h
444 09-03-2019 11:00:00 10.925 C 7.95 g/m*3 9.07 C 14.9 km/h
445 09-03-2019 12:00:00 11.71667 C 8.03 g/m*3 11.72 C 19.98333 km/h
446 09-03-2019 13:00:00 12.525 C 8.21 g/m*3 12.53 C 17.7 km/h
447 09-03-2019 14:00:00 13.48333 C 8.15 g/m*3 13.48 C 25.86667 km/h
448 09-03-2019 15:00:00 13.30833 C 7.96 g/m*3 13.31 C 26.675 km/h
449 09-03-2019 16:00:00 13.39167 C 7.37 g/m*3 13.39 C 29.625 km/h
450 09-03-2019 17:00:00 13.05833 C 6.9 g/m*3 13.06 C 23.46667 km/h
Sensor: Nr:Datum:Temp:Abs-Feuchte:Windchill:Wind:
Aussen-T/F 451 09-03-2019 18:00:00 12.01667 C 6.68 g/m*3 12.02 C 23.46667 km/h
452 09-03-2019 19:00:00 10.65833 C 7.27 g/m*3 8.99 C 12.89167 km/h
453 09-03-2019 20:00:00 9.45 C 7.46 g/m*3 9.45 C 3.89167 km/h
454 09-03-2019 21:00:00 9.66667 C 7.56 g/m*3 8.81 C 7.11667 km/h
455 09-03-2019 22:00:00 9.60833 C 7.33 g/m*3 8.74 C 7.125 km/h
456 09-03-2019 23:00:00 10.34167 C 6.85 g/m*3 8.48 C 13.83333 km/h
457 10-03-2019 00:00:00 10.11667 C 6.59 g/m*3 8.44 C 12.08333 km/h
458 10-03-2019 01:00:00 9.66667 C 6.48 g/m*3 8.91 C 6.70833 km/h
459 10-03-2019 02:00:00 9.40833 C 6.66 g/m*3 8.71 C 6.29167 km/h
460 10-03-2019 03:00:00 9.1 C 6.86 g/m*3 9.1 C 1.06667 km/h
461 10-03-2019 04:00:00 8.325 C 7.18 g/m*3 8.32 C 0 km/h
462 10-03-2019 05:00:00 7.8 C 7.42 g/m*3 7.8 C 0 km/h
463 10-03-2019 06:00:00 7.475 C 7.47 g/m*3 7.48 C 0 km/h
464 10-03-2019 07:00:00 7.675 C 7.68 g/m*3 7.68 C 0 km/h
465 10-03-2019 08:00:00 8.86667 C 8.38 g/m*3 7.69 C 7.925 km/h
466 10-03-2019 09:00:00 10.58333 C 9.28 g/m*3 9.25 C 10.475 km/h
467 10-03-2019 10:00:00 11.95833 C 9.92 g/m*3 11.96 C 9.825 km/h
468 10-03-2019 11:00:00 13.14167 C 9.01 g/m*3 13.14 C 21.175 km/h
469 10-03-2019 12:00:00 14.125 C 8.78 g/m*3 14.13 C 24.65833 km/h
470 10-03-2019 13:00:00 14.4 C 7.98 g/m*3 14.4 C 30.575 km/h
471 10-03-2019 14:00:00 14.40833 C 6.43 g/m*3 14.41 C 39.13333 km/h
472 10-03-2019 15:00:00 13.55833 C 5.9 g/m*3 13.56 C 37 km/h
473 10-03-2019 16:00:00 12.53333 C 5.53 g/m*3 12.53 C 36.475 km/h
474 10-03-2019 17:00:00 10.38333 C 6.06 g/m*3 7.75 C 21.19167 km/h
475 10-03-2019 18:00:00 7.69167 C 6.5 g/m*3 4.44 C 20.25 km/h
Sensor: Nr:Datum:Temp:Abs-Feuchte:Windchill:Wind:
Aussen-T/F 476 10-03-2019 19:00:00 6.94167 C 6.07 g/m*3 3.5 C 20.10833 km/h
477 10-03-2019 20:00:00 6.075 C 5.5 g/m*3 1.97 C 24.26667 km/h
478 10-03-2019 21:00:00 5.21667 C 5.46 g/m*3 2.27 C 13.43333 km/h
479 10-03-2019 22:00:00 5.05833 C 5.45 g/m*3 2.79 C 9.7 km/h
480 10-03-2019 23:00:00 4.85833 C 5.41 g/m*3 2.72 C 8.99167 km/h
481 11-03-2019 00:00:00 4.34167 C 5.27 g/m*3 3.1 C 5.61667 km/h
482 11-03-2019 01:00:00 4.50833 C 5.24 g/m*3 2.11 C 9.80833 km/h
483 11-03-2019 02:00:00 5.10833 C 5.4 g/m*3 1.94 C 14.63333 km/h
484 11-03-2019 03:00:00 3.65833 C 5.3 g/m*3 0.78 C 11.26667 km/h
485 11-03-2019 04:00:00 2.36667 C 5.27 g/m*3 2.37 C 1.86667 km/h
486 11-03-2019 05:00:00 2.20833 C 5.23 g/m*3 -1.96 C 16.63333 km/h
487 11-03-2019 06:00:00 1.74167 C 5.05 g/m*3 -0.9 C 8.71667 km/h
488 11-03-2019 07:00:00 1.525 C 5.07 g/m*3 1.53 C 3.33333 km/h
489 11-03-2019 08:00:00 2.31667 C 5.39 g/m*3 2.32 C 4.28333 km/h
490 11-03-2019 09:00:00 3.34167 C 5.44 g/m*3 -0.07 C 13.7 km/h
491 11-03-2019 10:00:00 3.925 C 5.59 g/m*3 0.76 C 13.03333 km/h
492 11-03-2019 11:00:00 4.875 C 5.55 g/m*3 1.72 C 14.23333 km/h
493 11-03-2019 12:00:00 5.60833 C 5.4 g/m*3 2.36 C 15.96667 km/h
494 11-03-2019 13:00:00 6.575 C 5.41 g/m*3 3.23 C 18.5 km/h
495 11-03-2019 14:00:00 7.04167 C 5.45 g/m*3 3.75 C 19.04167 km/h
496 11-03-2019 15:00:00 7.63333 C 5.39 g/m*3 4.12 C 22.64167 km/h
497 11-03-2019 16:00:00 7.26667 C 5.38 g/m*3 4.04 C 19.03333 km/h
498 11-03-2019 17:00:00 7.175 C 5.5 g/m*3 4.88 C 12.08333 km/h
499 11-03-2019 18:00:00 6.93333 C 5.3 g/m*3 4.6 C 11.96667 km/h
500 11-03-2019 19:00:00 5.83333 C 5.22 g/m*3 2.89 C 14.23333 km/h
Sensor: Nr:Datum:Temp:Abs-Feuchte:Windchill:Wind:
Aussen-T/F 501 11-03-2019 20:00:00 5.68333 C 5.22 g/m*3 2.75 C 13.96667 km/h
502 11-03-2019 21:00:00 5.28333 C 5.19 g/m*3 3.06 C 9.69167 km/h
503 11-03-2019 22:00:00 5.34167 C 5.17 g/m*3 3.32 C 8.86667 km/h
504 11-03-2019 23:00:00 4.75 C 5.08 g/m*3 3.52 C 5.75833 km/h
505 12-03-2019 00:00:00 4.19167 C 5.16 g/m*3 2.61 C 6.55833 km/h
506 12-03-2019 01:00:00 3.225 C 5.08 g/m*3 3.23 C 4.41667 km/h
507 12-03-2019 02:00:00 2.15833 C 4.89 g/m*3 2.16 C 3.875 km/h
508 12-03-2019 03:00:00 1.65833 C 4.82 g/m*3 1.66 C 4.41667 km/h
509 12-03-2019 04:00:00 1.33333 C 4.75 g/m*3 1.33 C 4.40833 km/h
510 12-03-2019 05:00:00 1.625 C 4.88 g/m*3 1.63 C 3.6 km/h
511 12-03-2019 06:00:00 1.76667 C 4.9 g/m*3 1.77 C 2.93333 km/h
512 12-03-2019 07:00:00 1.93333 C 5.02 g/m*3 1.93 C 0 km/h
513 12-03-2019 08:00:00 3.25 C 5.38 g/m*3 3.25 C 1.33333 km/h
514 12-03-2019 09:00:00 5.20833 C 5.68 g/m*3 5.21 C 2.28333 km/h
515 12-03-2019 10:00:00 7.4 C 5.75 g/m*3 5.31 C 11.16667 km/h
516 12-03-2019 11:00:00 8.78333 C 5.53 g/m*3 6.67 C 13.16667 km/h
517 12-03-2019 12:00:00 9.40833 C 5.54 g/m*3 7.58 C 12.09167 km/h
518 12-03-2019 13:00:00 9.74167 C 5.49 g/m*3 8.26 C 10.35 km/h
519 12-03-2019 14:00:00 10.18333 C 5.48 g/m*3 9.15 C 8.34167 km/h
520 12-03-2019 15:00:00 10.56667 C 5.26 g/m*3 9.15 C 11.025 km/h
521 12-03-2019 16:00:00 10.33333 C 4.82 g/m*3 9.47 C 7.65833 km/h
522 12-03-2019 17:00:00 9.34167 C 5 g/m*3 9.34 C 1.6 km/h
523 12-03-2019 18:00:00 8.1 C 5.1 g/m*3 8.1 C 2.275 km/h
524 12-03-2019 19:00:00 8.725 C 4.69 g/m*3 8.73 C 4.01667 km/h
525 12-03-2019 20:00:00 9.425 C 4.21 g/m*3 8.69 C 6.45 km/h
Sensor: Nr:Datum:Temp:Abs-Feuchte:Windchill:Wind:
Aussen-T/F 526 12-03-2019 21:00:00 10.74167 C 4.5 g/m*3 9.26 C 11.68333 km/h
527 12-03-2019 22:00:00 11.14167 C 5.45 g/m*3 11.14 C 22.93333 km/h
528 12-03-2019 23:00:00 8.53333 C 6.56 g/m*3 5.7 C 18.36667 km/h
529 13-03-2019 00:00:00 6.53333 C 6.06 g/m*3 3.69 C 14.63333 km/h
530 13-03-2019 01:00:00 5.74167 C 5.67 g/m*3 2.62 C 15.3 km/h
531 13-03-2019 02:00:00 5.425 C 5.6 g/m*3 3.01 C 10.75833 km/h
532 13-03-2019 03:00:00 5.74167 C 5.51 g/m*3 3.16 C 11.95 km/h
533 13-03-2019 04:00:00 5.53333 C 5.61 g/m*3 3.01 C 11.40833 km/h
534 13-03-2019 05:00:00 5.34167 C 5.77 g/m*3 2.33 C 13.95833 km/h
535 13-03-2019 06:00:00 5.16667 C 5.69 g/m*3 1.53 C 17.96667 km/h
536 13-03-2019 07:00:00 5.46667 C 5.65 g/m*3 1.69 C 19.71667 km/h
537 13-03-2019 08:00:00 6.08333 C 5.85 g/m*3 2.68 C 17.96667 km/h
538 13-03-2019 09:00:00 6.5 C 5.84 g/m*3 2.96 C 19.975 km/h
539 13-03-2019 10:00:00 6.94167 C 5.96 g/m*3 3.09 C 24.125 km/h
540 13-03-2019 11:00:00 7.81667 C 6.14 g/m*3 4.23 C 23.98333 km/h
541 13-03-2019 12:00:00 8.15833 C 6.22 g/m*3 4.85 C 21.975 km/h
542 13-03-2019 13:00:00 7.95833 C 6.31 g/m*3 4.31 C 25.075 km/h
543 13-03-2019 14:00:00 8.05 C 6.48 g/m*3 4.83 C 20.775 km/h
544 13-03-2019 15:00:00 7.79167 C 6.54 g/m*3 4.68 C 19.175 km/h
545 13-03-2019 16:00:00 6.825 C 6.69 g/m*3 4.15 C 13.96667 km/h
546 13-03-2019 17:00:00 6.65833 C 6.66 g/m*3 3.48 C 17.3 km/h
547 13-03-2019 18:00:00 6.55 C 6.6 g/m*3 3.45 C 16.5 km/h
548 13-03-2019 19:00:00 4.95833 C 6.23 g/m*3 2.34 C 11.29167 km/h
549 13-03-2019 20:00:00 4.94167 C 6.24 g/m*3 1.91 C 13.56667 km/h
550 13-03-2019 21:00:00 4.94167 C 6.27 g/m*3 2.24 C 11.7 km/h
Sensor: Nr:Datum:Temp:Abs-Feuchte:Windchill:Wind:
Aussen-T/F 551 13-03-2019 22:00:00 5.04167 C 6.34 g/m*3 2.97 C 8.86667 km/h
552 13-03-2019 23:00:00 4.725 C 6.18 g/m*3 2.91 C 7.65 km/h
553 14-03-2019 00:00:00 4.65 C 6.14 g/m*3 1.57 C 13.43333 km/h
554 14-03-2019 01:00:00 5.13333 C 6.21 g/m*3 2.95 C 9.39167 km/h
555 14-03-2019 02:00:00 4.81667 C 6.17 g/m*3 3.01 C 7.66667 km/h
556 14-03-2019 03:00:00 4.46667 C 6.1 g/m*3 2.97 C 6.43333 km/h
557 14-03-2019 04:00:00 5.05 C 6.36 g/m*3 3.25 C 7.78333 km/h
558 14-03-2019 05:00:00 5.73333 C 6.54 g/m*3 3.75 C 9 km/h
559 14-03-2019 06:00:00 6.13333 C 6.53 g/m*3 4.26 C 8.85833 km/h
560 14-03-2019 07:00:00 6.35 C 6.48 g/m*3 3.55 C 14.1 km/h
561 14-03-2019 08:00:00 6.70833 C 6.51 g/m*3 4.22 C 12.625 km/h
562 14-03-2019 09:00:00 6.41667 C 6.63 g/m*3 3.93 C 12.23333 km/h
563 14-03-2019 10:00:00 6.55 C 6.64 g/m*3 3.62 C 15.3 km/h
564 14-03-2019 11:00:00 6.55833 C 6.71 g/m*3 3.74 C 14.5 km/h
565 14-03-2019 12:00:00 7.15 C 6.94 g/m*3 3.89 C 19.03333 km/h
566 14-03-2019 13:00:00 7.30833 C 7 g/m*3 3.32 C 26.825 km/h
567 14-03-2019 14:00:00 7.33333 C 6.96 g/m*3 3.57 C 24.39167 km/h
568 14-03-2019 15:00:00 7.69167 C 7.31 g/m*3 4.45 C 20.1 km/h
569 14-03-2019 16:00:00 8.875 C 7.54 g/m*3 6.19 C 17.84167 km/h
570 14-03-2019 17:00:00 9.85833 C 7.88 g/m*3 7.53 C 16.76667 km/h
571 14-03-2019 18:00:00 9.875 C 7.7 g/m*3 8.54 C 9.68333 km/h
572 14-03-2019 19:00:00 9.54167 C 7.07 g/m*3 7.4 C 14.61667 km/h
573 14-03-2019 20:00:00 7.96667 C 7.02 g/m*3 6.37 C 9.13333 km/h
574 14-03-2019 21:00:00 8.2 C 6.95 g/m*3 7.35 C 6.16667 km/h
575 14-03-2019 22:00:00 8.38333 C 6.76 g/m*3 6.4 C 11.7 km/h
Sensor: Nr:Datum:Temp:Abs-Feuchte:Windchill:Wind:
Aussen-T/F 576 14-03-2019 23:00:00 8.11667 C 6.6 g/m*3 6.08 C 11.69167 km/h
577 15-03-2019 00:00:00 7.11667 C 6.48 g/m*3 5.42 C 8.88333 km/h
578 15-03-2019 01:00:00 6.38333 C 6.39 g/m*3 4.55 C 8.86667 km/h
579 15-03-2019 02:00:00 6.86667 C 6.57 g/m*3 5.62 C 6.84167 km/h
580 15-03-2019 03:00:00 6.40833 C 6.49 g/m*3 6.41 C 4.81667 km/h
581 15-03-2019 04:00:00 6.04167 C 6.5 g/m*3 6.04 C 4 km/h
582 15-03-2019 05:00:00 7.00833 C 6.79 g/m*3 5.24 C 9.13333 km/h
583 15-03-2019 06:00:00 7.225 C 7.08 g/m*3 7.23 C 4.16667 km/h
584 15-03-2019 07:00:00 7.125 C 7.25 g/m*3 5.43 C 8.85833 km/h
585 15-03-2019 08:00:00 7.49167 C 7.52 g/m*3 6.02 C 8.19167 km/h
586 15-03-2019 09:00:00 8.2 C 7.87 g/m*3 5.67 C 15.16667 km/h
587 15-03-2019 10:00:00 9.375 C 8.49 g/m*3 6.96 C 16.5 km/h
588 15-03-2019 11:00:00 11.05 C 9.2 g/m*3 11.05 C 18.63333 km/h
589 15-03-2019 12:00:00 12.38333 C 9.66 g/m*3 12.38 C 17.03333 km/h
590 15-03-2019 13:00:00 13.11667 C 9.66 g/m*3 13.12 C 18.9 km/h
591 15-03-2019 14:00:00 13.66667 C 9.56 g/m*3 13.67 C 21.43333 km/h
592 15-03-2019 15:00:00 13.51667 C 9.69 g/m*3 13.52 C 17.70833 km/h
593 15-03-2019 16:00:00 13.38333 C 9.52 g/m*3 13.38 C 19.03333 km/h
594 15-03-2019 17:00:00 13.03333 C 9.4 g/m*3 13.03 C 16.23333 km/h
595 15-03-2019 18:00:00 12.70833 C 9.38 g/m*3 12.71 C 20.10833 km/h
596 15-03-2019 19:00:00 12.64167 C 9.38 g/m*3 12.64 C 14.63333 km/h
597 15-03-2019 20:00:00 12.10833 C 9.45 g/m*3 12.11 C 14.23333 km/h
598 15-03-2019 21:00:00 12.25 C 9.38 g/m*3 12.25 C 14.23333 km/h
599 15-03-2019 22:00:00 12.4 C 9.31 g/m*3 12.4 C 12.61667 km/h
600 15-03-2019 23:00:00 11.85833 C 9.28 g/m*3 11.86 C 7.78333 km/h
Sensor: Nr:Datum:Temp:Abs-Feuchte:Windchill:Wind:
Aussen-T/F 601 16-03-2019 00:00:00 11.575 C 9.18 g/m*3 11.58 C 13.29167 km/h
602 16-03-2019 01:00:00 9.79167 C 8.51 g/m*3 7.84 C 13.56667 km/h
603 16-03-2019 02:00:00 8.93333 C 8.09 g/m*3 7.29 C 10.35 km/h
604 16-03-2019 03:00:00 8.41667 C 7.96 g/m*3 8.42 C 1.86667 km/h
605 16-03-2019 04:00:00 8.3 C 8.01 g/m*3 8.3 C 0 km/h
606 16-03-2019 05:00:00 8.3 C 8.01 g/m*3 8.3 C 0 km/h
607 16-03-2019 06:00:00 8.73333 C 8.35 g/m*3 8.73 C 4.7 km/h
608 16-03-2019 07:00:00 9.88333 C 8.87 g/m*3 7.65 C 15.96667 km/h
609 16-03-2019 08:00:00 10.375 C 8.96 g/m*3 8.85 C 11.41667 km/h
610 16-03-2019 09:00:00 10.71667 C 9.02 g/m*3 8.87 C 14.35833 km/h
611 16-03-2019 10:00:00 10.84167 C 8.92 g/m*3 9.04 C 14.23333 km/h
612 16-03-2019 11:00:00 10.825 C 8.84 g/m*3 8.69 C 17.16667 km/h
613 16-03-2019 12:00:00 11.46667 C 8.66 g/m*3 11.47 C 19.18333 km/h
614 16-03-2019 13:00:00 11.75833 C 8.4 g/m*3 11.76 C 17.7 km/h
615 16-03-2019 14:00:00 11.125 C 8.15 g/m*3 11.13 C 19.30833 km/h
616 16-03-2019 15:00:00 10.94167 C 7.84 g/m*3 9.32 C 13.025 km/h
617 16-03-2019 16:00:00 10.99167 C 7.75 g/m*3 9.43 C 12.625 km/h
618 16-03-2019 17:00:00 10.9 C 7.58 g/m*3 9.28 C 12.9 km/h
619 16-03-2019 18:00:00 10.69167 C 7.5 g/m*3 9.12 C 12.225 km/h
620 16-03-2019 19:00:00 10.43333 C 7.34 g/m*3 8.53 C 14.36667 km/h
621 16-03-2019 20:00:00 10.31667 C 7.24 g/m*3 8.57 C 12.88333 km/h
622 16-03-2019 21:00:00 10.10833 C 7.39 g/m*3 8 C 15.43333 km/h
623 16-03-2019 22:00:00 10.09167 C 7.47 g/m*3 7.57 C 19.16667 km/h
624 16-03-2019 23:00:00 10.11667 C 7.48 g/m*3 7.68 C 18.36667 km/h
625 17-03-2019 00:00:00 10.29167 C 7.45 g/m*3 7.92 C 18.23333 km/h
Sensor: Nr:Datum:Temp:Abs-Feuchte:Windchill:Wind:
Aussen-T/F 626 17-03-2019 01:00:00 10.425 C 7.43 g/m*3 7.84 C 20.775 km/h
627 17-03-2019 02:00:00 10.20833 C 7.39 g/m*3 8.06 C 15.96667 km/h
628 17-03-2019 03:00:00 10.19167 C 7.32 g/m*3 8.37 C 13.3 km/h
629 17-03-2019 04:00:00 10.11667 C 7.2 g/m*3 7.99 C 15.56667 km/h
630 17-03-2019 05:00:00 10.28333 C 7.15 g/m*3 7.99 C 17.43333 km/h
631 17-03-2019 06:00:00 10.23333 C 7.08 g/m*3 8.12 C 15.69167 km/h
632 17-03-2019 07:00:00 10.24167 C 7.25 g/m*3 7.88 C 17.975 km/h
633 17-03-2019 08:00:00 10.2 C 7.5 g/m*3 8.11 C 15.43333 km/h
634 17-03-2019 09:00:00 10.26667 C 7.61 g/m*3 7.97 C 17.43333 km/h
635 17-03-2019 10:00:00 9.89167 C 7.71 g/m*3 7.65 C 16.1 km/h
636 17-03-2019 11:00:00 8.075 C 6.98 g/m*3 5.88 C 12.63333 km/h
637 17-03-2019 12:00:00 8.78333 C 6.87 g/m*3 6.59 C 13.7 km/h
638 17-03-2019 13:00:00 9.80833 C 7.03 g/m*3 8.07 C 12.1 km/h
639 17-03-2019 14:00:00 10.71667 C 6.35 g/m*3 8.59 C 16.9 km/h
640 17-03-2019 15:00:00 11.01667 C 6.55 g/m*3 11.02 C 15.03333 km/h
641 17-03-2019 16:00:00 10.05 C 6.09 g/m*3 7.78 C 16.64167 km/h
642 17-03-2019 17:00:00 7.89167 C 5.7 g/m*3 5.48 C 13.81667 km/h
643 17-03-2019 18:00:00 7.01667 C 5.86 g/m*3 4.53 C 13.03333 km/h
644 17-03-2019 19:00:00 5.95833 C 5.83 g/m*3 3.9 C 9.53333 km/h
645 17-03-2019 20:00:00 4.51667 C 5.85 g/m*3 2.52 C 8.19167 km/h
646 17-03-2019 21:00:00 4.025 C 5.76 g/m*3 2.33 C 6.825 km/h
647 17-03-2019 22:00:00 3.875 C 5.66 g/m*3 1.39 C 9.68333 km/h
648 17-03-2019 23:00:00 3.83333 C 5.53 g/m*3 1.71 C 8.20833 km/h
649 18-03-2019 00:00:00 2.95 C 5.33 g/m*3 1.35 C 6.04167 km/h
650 18-03-2019 01:00:00 2.55 C 5.29 g/m*3 0.4 C 7.50833 km/h
Sensor: Nr:Datum:Temp:Abs-Feuchte:Windchill:Wind:
Aussen-T/F 651 18-03-2019 02:00:00 3.225 C 5.49 g/m*3 -0.07 C 12.89167 km/h
652 18-03-2019 03:00:00 3.61667 C 5.47 g/m*3 1.77 C 7.1 km/h
653 18-03-2019 04:00:00 3.25 C 5.41 g/m*3 2.02 C 5.2 km/h
654 18-03-2019 05:00:00 3.10833 C 5.37 g/m*3 0.82 C 8.33333 km/h
655 18-03-2019 06:00:00 3.95833 C 5.48 g/m*3 0.95 C 12.23333 km/h
656 18-03-2019 07:00:00 4.225 C 5.58 g/m*3 1.35 C 11.825 km/h
657 18-03-2019 08:00:00 5.04167 C 5.84 g/m*3 2.19 C 12.63333 km/h
658 18-03-2019 09:00:00 5.06667 C 6.11 g/m*3 2.84 C 9.54167 km/h
659 18-03-2019 10:00:00 6.36667 C 6.37 g/m*3 3.99 C 11.55 km/h
660 18-03-2019 11:00:00 7.74167 C 6.29 g/m*3 5.14 C 14.9 km/h
661 18-03-2019 12:00:00 8.06667 C 5.97 g/m*3 5.44 C 15.7 km/h
662 18-03-2019 13:00:00 6.66667 C 6.43 g/m*3 5.21 C 7.51667 km/h
663 18-03-2019 14:00:00 8.43333 C 6.18 g/m*3 6.72 C 10.21667 km/h
664 18-03-2019 15:00:00 6.71667 C 6.54 g/m*3 6.72 C 4.55 km/h
665 18-03-2019 16:00:00 6.875 C 6.62 g/m*3 6.88 C 3.75 km/h
666 18-03-2019 17:00:00 7.95833 C 6.13 g/m*3 6.97 C 6.56667 km/h
667 18-03-2019 18:00:00 7.49167 C 6.03 g/m*3 7.49 C 2.66667 km/h
668 18-03-2019 19:00:00 5.20833 C 5.88 g/m*3 5.21 C 4.53333 km/h
669 18-03-2019 20:00:00 4.01667 C 5.47 g/m*3 4.02 C 3.86667 km/h
670 18-03-2019 21:00:00 3.09167 C 5.26 g/m*3 3.09 C 1.6 km/h
671 18-03-2019 22:00:00 2.04167 C 5 g/m*3 2.04 C 0.66667 km/h
672 18-03-2019 23:00:00 1.48333 C 4.93 g/m*3 1.48 C 0 km/h
673 19-03-2019 00:00:00 0.93333 C 4.77 g/m*3 0.93 C 0 km/h
674 19-03-2019 01:00:00 0.35833 C 4.62 g/m*3 0.36 C 0 km/h
675 19-03-2019 02:00:00 -0.04167 C 4.53 g/m*3 -0.04 C 0 km/h
Sensor: Nr:Datum:Temp:Abs-Feuchte:Windchill:Wind:
Aussen-T/F 676 19-03-2019 03:00:00 -0.3 C 4.46 g/m*3 -0.3 C 0 km/h
677 19-03-2019 04:00:00 -0.70833 C 4.34 g/m*3 -0.71 C 0 km/h
678 19-03-2019 05:00:00 -1.03333 C 4.25 g/m*3 -1.03 C 0 km/h
679 19-03-2019 06:00:00 -1.2 C 4.22 g/m*3 -1.2 C 0 km/h
680 19-03-2019 07:00:00 -0.375 C 4.49 g/m*3 -0.38 C 0.8 km/h
681 19-03-2019 08:00:00 -0.04167 C 4.59 g/m*3 -0.04 C 0 km/h
682 19-03-2019 09:00:00 0.675 C 4.83 g/m*3 0.68 C 0.13333 km/h
683 19-03-2019 10:00:00 2.36667 C 5.39 g/m*3 2.37 C 0 km/h
684 19-03-2019 11:00:00 5.125 C 5.92 g/m*3 5.13 C 1.60833 km/h
685 19-03-2019 12:00:00 7.29167 C 5.42 g/m*3 7.29 C 3.75 km/h
686 19-03-2019 13:00:00 8.93333 C 5.14 g/m*3 7.8 C 7.78333 km/h
687 19-03-2019 14:00:00 9.975 C 5.3 g/m*3 9.7 C 5.09167 km/h
688 19-03-2019 15:00:00 10.15 C 5.05 g/m*3 9.12 C 8.33333 km/h
689 19-03-2019 16:00:00 11.51667 C 5.01 g/m*3 11.52 C 4.96667 km/h
690 19-03-2019 17:00:00 12.00833 C 4.83 g/m*3 12.01 C 6.85 km/h
691 19-03-2019 18:00:00 9.65 C 5.58 g/m*3 9.65 C 0 km/h
692 19-03-2019 19:00:00 5.6 C 5.46 g/m*3 5.6 C 0 km/h
693 19-03-2019 20:00:00 4.4 C 5.32 g/m*3 4.4 C 0 km/h
694 19-03-2019 21:00:00 3.1 C 5.09 g/m*3 3.1 C 0 km/h
695 19-03-2019 22:00:00 2.025 C 4.84 g/m*3 2.03 C 0 km/h
696 19-03-2019 23:00:00 1.68333 C 4.77 g/m*3 1.68 C 0.13333 km/h
697 20-03-2019 00:00:00 0.8 C 4.56 g/m*3 0.8 C 0 km/h
698 20-03-2019 01:00:00 0.35833 C 4.51 g/m*3 0.36 C 0 km/h
699 20-03-2019 02:00:00 -0.16667 C 4.38 g/m*3 -0.17 C 0 km/h
700 20-03-2019 03:00:00 -0.55 C 4.29 g/m*3 -0.55 C 0 km/h
Sensor: Nr:Datum:Temp:Abs-Feuchte:Windchill:Wind:
Aussen-T/F 701 20-03-2019 04:00:00 -0.90833 C 4.22 g/m*3 -0.91 C 0 km/h
702 20-03-2019 05:00:00 -1.10833 C 4.18 g/m*3 -1.11 C 0 km/h
703 20-03-2019 06:00:00 -1.225 C 4.17 g/m*3 -1.23 C 0 km/h
704 20-03-2019 07:00:00 -1.08333 C 4.22 g/m*3 -1.08 C 0 km/h
705 20-03-2019 08:00:00 -0.675 C 4.37 g/m*3 -0.68 C 0 km/h
706 20-03-2019 09:00:00 0.575 C 4.79 g/m*3 0.57 C 0 km/h
707 20-03-2019 10:00:00 4.26667 C 5.82 g/m*3 4.27 C 0 km/h
708 20-03-2019 11:00:00 8.875 C 6.06 g/m*3 8.88 C 1.73333 km/h
709 20-03-2019 12:00:00 11.63333 C 5.89 g/m*3 11.63 C 5.9 km/h
710 20-03-2019 13:00:00 13.15833 C 5.54 g/m*3 13.16 C 6.70833 km/h
711 20-03-2019 14:00:00 13.75833 C 5.52 g/m*3 13.76 C 6.55833 km/h
712 20-03-2019 15:00:00 13.64167 C 5.61 g/m*3 13.64 C 6.85833 km/h
713 20-03-2019 16:00:00 14.11667 C 5.86 g/m*3 14.12 C 8.075 km/h
714 20-03-2019 17:00:00 14.83333 C 6.28 g/m*3 14.83 C 1.6 km/h
715 20-03-2019 18:00:00 11.88333 C 6.7 g/m*3 11.88 C 0 km/h
716 20-03-2019 19:00:00 8.5 C 6.26 g/m*3 8.5 C 0 km/h
717 20-03-2019 20:00:00 6.85 C 6.08 g/m*3 6.85 C 0 km/h
718 20-03-2019 21:00:00 5.43333 C 5.85 g/m*3 5.43 C 0 km/h
719 20-03-2019 22:00:00 4.725 C 5.7 g/m*3 4.72 C 0 km/h
720 20-03-2019 23:00:00 3.81667 C 5.49 g/m*3 3.82 C 0 km/h
721 21-03-2019 00:00:00 3.31667 C 5.39 g/m*3 3.32 C 0.13333 km/h
722 21-03-2019 01:00:00 2.55 C 5.14 g/m*3 2.55 C 0 km/h
723 21-03-2019 02:00:00 1.81667 C 4.99 g/m*3 1.82 C 0 km/h
724 21-03-2019 03:00:00 1.30833 C 4.87 g/m*3 1.31 C 0 km/h
725 21-03-2019 04:00:00 0.99167 C 4.82 g/m*3 0.99 C 0 km/h
Sensor: Nr:Datum:Temp:Abs-Feuchte:Windchill:Wind:
Aussen-T/F 726 21-03-2019 05:00:00 0.61667 C 4.72 g/m*3 0.62 C 0 km/h
727 21-03-2019 06:00:00 0.33333 C 4.66 g/m*3 0.33 C 0 km/h
728 21-03-2019 07:00:00 0.6 C 4.76 g/m*3 0.6 C 0 km/h
729 21-03-2019 08:00:00 1.24167 C 5.01 g/m*3 1.24 C 0 km/h
730 21-03-2019 09:00:00 2.50833 C 5.46 g/m*3 2.51 C 0 km/h
731 21-03-2019 10:00:00 5.54167 C 6.37 g/m*3 5.54 C 0.13333 km/h
732 21-03-2019 11:00:00 9.275 C 6.78 g/m*3 9.28 C 0.26667 km/h
733 21-03-2019 12:00:00 12.99167 C 6.11 g/m*3 12.99 C 7.525 km/h
734 21-03-2019 13:00:00 15.43333 C 5.73 g/m*3 15.43 C 4.95833 km/h
735 21-03-2019 14:00:00 16.23333 C 5.45 g/m*3 16.23 C 5.89167 km/h
736 21-03-2019 15:00:00 16.43333 C 5.45 g/m*3 16.43 C 5.625 km/h
737 21-03-2019 16:00:00 17.625 C 5.67 g/m*3 17.63 C 7.775 km/h
738 21-03-2019 17:00:00 18.01667 C 5.84 g/m*3 18.02 C 6.575 km/h
739 21-03-2019 18:00:00 14.68333 C 6.62 g/m*3 14.68 C 5.2 km/h
740 21-03-2019 19:00:00 10.96667 C 6.42 g/m*3 10.97 C 3.33333 km/h
741 21-03-2019 20:00:00 9.20833 C 6.41 g/m*3 9.21 C 0.66667 km/h
742 21-03-2019 21:00:00 7.65 C 6.05 g/m*3 7.65 C 0 km/h
743 21-03-2019 22:00:00 6.15833 C 5.77 g/m*3 6.16 C 0 km/h
744 21-03-2019 23:00:00 5.26667 C 5.67 g/m*3 5.27 C 0 km/h
745 22-03-2019 00:00:00 4.425 C 5.54 g/m*3 4.43 C 0 km/h
746 22-03-2019 01:00:00 3.69167 C 5.43 g/m*3 3.69 C 0 km/h
747 22-03-2019 02:00:00 3.03333 C 5.27 g/m*3 3.03 C 0 km/h
748 22-03-2019 03:00:00 2.20833 C 5.08 g/m*3 2.21 C 0 km/h
749 22-03-2019 04:00:00 1.74167 C 5.02 g/m*3 1.74 C 0 km/h
750 22-03-2019 05:00:00 1.53333 C 5 g/m*3 1.53 C 0 km/h
Sensor: Nr:Datum:Temp:Abs-Feuchte:Windchill:Wind:
Aussen-T/F 751 22-03-2019 06:00:00 1.06667 C 4.86 g/m*3 1.07 C 0 km/h
752 22-03-2019 07:00:00 1.24167 C 4.96 g/m*3 1.24 C 0 km/h
753 22-03-2019 08:00:00 1.95833 C 5.26 g/m*3 1.96 C 0 km/h
754 22-03-2019 09:00:00 3.70833 C 5.94 g/m*3 3.71 C 0 km/h
755 22-03-2019 10:00:00 7.06667 C 7.02 g/m*3 7.07 C 0 km/h
756 22-03-2019 11:00:00 11.70833 C 7.63 g/m*3 11.71 C 0 km/h
757 22-03-2019 12:00:00 15.65 C 7.08 g/m*3 15.65 C 3.225 km/h
758 22-03-2019 13:00:00 18.11667 C 6.47 g/m*3 18.12 C 10.20833 km/h
759 22-03-2019 14:00:00 19.29167 C 5.97 g/m*3 19.29 C 7.38333 km/h
760 22-03-2019 15:00:00 19.26667 C 6.4 g/m*3 19.27 C 9.55 km/h
761 22-03-2019 16:00:00 19.83333 C 6.46 g/m*3 19.83 C 5.75833 km/h
762 22-03-2019 17:00:00 20.95833 C 6.47 g/m*3 20.96 C 6.16667 km/h
763 22-03-2019 18:00:00 16.7 C 7.19 g/m*3 16.7 C 4.53333 km/h
764 22-03-2019 19:00:00 12.225 C 6.86 g/m*3 12.23 C 5.46667 km/h
765 22-03-2019 20:00:00 10.825 C 6.74 g/m*3 10.83 C 4.66667 km/h
766 22-03-2019 21:00:00 9.1 C 6.45 g/m*3 9.1 C 0.4 km/h
767 22-03-2019 22:00:00 7.775 C 6.35 g/m*3 7.78 C 1.06667 km/h
768 22-03-2019 23:00:00 6.66667 C 6.08 g/m*3 6.67 C 0 km/h
769 23-03-2019 00:00:00 5.5 C 5.83 g/m*3 5.5 C 0 km/h
770 23-03-2019 01:00:00 4.74167 C 5.71 g/m*3 4.74 C 0 km/h
771 23-03-2019 02:00:00 4.05 C 5.62 g/m*3 4.05 C 0 km/h
772 23-03-2019 03:00:00 3.69167 C 5.54 g/m*3 3.69 C 0 km/h
773 23-03-2019 04:00:00 3.425 C 5.51 g/m*3 3.43 C 0 km/h
774 23-03-2019 05:00:00 3.28333 C 5.44 g/m*3 3.28 C 0 km/h
775 23-03-2019 06:00:00 2.525 C 5.25 g/m*3 2.53 C 0 km/h
Sensor: Nr:Datum:Temp:Abs-Feuchte:Windchill:Wind:
Aussen-T/F 776 23-03-2019 07:00:00 4.06667 C 6.02 g/m*3 4.07 C 3.08333 km/h
777 23-03-2019 08:00:00 6.20833 C 6.99 g/m*3 6.21 C 3.075 km/h
778 23-03-2019 09:00:00 6.63333 C 7.14 g/m*3 6.63 C 0 km/h
779 23-03-2019 10:00:00 7.18333 C 7.35 g/m*3 6.31 C 5.75 km/h
780 23-03-2019 11:00:00 7.53333 C 7.43 g/m*3 6.67 C 5.89167 km/h
781 23-03-2019 12:00:00 8.125 C 7.5 g/m*3 7.23 C 6.3 km/h
782 23-03-2019 13:00:00 8.775 C 7.5 g/m*3 7.74 C 7.25833 km/h
783 23-03-2019 14:00:00 9.45 C 7.39 g/m*3 8.03 C 9.7 km/h
784 23-03-2019 15:00:00 10.08333 C 7.32 g/m*3 8.9 C 9.025 km/h
785 23-03-2019 16:00:00 10.425 C 7.21 g/m*3 9.29 C 9.15833 km/h
786 23-03-2019 17:00:00 10.425 C 7.16 g/m*3 9.64 C 7.375 km/h
787 23-03-2019 18:00:00 9.175 C 6.9 g/m*3 9.18 C 2.4 km/h
788 23-03-2019 19:00:00 6.80833 C 6.51 g/m*3 6.81 C 3.2 km/h
789 23-03-2019 20:00:00 5.38333 C 6.19 g/m*3 5.38 C 0.13333 km/h
790 23-03-2019 21:00:00 4.33333 C 5.93 g/m*3 4.33 C 0 km/h
791 23-03-2019 22:00:00 3.55833 C 5.74 g/m*3 3.56 C 0 km/h
792 23-03-2019 23:00:00 3.075 C 5.62 g/m*3 3.08 C 0 km/h
793 24-03-2019 00:00:00 2.4 C 5.39 g/m*3 2.4 C 0 km/h
794 24-03-2019 01:00:00 1.9 C 5.23 g/m*3 1.9 C 0 km/h
795 24-03-2019 02:00:00 1.425 C 5.08 g/m*3 1.43 C 0 km/h
796 24-03-2019 03:00:00 0.96667 C 4.92 g/m*3 0.97 C 0 km/h
797 24-03-2019 04:00:00 0.89167 C 4.94 g/m*3 0.89 C 0 km/h
798 24-03-2019 05:00:00 1.725 C 5.24 g/m*3 1.73 C 0.4 km/h
799 24-03-2019 07:00:00 2.78182 C 5.62 g/m*3 2.78 C 0.29091 km/h
800 24-03-2019 08:00:00 3.66667 C 6.02 g/m*3 3.67 C 0.13333 km/h
Sensor: Nr:Datum:Temp:Abs-Feuchte:Windchill:Wind:
Aussen-T/F 801 24-03-2019 09:00:00 4.85 C 6.44 g/m*3 4.85 C 2.53333 km/h
802 24-03-2019 10:00:00 6.875 C 7.1 g/m*3 6.88 C 3.46667 km/h
803 24-03-2019 11:00:00 9.54167 C 7.8 g/m*3 9.54 C 4.81667 km/h
804 24-03-2019 12:00:00 11.74167 C 8.07 g/m*3 11.74 C 9.53333 km/h
805 24-03-2019 13:00:00 10.88333 C 8.07 g/m*3 9.16 C 13.7 km/h
806 24-03-2019 14:00:00 10.64167 C 8.08 g/m*3 9.95 C 7.10833 km/h
807 24-03-2019 15:00:00 11.09167 C 7.88 g/m*3 11.09 C 8.74167 km/h
808 24-03-2019 16:00:00 12.03333 C 7.65 g/m*3 12.03 C 9.80833 km/h
809 24-03-2019 17:00:00 12.28333 C 7.05 g/m*3 12.28 C 10.625 km/h
810 24-03-2019 18:00:00 11.30833 C 6.37 g/m*3 11.31 C 8.6 km/h
811 24-03-2019 19:00:00 9.075 C 5.77 g/m*3 8.47 C 5.775 km/h
812 24-03-2019 20:00:00 7.18333 C 5.55 g/m*3 7.18 C 4.4 km/h
813 24-03-2019 21:00:00 5.59167 C 5.39 g/m*3 5.59 C 0.93333 km/h
814 24-03-2019 22:00:00 4.23333 C 5.21 g/m*3 4.23 C 0.8 km/h
815 24-03-2019 23:00:00 3.56667 C 5.11 g/m*3 3.57 C 2.53333 km/h
816 25-03-2019 00:00:00 3.35 C 5.02 g/m*3 3.35 C 2.93333 km/h
817 25-03-2019 01:00:00 1.875 C 4.76 g/m*3 1.88 C 0.53333 km/h
818 25-03-2019 02:00:00 1.89167 C 4.9 g/m*3 0.46 C 5.225 km/h
819 25-03-2019 03:00:00 2.29167 C 4.99 g/m*3 0.45 C 6.43333 km/h
820 25-03-2019 04:00:00 2.85833 C 5.07 g/m*3 0.76 C 7.50833 km/h
821 25-03-2019 05:00:00 3.675 C 5.13 g/m*3 0.61 C 12.23333 km/h
822 25-03-2019 06:00:00 3.74167 C 5.19 g/m*3 1.46 C 8.75 km/h
823 25-03-2019 07:00:00 4.38333 C 5.53 g/m*3 2.15 C 9.01667 km/h
824 25-03-2019 08:00:00 4.56667 C 6.01 g/m*3 2.83 C 7.25 km/h
825 25-03-2019 09:00:00 6.15 C 6.25 g/m*3 3.41 C 13.43333 km/h
Sensor: Nr:Datum:Temp:Abs-Feuchte:Windchill:Wind:
Aussen-T/F 826 25-03-2019 10:00:00 7.41667 C 5.92 g/m*3 4.58 C 16.1 km/h
827 25-03-2019 11:00:00 7.375 C 6.01 g/m*3 4.62 C 15.43333 km/h
828 25-03-2019 12:00:00 7.725 C 6.31 g/m*3 4.41 C 20.90833 km/h
829 25-03-2019 13:00:00 7.55 C 6.48 g/m*3 4.34 C 19.45 km/h
830 25-03-2019 14:00:00 7.65833 C 6.21 g/m*3 4.6 C 18.38333 km/h
831 25-03-2019 15:00:00 7.18333 C 6.57 g/m*3 4.89 C 12.08333 km/h
832 25-03-2019 16:00:00 7.29167 C 6.64 g/m*3 5.02 C 12.08333 km/h
833 25-03-2019 17:00:00 5.71667 C 6.41 g/m*3 3.83 C 8.58333 km/h
834 25-03-2019 18:00:00 5.3 C 6.46 g/m*3 5.3 C 3.20833 km/h
835 25-03-2019 19:00:00 5.04167 C 6.39 g/m*3 5.04 C 2.53333 km/h
836 25-03-2019 20:00:00 5.1 C 6.48 g/m*3 5.1 C 2.26667 km/h
837 25-03-2019 21:00:00 5.24167 C 6.56 g/m*3 5.24 C 4.29167 km/h
838 25-03-2019 22:00:00 5.15833 C 6.39 g/m*3 5.16 C 4.675 km/h
839 25-03-2019 23:00:00 4.65 C 6.2 g/m*3 4.65 C 1.06667 km/h
840 26-03-2019 00:00:00 4.49167 C 6.21 g/m*3 4.49 C 2 km/h
841 26-03-2019 01:00:00 4.525 C 6.19 g/m*3 4.53 C 0.53333 km/h
842 26-03-2019 02:00:00 4.375 C 6.19 g/m*3 4.38 C 0.13333 km/h
843 26-03-2019 03:00:00 4.64167 C 6.3 g/m*3 4.64 C 0.66667 km/h
844 26-03-2019 04:00:00 4.91667 C 6.42 g/m*3 4.92 C 1.33333 km/h
845 26-03-2019 05:00:00 5.00833 C 6.37 g/m*3 5.01 C 2.93333 km/h
846 26-03-2019 06:00:00 4.99167 C 6.23 g/m*3 4.99 C 2.94167 km/h
847 26-03-2019 07:00:00 5.06667 C 6.15 g/m*3 5.07 C 2.13333 km/h
848 26-03-2019 08:00:00 5.55 C 6 g/m*3 5.55 C 4.95 km/h
849 26-03-2019 09:00:00 6.225 C 5.91 g/m*3 4.69 C 7.53333 km/h
850 26-03-2019 10:00:00 6.98333 C 5.91 g/m*3 4.78 C 11.29167 km/h
Sensor: Nr:Datum:Temp:Abs-Feuchte:Windchill:Wind:
Aussen-T/F 851 26-03-2019 11:00:00 7.26667 C 5.66 g/m*3 5.69 C 8.46667 km/h
852 26-03-2019 12:00:00 8.46667 C 5.93 g/m*3 6.59 C 11.16667 km/h
853 26-03-2019 13:00:00 8.85 C 5.76 g/m*3 7.15 C 10.625 km/h
854 26-03-2019 14:00:00 8.875 C 5.68 g/m*3 6.88 C 12.49167 km/h
855 26-03-2019 15:00:00 9.03333 C 5.88 g/m*3 7.8 C 8.34167 km/h
856 26-03-2019 16:00:00 9.49167 C 5.89 g/m*3 7.62 C 12.5 km/h
857 26-03-2019 17:00:00 8.43333 C 6.05 g/m*3 7.16 C 8.05 km/h
858 26-03-2019 18:00:00 8.11667 C 6.16 g/m*3 7.38 C 5.75833 km/h
859 26-03-2019 19:00:00 7.59167 C 6.33 g/m*3 7.59 C 0.8 km/h
860 26-03-2019 20:00:00 7.075 C 6.4 g/m*3 7.08 C 0.4 km/h
861 26-03-2019 21:00:00 6.81667 C 6.44 g/m*3 6.82 C 0.13333 km/h
862 26-03-2019 22:00:00 6.51667 C 6.48 g/m*3 6.52 C 0 km/h
863 26-03-2019 23:00:00 6.24167 C 6.42 g/m*3 6.24 C 0.26667 km/h
864 27-03-2019 00:00:00 6.10833 C 6.4 g/m*3 6.11 C 0.8 km/h
865 27-03-2019 01:00:00 5.575 C 6.29 g/m*3 5.58 C 0 km/h
866 27-03-2019 02:00:00 5.25 C 6.25 g/m*3 5.25 C 0 km/h
867 27-03-2019 03:00:00 4.9 C 6.12 g/m*3 4.9 C 0 km/h
868 27-03-2019 04:00:00 4.05833 C 5.81 g/m*3 4.06 C 0.13333 km/h
869 27-03-2019 05:00:00 2.91667 C 5.43 g/m*3 2.92 C 0.53333 km/h
870 27-03-2019 06:00:00 2.1 C 5.23 g/m*3 2.1 C 0 km/h
871 27-03-2019 07:00:00 2.6 C 5.47 g/m*3 2.6 C 0.26667 km/h
872 27-03-2019 08:00:00 3.88333 C 5.97 g/m*3 3.88 C 0.53333 km/h
873 27-03-2019 09:00:00 5.8 C 6.58 g/m*3 5.8 C 1.6 km/h
874 27-03-2019 10:00:00 8.16667 C 7 g/m*3 8.17 C 2.93333 km/h
875 27-03-2019 11:00:00 9.13333 C 6.8 g/m*3 8.58 C 5.625 km/h
Sensor: Nr:Datum:Temp:Abs-Feuchte:Windchill:Wind:
Aussen-T/F 876 27-03-2019 12:00:00 10.05 C 6.55 g/m*3 9.49 C 6.16667 km/h
877 27-03-2019 13:00:00 10.8 C 6.28 g/m*3 9.64 C 9.68333 km/h
878 27-03-2019 14:00:00 11.05 C 6.13 g/m*3 11.05 C 6.44167 km/h
879 27-03-2019 15:00:00 11.10833 C 6.07 g/m*3 11.11 C 7.51667 km/h
880 27-03-2019 16:00:00 11.23333 C 6.02 g/m*3 11.23 C 6.3 km/h
881 27-03-2019 17:00:00 10.975 C 5.99 g/m*3 10.77 C 5.33333 km/h
882 27-03-2019 18:00:00 9.83333 C 6.38 g/m*3 9.83 C 0.8 km/h
883 27-03-2019 19:00:00 7.64167 C 6.24 g/m*3 7.64 C 3.46667 km/h
884 27-03-2019 20:00:00 6.49167 C 6.12 g/m*3 6.49 C 3.86667 km/h
885 27-03-2019 21:00:00 5.69167 C 6.04 g/m*3 5.69 C 1.33333 km/h
886 27-03-2019 22:00:00 4.725 C 5.79 g/m*3 4.72 C 0.4 km/h
887 27-03-2019 23:00:00 3.475 C 5.52 g/m*3 3.48 C 0 km/h
888 28-03-2019 00:00:00 2.925 C 5.43 g/m*3 2.93 C 0.53333 km/h
889 28-03-2019 01:00:00 2.475 C 5.3 g/m*3 2.48 C 0 km/h
890 28-03-2019 02:00:00 1.975 C 5.16 g/m*3 1.98 C 0 km/h
891 28-03-2019 03:00:00 1.60833 C 5.07 g/m*3 1.61 C 0 km/h
892 28-03-2019 04:00:00 1.375 C 5.01 g/m*3 1.38 C 0.13333 km/h
893 28-03-2019 05:00:00 1.13333 C 4.95 g/m*3 1.13 C 0 km/h
894 28-03-2019 06:00:00 1.59167 C 5.13 g/m*3 1.59 C 0 km/h
895 28-03-2019 07:00:00 2.11667 C 5.32 g/m*3 2.12 C 0.26667 km/h
896 28-03-2019 08:00:00 2.79167 C 5.55 g/m*3 2.79 C 1.33333 km/h
897 28-03-2019 09:00:00 4.425 C 6.07 g/m*3 4.43 C 2.66667 km/h
898 28-03-2019 10:00:00 7.30833 C 6.69 g/m*3 7.31 C 0.4 km/h
899 28-03-2019 11:00:00 10.325 C 7.27 g/m*3 10.33 C 3.475 km/h
900 28-03-2019 12:00:00 12.53333 C 7.36 g/m*3 12.53 C 8.33333 km/h
Sensor: Nr:Datum:Temp:Abs-Feuchte:Windchill:Wind:
Aussen-T/F 901 28-03-2019 13:00:00 13.21667 C 7.57 g/m*3 13.22 C 8.33333 km/h
902 28-03-2019 14:00:00 13.5 C 7.52 g/m*3 13.5 C 10.75833 km/h
903 28-03-2019 15:00:00 13.4 C 7.4 g/m*3 13.4 C 8.60833 km/h
904 28-03-2019 16:00:00 13.45833 C 7.32 g/m*3 13.46 C 9.01667 km/h
905 28-03-2019 17:00:00 13.19167 C 7.32 g/m*3 13.19 C 6.70833 km/h
906 28-03-2019 18:00:00 12.16667 C 7.58 g/m*3 12.17 C 2.53333 km/h
907 28-03-2019 19:00:00 10.36667 C 7.52 g/m*3 10.37 C 0.93333 km/h
908 28-03-2019 20:00:00 10.23333 C 7.49 g/m*3 10.23 C 0.53333 km/h
909 28-03-2019 21:00:00 9.50833 C 7.27 g/m*3 9.51 C 0 km/h
910 28-03-2019 22:00:00 7.88333 C 6.88 g/m*3 7.88 C 0.53333 km/h
911 28-03-2019 23:00:00 6.3 C 6.5 g/m*3 6.3 C 0 km/h
912 29-03-2019 00:00:00 5.28333 C 6.27 g/m*3 5.28 C 0 km/h
913 29-03-2019 01:00:00 4.35 C 6 g/m*3 4.35 C 0 km/h
914 29-03-2019 02:00:00 3.85833 C 5.89 g/m*3 3.86 C 0 km/h
915 29-03-2019 03:00:00 3.05833 C 5.61 g/m*3 3.06 C 0 km/h
916 29-03-2019 04:00:00 2.89167 C 5.61 g/m*3 2.89 C 0 km/h
917 29-03-2019 05:00:00 2.18333 C 5.34 g/m*3 2.18 C 0 km/h
918 29-03-2019 06:00:00 2.075 C 5.31 g/m*3 2.08 C 0 km/h
919 29-03-2019 07:00:00 2.175 C 5.39 g/m*3 2.17 C 0 km/h
920 29-03-2019 08:00:00 2.93333 C 5.69 g/m*3 2.93 C 0 km/h
921 29-03-2019 09:00:00 4.94167 C 6.56 g/m*3 4.94 C 0 km/h
922 29-03-2019 10:00:00 8.09167 C 7.98 g/m*3 8.09 C 0.53333 km/h
923 29-03-2019 11:00:00 12.48333 C 8.54 g/m*3 12.48 C 9.79167 km/h
924 29-03-2019 12:00:00 14.475 C 8.29 g/m*3 14.48 C 8.46667 km/h
925 29-03-2019 13:00:00 15.93333 C 8.14 g/m*3 15.93 C 10.225 km/h
Sensor: Nr:Datum:Temp:Abs-Feuchte:Windchill:Wind:
Aussen-T/F 926 29-03-2019 14:00:00 16.83333 C 7.91 g/m*3 16.83 C 10.89167 km/h
927 29-03-2019 15:00:00 17.475 C 7.8 g/m*3 17.48 C 9.68333 km/h
928 29-03-2019 16:00:00 18.41667 C 7.82 g/m*3 18.42 C 8.71667 km/h
929 29-03-2019 17:00:00 18.94167 C 7.7 g/m*3 18.94 C 4.53333 km/h
930 29-03-2019 18:00:00 16.95833 C 7.77 g/m*3 16.96 C 2.675 km/h
931 29-03-2019 19:00:00 11.55 C 7.26 g/m*3 11.55 C 5.46667 km/h
932 29-03-2019 20:00:00 9.86667 C 7.1 g/m*3 9.87 C 1.6 km/h
933 29-03-2019 21:00:00 8.10833 C 6.77 g/m*3 8.11 C 0 km/h
934 29-03-2019 22:00:00 6.7 C 6.42 g/m*3 6.7 C 0 km/h
935 29-03-2019 23:00:00 5.575 C 6.15 g/m*3 5.58 C 0 km/h
936 30-03-2019 00:00:00 4.59167 C 5.94 g/m*3 4.59 C 0 km/h
937 30-03-2019 01:00:00 4 C 5.82 g/m*3 4 C 0 km/h
938 30-03-2019 02:00:00 3.45 C 5.66 g/m*3 3.45 C 0 km/h
939 30-03-2019 03:00:00 2.8 C 5.49 g/m*3 2.8 C 0 km/h
940 30-03-2019 04:00:00 2.48333 C 5.4 g/m*3 2.48 C 0 km/h
941 30-03-2019 05:00:00 1.875 C 5.19 g/m*3 1.88 C 0 km/h
942 30-03-2019 06:00:00 1.73333 C 5.18 g/m*3 1.73 C 0 km/h
943 30-03-2019 07:00:00 2.11667 C 5.36 g/m*3 2.12 C 0.13333 km/h
944 30-03-2019 08:00:00 3.35833 C 5.85 g/m*3 3.36 C 0.26667 km/h
945 30-03-2019 09:00:00 5.45 C 6.77 g/m*3 5.45 C 0 km/h
946 30-03-2019 10:00:00 8.84167 C 7.93 g/m*3 8.84 C 0 km/h
947 30-03-2019 11:00:00 13.74167 C 8.36 g/m*3 13.74 C 5.225 km/h
948 30-03-2019 12:00:00 17.6 C 7.5 g/m*3 17.6 C 14.76667 km/h
949 30-03-2019 13:00:00 19.30833 C 6.85 g/m*3 19.31 C 14.76667 km/h
950 30-03-2019 14:00:00 19.93333 C 6.57 g/m*3 19.93 C 16.63333 km/h
Sensor: Nr:Datum:Temp:Abs-Feuchte:Windchill:Wind:
Aussen-T/F 951 30-03-2019 15:00:00 20.41667 C 6.55 g/m*3 20.42 C 13.96667 km/h
952 30-03-2019 16:00:00 20.54167 C 6.94 g/m*3 20.54 C 8.85 km/h
953 30-03-2019 17:00:00 19.46667 C 7.22 g/m*3 19.47 C 4.29167 km/h
954 30-03-2019 18:00:00 17.30833 C 7.89 g/m*3 17.31 C 1.86667 km/h
955 30-03-2019 19:00:00 14.88333 C 7.55 g/m*3 14.88 C 0.8 km/h
956 30-03-2019 20:00:00 13.79167 C 7.66 g/m*3 13.79 C 2.66667 km/h
957 30-03-2019 21:00:00 12.4 C 7.6 g/m*3 12.4 C 0.93333 km/h
958 30-03-2019 22:00:00 11.125 C 7.57 g/m*3 11.13 C 0 km/h
959 30-03-2019 23:00:00 10.80833 C 7.47 g/m*3 10.81 C 0 km/h
960 31-03-2019 00:00:00 9.55833 C 7.04 g/m*3 9.56 C 0.4 km/h
961 31-03-2019 01:00:00 8.38333 C 6.93 g/m*3 8.38 C 0 km/h
962 31-03-2019 02:00:00 7.30833 C 6.64 g/m*3 7.31 C 0.4 km/h
963 31-03-2019 04:00:00 6.45 C 6.42 g/m*3 6.45 C 0.13333 km/h
964 31-03-2019 05:00:00 5.15 C 6.1 g/m*3 5.15 C 0.13333 km/h
965 31-03-2019 06:00:00 4.95 C 6.13 g/m*3 4.95 C 0.4 km/h
966 31-03-2019 07:00:00 4.78333 C 6.08 g/m*3 4.78 C 0.4 km/h
967 31-03-2019 08:00:00 4.70833 C 6.13 g/m*3 4.71 C 0 km/h
968 31-03-2019 09:00:00 5.50833 C 6.53 g/m*3 5.51 C 0 km/h
969 31-03-2019 10:00:00 8 C 7.54 g/m*3 8 C 0 km/h
970 31-03-2019 11:00:00 11.51667 C 8.13 g/m*3 11.52 C 0.26667 km/h
971 31-03-2019 12:00:00 14.56667 C 8.23 g/m*3 14.57 C 3.2 km/h
972 31-03-2019 13:00:00 16.74167 C 7.93 g/m*3 16.74 C 5.76667 km/h
973 31-03-2019 14:00:00 18.34167 C 7.9 g/m*3 18.34 C 7.91667 km/h
974 31-03-2019 15:00:00 18.825 C 7.77 g/m*3 18.83 C 9.81667 km/h
975 31-03-2019 16:00:00 15.925 C 9.88 g/m*3 15.93 C 6.96667 km/h
Sensor: Nr:Datum:Temp:Abs-Feuchte:Windchill:Wind:
Aussen-T/F 976 31-03-2019 17:00:00 14.2 C 10.95 g/m*3 14.2 C 1.86667 km/h
977 31-03-2019 18:00:00 15.28333 C 9.93 g/m*3 15.28 C 4.95 km/h
978 31-03-2019 19:00:00 12.74167 C 9 g/m*3 12.74 C 2.93333 km/h
979 31-03-2019 20:00:00 10.11667 C 8.24 g/m*3 10.12 C 4.4 km/h
980 31-03-2019 21:00:00 8.95 C 7.72 g/m*3 8.95 C 2.13333 km/h
981 31-03-2019 22:00:00 8.04167 C 7.27 g/m*3 8.04 C 2 km/h
982 31-03-2019 23:00:00 7.21667 C 6.92 g/m*3 7.22 C 0.8 km/h
983 01-04-2019 00:00:00 6.36667 C 6.62 g/m*3 6.37 C 0 km/h
984 01-04-2019 01:00:00 5.74167 C 6.37 g/m*3 5.74 C 0.26667 km/h
985 01-04-2019 02:00:00 5.25 C 6.22 g/m*3 5.25 C 1.86667 km/h
986 01-04-2019 03:00:00 4.69167 C 6.04 g/m*3 4.69 C 2.8 km/h
987 01-04-2019 04:00:00 4.31667 C 5.9 g/m*3 4.32 C 1.73333 km/h
988 01-04-2019 05:00:00 3.975 C 5.78 g/m*3 3.98 C 0.8 km/h
989 01-04-2019 06:00:00 3.56667 C 5.67 g/m*3 3.57 C 0.4 km/h
990 01-04-2019 07:00:00 3.15 C 5.54 g/m*3 3.15 C 0.8 km/h
991 01-04-2019 08:00:00 3.16667 C 5.61 g/m*3 3.17 C 0 km/h
992 01-04-2019 09:00:00 4.29167 C 6.01 g/m*3 4.29 C 0.66667 km/h
993 01-04-2019 10:00:00 6.65 C 6.32 g/m*3 5.52 C 6.31667 km/h
994 01-04-2019 11:00:00 9.53333 C 6.5 g/m*3 8.18 C 9.40833 km/h
995 01-04-2019 12:00:00 11.28333 C 6.7 g/m*3 11.28 C 10.08333 km/h
996 01-04-2019 13:00:00 13.00833 C 6.96 g/m*3 13.01 C 9.15833 km/h
997 01-04-2019 14:00:00 14.91667 C 7.26 g/m*3 14.92 C 10.63333 km/h
998 01-04-2019 15:00:00 16.39167 C 7.5 g/m*3 16.39 C 8.73333 km/h
999 01-04-2019 16:00:00 17.5 C 7.53 g/m*3 17.5 C 6.15833 km/h
1000 01-04-2019 17:00:00 18.275 C 7.44 g/m*3 18.27 C 8.46667 km/h
Sensor: Nr:Datum:Temp:Abs-Feuchte:Windchill:Wind:
Aussen-T/F 1001 01-04-2019 18:00:00 17.875 C 7.22 g/m*3 17.88 C 7.65833 km/h
1002 01-04-2019 19:00:00 16 C 7.62 g/m*3 16 C 4.01667 km/h
1003 01-04-2019 20:00:00 11.775 C 7.41 g/m*3 11.78 C 5.2 km/h
1004 01-04-2019 21:00:00 10.15833 C 7.18 g/m*3 10.16 C 4.66667 km/h
1005 01-04-2019 22:00:00 9.35 C 6.95 g/m*3 9.35 C 2.26667 km/h
1006 01-04-2019 23:00:00 8.79167 C 6.73 g/m*3 8.79 C 1.86667 km/h
1007 02-04-2019 00:00:00 7.93333 C 6.63 g/m*3 7.93 C 0 km/h
1008 02-04-2019 01:00:00 7.04167 C 6.46 g/m*3 7.04 C 0 km/h
1009 02-04-2019 02:00:00 6.3 C 6.27 g/m*3 6.3 C 0 km/h
1010 02-04-2019 03:00:00 5.09167 C 5.98 g/m*3 5.09 C 0 km/h
1011 02-04-2019 04:00:00 4.39167 C 5.88 g/m*3 4.39 C 0 km/h
1012 02-04-2019 05:00:00 3.96667 C 5.78 g/m*3 3.97 C 0 km/h
1013 02-04-2019 06:00:00 3.88333 C 5.81 g/m*3 3.88 C 0 km/h
1014 02-04-2019 07:00:00 4.00833 C 5.91 g/m*3 4.01 C 0 km/h
1015 02-04-2019 08:00:00 4.98333 C 6.31 g/m*3 4.98 C 0 km/h
1016 02-04-2019 09:00:00 6.53333 C 6.71 g/m*3 6.53 C 0 km/h
1017 02-04-2019 10:00:00 8.71667 C 7.1 g/m*3 8.72 C 0 km/h
1018 02-04-2019 11:00:00 11.95 C 7.96 g/m*3 11.95 C 2.8 km/h
1019 02-04-2019 12:00:00 15.01667 C 8.57 g/m*3 15.02 C 4.01667 km/h
1020 02-04-2019 13:00:00 16.80833 C 8.7 g/m*3 16.81 C 6.175 km/h
1021 02-04-2019 14:00:00 17.975 C 8.91 g/m*3 17.98 C 9.55833 km/h
1022 02-04-2019 15:00:00 16.725 C 9.1 g/m*3 16.73 C 12.625 km/h
1023 02-04-2019 16:00:00 17.46667 C 8.58 g/m*3 17.47 C 16.36667 km/h
1024 02-04-2019 17:00:00 16.00833 C 8.99 g/m*3 16.01 C 9.15 km/h
1025 02-04-2019 18:00:00 16.08333 C 8.71 g/m*3 16.08 C 6.71667 km/h
Sensor: Nr:Datum:Temp:Abs-Feuchte:Windchill:Wind:
Aussen-T/F 1026 02-04-2019 19:00:00 15.35833 C 8.65 g/m*3 15.36 C 4.00833 km/h
1027 02-04-2019 20:00:00 14.03333 C 8.59 g/m*3 14.03 C 7.11667 km/h
1028 02-04-2019 21:00:00 13.50833 C 8.12 g/m*3 13.51 C 8.325 km/h
1029 02-04-2019 22:00:00 12.66667 C 7.79 g/m*3 12.67 C 6.84167 km/h
1030 02-04-2019 23:00:00 11.4 C 7.6 g/m*3 11.4 C 0.66667 km/h
1031 03-04-2019 00:00:00 10.50833 C 7.64 g/m*3 10.51 C 0.66667 km/h
1032 03-04-2019 01:00:00 10.275 C 7.62 g/m*3 10.28 C 0 km/h
1033 03-04-2019 02:00:00 9.90833 C 7.61 g/m*3 9.91 C 0 km/h
1034 03-04-2019 03:00:00 8.91667 C 7.43 g/m*3 8.92 C 0 km/h
1035 03-04-2019 04:00:00 8.875 C 7.54 g/m*3 8.88 C 0 km/h
1036 03-04-2019 05:00:00 8.6 C 7.44 g/m*3 8.6 C 0 km/h
1037 03-04-2019 06:00:00 8.075 C 7.3 g/m*3 8.07 C 0.53333 km/h
1038 03-04-2019 07:00:00 8.64167 C 7.32 g/m*3 8.64 C 0.53333 km/h
1039 03-04-2019 08:00:00 8.86667 C 7.52 g/m*3 8.87 C 3.35833 km/h
1040 03-04-2019 09:00:00 7.66667 C 7.32 g/m*3 5.96 C 9.4 km/h
1041 03-04-2019 10:00:00 7.025 C 7.11 g/m*3 7.03 C 2.80833 km/h
1042 03-04-2019 11:00:00 7.44167 C 7.33 g/m*3 7.44 C 1.2 km/h
1043 03-04-2019 12:00:00 8.33333 C 7.51 g/m*3 8.33 C 3.60833 km/h
1044 03-04-2019 13:00:00 9.475 C 7.56 g/m*3 9.48 C 3.6 km/h
1045 03-04-2019 14:00:00 9.43333 C 7.37 g/m*3 9.43 C 4.54167 km/h
1046 03-04-2019 15:00:00 10.05 C 7.52 g/m*3 9.35 C 6.7 km/h
1047 03-04-2019 16:00:00 10.2 C 7.47 g/m*3 10.2 C 4.675 km/h
1048 03-04-2019 17:00:00 9.45833 C 7.47 g/m*3 9.46 C 2.93333 km/h
1049 03-04-2019 18:00:00 7.93333 C 7.42 g/m*3 7.93 C 1.6 km/h
1050 03-04-2019 19:00:00 7.025 C 7.2 g/m*3 7.03 C 0.26667 km/h
Sensor: Nr:Datum:Temp:Abs-Feuchte:Windchill:Wind:
Aussen-T/F 1051 03-04-2019 20:00:00 6.45 C 7 g/m*3 6.45 C 0 km/h
1052 03-04-2019 21:00:00 6.23333 C 6.98 g/m*3 6.23 C 0 km/h
1053 03-04-2019 22:00:00 5.875 C 6.84 g/m*3 5.88 C 0.13333 km/h
1054 03-04-2019 23:00:00 5.63333 C 6.73 g/m*3 5.63 C 0.13333 km/h
1055 04-04-2019 00:00:00 5.65 C 6.77 g/m*3 5.65 C 0.4 km/h
1056 04-04-2019 01:00:00 5.325 C 6.64 g/m*3 5.33 C 1.06667 km/h
1057 04-04-2019 02:00:00 5.41667 C 6.71 g/m*3 5.42 C 2.13333 km/h
1058 04-04-2019 03:00:00 5.6 C 6.79 g/m*3 5.6 C 0 km/h
1059 04-04-2019 04:00:00 5.54167 C 6.76 g/m*3 5.54 C 0 km/h
1060 04-04-2019 05:00:00 5.60833 C 6.79 g/m*3 5.61 C 0 km/h
1061 04-04-2019 06:00:00 5.475 C 6.73 g/m*3 5.48 C 0 km/h
1062 04-04-2019 07:00:00 5.34167 C 6.67 g/m*3 5.34 C 0 km/h
1063 04-04-2019 08:00:00 5.61667 C 6.79 g/m*3 5.62 C 0 km/h
1064 04-04-2019 09:00:00 5.93333 C 6.97 g/m*3 5.93 C 0.66667 km/h
1065 04-04-2019 10:00:00 6.075 C 7 g/m*3 6.08 C 1.46667 km/h
1066 04-04-2019 11:00:00 6.65833 C 7.07 g/m*3 6.66 C 2.26667 km/h
1067 04-04-2019 12:00:00 6.95 C 6.91 g/m*3 6.17 C 5.375 km/h
1068 04-04-2019 13:00:00 6.69167 C 6.96 g/m*3 6.69 C 2.80833 km/h
1069 04-04-2019 14:00:00 6.4 C 6.84 g/m*3 6.4 C 4.14167 km/h
1070 04-04-2019 15:00:00 6.85833 C 6.99 g/m*3 6.86 C 0.4 km/h
1071 04-04-2019 16:00:00 7.08333 C 7.09 g/m*3 7.08 C 1.73333 km/h
1072 04-04-2019 17:00:00 7.43333 C 7.03 g/m*3 7.43 C 4.55 km/h
1073 04-04-2019 18:00:00 7.56667 C 6.85 g/m*3 7.57 C 3.475 km/h
1074 04-04-2019 19:00:00 7.25833 C 6.86 g/m*3 7.26 C 1.33333 km/h
1075 04-04-2019 20:00:00 5.95833 C 6.64 g/m*3 5.96 C 1.46667 km/h
Sensor: Nr:Datum:Temp:Abs-Feuchte:Windchill:Wind:
Aussen-T/F 1076 04-04-2019 21:00:00 5.29167 C 6.48 g/m*3 5.29 C 1.33333 km/h
1077 04-04-2019 22:00:00 5.08333 C 6.45 g/m*3 5.08 C 0.53333 km/h
1078 04-04-2019 23:00:00 4.575 C 6.24 g/m*3 4.58 C 0 km/h
1079 05-04-2019 00:00:00 4.10833 C 6.08 g/m*3 4.11 C 0 km/h
1080 05-04-2019 01:00:00 3.525 C 5.87 g/m*3 3.53 C 0 km/h
1081 05-04-2019 02:00:00 3.775 C 6.01 g/m*3 3.78 C 0 km/h
1082 05-04-2019 03:00:00 3.85833 C 6.05 g/m*3 3.86 C 0 km/h
1083 05-04-2019 04:00:00 4.06667 C 6.13 g/m*3 4.07 C 0 km/h
1084 05-04-2019 05:00:00 3.93333 C 6.08 g/m*3 3.93 C 0 km/h
1085 05-04-2019 06:00:00 3.9 C 6.06 g/m*3 3.9 C 0 km/h
1086 05-04-2019 07:00:00 4.13333 C 6.2 g/m*3 4.13 C 0 km/h
1087 05-04-2019 08:00:00 4.64167 C 6.44 g/m*3 4.64 C 0 km/h
1088 05-04-2019 09:00:00 5.3 C 6.72 g/m*3 5.3 C 3.06667 km/h
1089 05-04-2019 10:00:00 5.89167 C 6.89 g/m*3 5.89 C 1.2 km/h
1090 05-04-2019 11:00:00 7.16667 C 7.06 g/m*3 6.34 C 5.60833 km/h
1091 05-04-2019 12:00:00 8.025 C 7.1 g/m*3 6.87 C 7.23333 km/h
1092 05-04-2019 13:00:00 8.19167 C 7.07 g/m*3 8.19 C 4.54167 km/h
1093 05-04-2019 14:00:00 8.41667 C 7.1 g/m*3 8.42 C 3.46667 km/h
1094 05-04-2019 15:00:00 8.55 C 7.21 g/m*3 8.55 C 4.40833 km/h
1095 05-04-2019 16:00:00 8.58333 C 7.32 g/m*3 8.08 C 5.20833 km/h
1096 05-04-2019 17:00:00 8.41667 C 7.4 g/m*3 8.42 C 4.14167 km/h
1097 05-04-2019 18:00:00 8.3 C 7.49 g/m*3 8.3 C 2.94167 km/h
1098 05-04-2019 19:00:00 8.19167 C 7.55 g/m*3 8.19 C 0 km/h
1099 05-04-2019 20:00:00 7.925 C 7.55 g/m*3 7.93 C 0 km/h
1100 05-04-2019 21:00:00 7.69167 C 7.54 g/m*3 7.69 C 0 km/h
Sensor: Nr:Datum:Temp:Abs-Feuchte:Windchill:Wind:
Aussen-T/F 1101 05-04-2019 22:00:00 7.61667 C 7.58 g/m*3 7.62 C 0 km/h
1102 05-04-2019 23:00:00 7.6 C 7.61 g/m*3 7.6 C 0 km/h
1103 06-04-2019 00:00:00 7.45833 C 7.58 g/m*3 7.46 C 0 km/h
1104 06-04-2019 01:00:00 7.40833 C 7.63 g/m*3 7.41 C 0 km/h
1105 06-04-2019 02:00:00 7.225 C 7.54 g/m*3 7.23 C 0 km/h
1106 06-04-2019 03:00:00 6.14167 C 6.97 g/m*3 6.14 C 2.93333 km/h
1107 06-04-2019 04:00:00 5.15833 C 6.57 g/m*3 5.16 C 0.13333 km/h
1108 06-04-2019 05:00:00 5.01667 C 6.53 g/m*3 5.02 C 0 km/h
1109 06-04-2019 06:00:00 4.675 C 6.4 g/m*3 4.68 C 0 km/h
1110 06-04-2019 07:00:00 5.13333 C 6.63 g/m*3 5.13 C 0 km/h
1111 06-04-2019 08:00:00 5.71667 C 6.91 g/m*3 5.72 C 0.4 km/h
1112 06-04-2019 09:00:00 6.025 C 7.05 g/m*3 6.03 C 0.53333 km/h
1113 06-04-2019 10:00:00 7.325 C 7.69 g/m*3 7.33 C 0 km/h
1114 06-04-2019 11:00:00 9.825 C 8.4 g/m*3 9.09 C 6.70833 km/h
1115 06-04-2019 12:00:00 12.51667 C 8.42 g/m*3 12.52 C 5.89167 km/h
1116 06-04-2019 13:00:00 14.375 C 8.5 g/m*3 14.38 C 8.325 km/h
1117 06-04-2019 14:00:00 16.04167 C 8.47 g/m*3 16.04 C 8.85 km/h
1118 06-04-2019 15:00:00 15.96667 C 8.24 g/m*3 15.97 C 9.40833 km/h
1119 06-04-2019 16:00:00 15.81667 C 8.31 g/m*3 15.82 C 7.925 km/h
1120 06-04-2019 17:00:00 16.30833 C 8.41 g/m*3 16.31 C 8.05833 km/h
1121 06-04-2019 18:00:00 17.31667 C 8.61 g/m*3 17.32 C 6.175 km/h
1122 06-04-2019 19:00:00 16.46667 C 9.06 g/m*3 16.47 C 0.53333 km/h
1123 06-04-2019 20:00:00 12.50833 C 8.76 g/m*3 12.51 C 0 km/h
1124 06-04-2019 21:00:00 11.1 C 8.53 g/m*3 11.1 C 0 km/h
1125 06-04-2019 22:00:00 10.05 C 8.28 g/m*3 10.05 C 0 km/h
Sensor: Nr:Datum:Temp:Abs-Feuchte:Windchill:Wind:
Aussen-T/F 1126 06-04-2019 23:00:00 9.3 C 8.04 g/m*3 9.3 C 0 km/h
1127 07-04-2019 00:00:00 8.40833 C 7.77 g/m*3 8.41 C 0 km/h
1128 07-04-2019 01:00:00 7.75833 C 7.54 g/m*3 7.76 C 0 km/h
1129 07-04-2019 02:00:00 7.175 C 7.34 g/m*3 7.18 C 0 km/h
1130 07-04-2019 03:00:00 6.775 C 7.23 g/m*3 6.78 C 0 km/h
1131 07-04-2019 04:00:00 6.09167 C 6.91 g/m*3 6.09 C 0 km/h
1132 07-04-2019 05:00:00 5.68333 C 6.75 g/m*3 5.68 C 0 km/h
1133 07-04-2019 06:00:00 5.43333 C 6.71 g/m*3 5.43 C 0 km/h
1134 07-04-2019 07:00:00 4.68333 C 6.37 g/m*3 4.68 C 0 km/h
1135 07-04-2019 08:00:00 5.23333 C 6.64 g/m*3 5.23 C 0 km/h
1136 07-04-2019 09:00:00 6.14167 C 7.11 g/m*3 6.14 C 0.4 km/h
1137 07-04-2019 10:00:00 8.25 C 8.16 g/m*3 8.25 C 0.4 km/h
1138 07-04-2019 11:00:00 12.725 C 8.8 g/m*3 12.73 C 10.08333 km/h
1139 07-04-2019 12:00:00 15.79167 C 7.95 g/m*3 15.79 C 12.75833 km/h
1140 07-04-2019 13:00:00 17.00833 C 7.47 g/m*3 17.01 C 11.15833 km/h
1141 07-04-2019 14:00:00 18.25833 C 7.16 g/m*3 18.26 C 16.9 km/h
1142 07-04-2019 15:00:00 19.13333 C 6.83 g/m*3 19.13 C 12.225 km/h
1143 07-04-2019 16:00:00 20 C 6.81 g/m*3 20 C 11.68333 km/h
1144 07-04-2019 17:00:00 20.88333 C 7.02 g/m*3 20.88 C 8.31667 km/h
1145 07-04-2019 18:00:00 19.09167 C 7.91 g/m*3 19.09 C 5.775 km/h
1146 07-04-2019 19:00:00 16.95 C 8.97 g/m*3 16.95 C 0.13333 km/h
1147 07-04-2019 20:00:00 15.14167 C 8.86 g/m*3 15.14 C 2.8 km/h
1148 07-04-2019 21:00:00 14.49167 C 8.9 g/m*3 14.49 C 0.8 km/h
1149 07-04-2019 22:00:00 13.95 C 8.9 g/m*3 13.95 C 0 km/h
1150 07-04-2019 23:00:00 13.44167 C 9.12 g/m*3 13.44 C 0 km/h
Sensor: Nr:Datum:Temp:Abs-Feuchte:Windchill:Wind:
Aussen-T/F 1151 08-04-2019 00:00:00 12.95 C 9.18 g/m*3 12.95 C 0.13333 km/h
1152 08-04-2019 01:00:00 12.53333 C 9.12 g/m*3 12.53 C 0.13333 km/h
1153 08-04-2019 02:00:00 11.975 C 8.98 g/m*3 11.98 C 0.26667 km/h
1154 08-04-2019 03:00:00 11.60833 C 8.9 g/m*3 11.61 C 0.8 km/h
1155 08-04-2019 04:00:00 11.23333 C 8.83 g/m*3 11.23 C 0.13333 km/h
1156 08-04-2019 05:00:00 11.06667 C 8.85 g/m*3 11.07 C 0.13333 km/h
1157 08-04-2019 06:00:00 10.66667 C 8.69 g/m*3 10.67 C 0.13333 km/h
1158 08-04-2019 07:00:00 10.025 C 8.5 g/m*3 10.03 C 0 km/h
1159 08-04-2019 08:00:00 10.425 C 8.87 g/m*3 10.43 C 0 km/h
1160 08-04-2019 09:00:00 11.5 C 9.16 g/m*3 11.5 C 1.46667 km/h
1161 08-04-2019 10:00:00 12.45833 C 9.29 g/m*3 12.46 C 1.6 km/h
1162 08-04-2019 11:00:00 13.16667 C 9.47 g/m*3 13.17 C 1.46667 km/h
1163 08-04-2019 12:00:00 13.15 C 9.54 g/m*3 13.15 C 1.2 km/h
1164 08-04-2019 13:00:00 13.48333 C 9.73 g/m*3 13.48 C 1.06667 km/h
1165 08-04-2019 14:00:00 15.05 C 9.93 g/m*3 15.05 C 3.73333 km/h
1166 08-04-2019 15:00:00 16.80833 C 9.88 g/m*3 16.81 C 6.55833 km/h
1167 08-04-2019 16:00:00 17.05833 C 9.84 g/m*3 17.06 C 2.93333 km/h
1168 08-04-2019 17:00:00 15.05 C 10.8 g/m*3 15.05 C 0.53333 km/h
1169 08-04-2019 18:00:00 14.35833 C 10.75 g/m*3 14.36 C 0.93333 km/h
1170 08-04-2019 19:00:00 13.84167 C 10.29 g/m*3 13.84 C 1.6 km/h
1171 08-04-2019 20:00:00 12.875 C 10.06 g/m*3 12.88 C 0.4 km/h
1172 08-04-2019 21:00:00 11.425 C 9.52 g/m*3 11.43 C 3.86667 km/h
1173 08-04-2019 22:00:00 11.1 C 9.53 g/m*3 11.1 C 1.06667 km/h
1174 08-04-2019 23:00:00 10.93333 C 9.45 g/m*3 10.93 C 0.53333 km/h
1175 09-04-2019 00:00:00 10.20833 C 9.04 g/m*3 10.21 C 0.93333 km/h
Sensor: Nr:Datum:Temp:Abs-Feuchte:Windchill:Wind:
Aussen-T/F 1176 09-04-2019 01:00:00 10.16667 C 9.08 g/m*3 10.17 C 0.26667 km/h
1177 09-04-2019 02:00:00 10.44167 C 9.28 g/m*3 10.44 C 0 km/h
1178 09-04-2019 03:00:00 10.15833 C 9.11 g/m*3 10.16 C 0 km/h
1179 09-04-2019 04:00:00 9.73333 C 8.87 g/m*3 9.73 C 0 km/h
1180 09-04-2019 05:00:00 9.025 C 8.48 g/m*3 9.03 C 0 km/h
1181 09-04-2019 06:00:00 8.94167 C 8.47 g/m*3 8.94 C 0 km/h
1182 09-04-2019 07:00:00 9.30833 C 8.72 g/m*3 9.31 C 0 km/h
1183 09-04-2019 08:00:00 9.875 C 9.04 g/m*3 9.88 C 0 km/h
1184 09-04-2019 09:00:00 10.50833 C 9.41 g/m*3 10.51 C 0.53333 km/h
1185 09-04-2019 10:00:00 11.09167 C 9.65 g/m*3 11.09 C 1.2 km/h
1186 09-04-2019 11:00:00 11.90833 C 10.03 g/m*3 11.91 C 2.13333 km/h
1187 09-04-2019 12:00:00 12.83333 C 10.38 g/m*3 12.83 C 1.2 km/h
1188 09-04-2019 13:00:00 14.475 C 10.69 g/m*3 14.48 C 3.2 km/h
1189 09-04-2019 14:00:00 16.075 C 10.8 g/m*3 16.08 C 6.83333 km/h
1190 09-04-2019 15:00:00 16.325 C 10.83 g/m*3 16.33 C 5.49167 km/h
1191 09-04-2019 16:00:00 16.08333 C 10.79 g/m*3 16.08 C 5.475 km/h
1192 09-04-2019 17:00:00 15.85 C 10.69 g/m*3 15.85 C 0.66667 km/h
1193 09-04-2019 18:00:00 15.4 C 10.9 g/m*3 15.4 C 0.13333 km/h
1194 09-04-2019 19:00:00 14.58333 C 10.17 g/m*3 14.58 C 2.80833 km/h
1195 09-04-2019 20:00:00 13.625 C 9.69 g/m*3 13.63 C 0.93333 km/h
1196 09-04-2019 21:00:00 12.48333 C 9.24 g/m*3 12.48 C 0.4 km/h
1197 09-04-2019 22:00:00 12.36667 C 8.16 g/m*3 12.37 C 4.53333 km/h
1198 09-04-2019 23:00:00 12.16667 C 7.6 g/m*3 12.17 C 7.38333 km/h
1199 10-04-2019 00:00:00 10.925 C 7.85 g/m*3 10.93 C 2.94167 km/h
1200 10-04-2019 01:00:00 10.36667 C 7.52 g/m*3 10.37 C 4.28333 km/h
Sensor: Nr:Datum:Temp:Abs-Feuchte:Windchill:Wind:
Aussen-T/F 1201 10-04-2019 02:00:00 9.91667 C 7.56 g/m*3 9.92 C 1.6 km/h
1202 10-04-2019 03:00:00 9.775 C 7.29 g/m*3 9.78 C 3.35 km/h
1203 10-04-2019 04:00:00 8.79167 C 7.06 g/m*3 8.79 C 0.53333 km/h
1204 10-04-2019 05:00:00 7.34167 C 6.71 g/m*3 7.34 C 0.53333 km/h
1205 10-04-2019 06:00:00 6.50833 C 6.47 g/m*3 6.51 C 0.66667 km/h
1206 10-04-2019 07:00:00 6.6 C 6.37 g/m*3 6.6 C 0.26667 km/h
1207 10-04-2019 08:00:00 7.675 C 6.24 g/m*3 6.99 C 5.36667 km/h
1208 10-04-2019 09:00:00 8.50833 C 6.14 g/m*3 6.74 C 10.625 km/h
1209 10-04-2019 10:00:00 9.575 C 6.31 g/m*3 7.82 C 11.83333 km/h
1210 10-04-2019 11:00:00 11.18333 C 6.41 g/m*3 11.18 C 12.9 km/h
1211 10-04-2019 12:00:00 12.16667 C 6.12 g/m*3 12.17 C 11.01667 km/h
1212 10-04-2019 13:00:00 13.425 C 6.32 g/m*3 13.43 C 9.94167 km/h
1213 10-04-2019 14:00:00 14.24167 C 6.08 g/m*3 14.24 C 12.76667 km/h
1214 10-04-2019 15:00:00 15.1 C 6.04 g/m*3 15.1 C 13.43333 km/h
1215 10-04-2019 16:00:00 16.075 C 6.01 g/m*3 16.08 C 13.825 km/h
1216 10-04-2019 17:00:00 16.6 C 5.79 g/m*3 16.6 C 12.35833 km/h
1217 10-04-2019 18:00:00 15.94167 C 5.17 g/m*3 15.94 C 14.5 km/h
1218 10-04-2019 19:00:00 14.4 C 5.28 g/m*3 14.4 C 14.9 km/h
1219 10-04-2019 20:00:00 11.34167 C 5.8 g/m*3 11.34 C 3.20833 km/h
1220 10-04-2019 21:00:00 8.9 C 5.88 g/m*3 8.9 C 2.13333 km/h
1221 10-04-2019 22:00:00 7.38333 C 5.81 g/m*3 7.38 C 0.4 km/h
1222 10-04-2019 23:00:00 6.46667 C 5.71 g/m*3 6.47 C 0.66667 km/h
1223 11-04-2019 00:00:00 5.75 C 5.52 g/m*3 5.75 C 1.34167 km/h
1224 11-04-2019 01:00:00 5.03333 C 5.31 g/m*3 5.03 C 0.53333 km/h
1225 11-04-2019 02:00:00 4.4 C 5.15 g/m*3 4.4 C 1.2 km/h
Sensor: Nr:Datum:Temp:Abs-Feuchte:Windchill:Wind:
Aussen-T/F 1226 11-04-2019 03:00:00 3.85833 C 4.98 g/m*3 3.86 C 0 km/h
1227 11-04-2019 04:00:00 2.9 C 4.76 g/m*3 2.9 C 0 km/h
1228 11-04-2019 05:00:00 2.30833 C 4.64 g/m*3 2.31 C 0.26667 km/h
1229 11-04-2019 06:00:00 1.71667 C 4.54 g/m*3 1.72 C 0 km/h
1230 11-04-2019 07:00:00 1.21667 C 4.49 g/m*3 1.22 C 0 km/h
1231 11-04-2019 08:00:00 1.8 C 4.69 g/m*3 1.8 C 0 km/h
1232 11-04-2019 09:00:00 3.9 C 4.89 g/m*3 3.9 C 4.69167 km/h
1233 11-04-2019 10:00:00 6.76667 C 4.43 g/m*3 3.92 C 15.03333 km/h
1234 11-04-2019 11:00:00 8.1 C 4.14 g/m*3 5.23 C 17.70833 km/h
1235 11-04-2019 12:00:00 8.91667 C 4.03 g/m*3 6.41 C 16.36667 km/h
1236 11-04-2019 13:00:00 9.875 C 4.05 g/m*3 7.86 C 14.23333 km/h
1237 11-04-2019 14:00:00 11.01667 C 4.09 g/m*3 11.02 C 16.5 km/h
1238 11-04-2019 15:00:00 12 C 4.13 g/m*3 12 C 17.175 km/h
1239 11-04-2019 16:00:00 12.76667 C 4.04 g/m*3 12.77 C 16.36667 km/h
1240 11-04-2019 17:00:00 13.31667 C 4.02 g/m*3 13.32 C 14.76667 km/h
1241 11-04-2019 18:00:00 13.025 C 3.99 g/m*3 13.03 C 11.41667 km/h
1242 11-04-2019 19:00:00 11.95833 C 4.06 g/m*3 11.96 C 7.65833 km/h
1243 11-04-2019 20:00:00 8.95 C 4.36 g/m*3 8.95 C 2.4 km/h
1244 11-04-2019 21:00:00 6.225 C 4.52 g/m*3 6.23 C 2.26667 km/h
1245 11-04-2019 22:00:00 5.35 C 4.45 g/m*3 5.35 C 2.80833 km/h
1246 11-04-2019 23:00:00 5.48333 C 4.26 g/m*3 5.48 C 3.75 km/h
1247 12-04-2019 00:00:00 4.46667 C 4.12 g/m*3 3.34 C 5.35 km/h
1248 12-04-2019 01:00:00 3.54167 C 4.03 g/m*3 3.54 C 3.34167 km/h
1249 12-04-2019 02:00:00 2.15833 C 4.03 g/m*3 2.16 C 2.53333 km/h
1250 12-04-2019 03:00:00 1.60833 C 3.98 g/m*3 1.61 C 3.06667 km/h
Sensor: Nr:Datum:Temp:Abs-Feuchte:Windchill:Wind:
Aussen-T/F 1251 12-04-2019 04:00:00 2.15833 C 4.23 g/m*3 2.16 C 0.66667 km/h
1252 12-04-2019 05:00:00 2.70833 C 4.27 g/m*3 2.71 C 0 km/h
1253 12-04-2019 06:00:00 2.98333 C 4.21 g/m*3 2.98 C 0 km/h
1254 12-04-2019 07:00:00 3.475 C 4.1 g/m*3 3.48 C 3.075 km/h
1255 12-04-2019 08:00:00 4.63333 C 3.85 g/m*3 1.97 C 11.16667 km/h
1256 12-04-2019 09:00:00 5.03333 C 3.82 g/m*3 2.3 C 11.95833 km/h
1257 12-04-2019 10:00:00 5.49167 C 3.74 g/m*3 1.91 C 18.23333 km/h
1258 12-04-2019 11:00:00 5.98333 C 3.76 g/m*3 2.37 C 19.43333 km/h
1259 12-04-2019 12:00:00 6.78333 C 3.82 g/m*3 4.08 C 14.09167 km/h
1260 12-04-2019 13:00:00 7.15833 C 3.74 g/m*3 4.9 C 11.825 km/h
1261 12-04-2019 14:00:00 7.26667 C 3.69 g/m*3 4.83 C 13.03333 km/h
1262 12-04-2019 15:00:00 7.56667 C 3.73 g/m*3 5.26 C 12.63333 km/h
1263 12-04-2019 16:00:00 7.3 C 3.74 g/m*3 5.16 C 11.3 km/h
1264 12-04-2019 17:00:00 7.1 C 3.64 g/m*3 5.46 C 8.61667 km/h
1265 12-04-2019 18:00:00 6.83333 C 3.76 g/m*3 4.53 C 11.7 km/h
1266 12-04-2019 19:00:00 6.525 C 3.91 g/m*3 4.41 C 10.35833 km/h
1267 12-04-2019 20:00:00 6.06667 C 4 g/m*3 4.3 C 8.34167 km/h
1268 12-04-2019 21:00:00 5.55 C 4.25 g/m*3 4.34 C 6.04167 km/h
1269 12-04-2019 22:00:00 4.39167 C 4.34 g/m*3 4.39 C 0.26667 km/h
1270 12-04-2019 23:00:00 3.58333 C 4.25 g/m*3 3.58 C 0.13333 km/h
1271 13-04-2019 00:00:00 2.95 C 4.3 g/m*3 2.95 C 0.66667 km/h
1272 13-04-2019 01:00:00 2.875 C 4.31 g/m*3 2.88 C 2.13333 km/h
1273 13-04-2019 02:00:00 2.61667 C 4.39 g/m*3 2.62 C 1.6 km/h
1274 13-04-2019 03:00:00 2.30833 C 4.42 g/m*3 2.31 C 0.26667 km/h
1275 13-04-2019 04:00:00 2.6 C 4.48 g/m*3 2.6 C 2.275 km/h
Sensor: Nr:Datum:Temp:Abs-Feuchte:Windchill:Wind:
Aussen-T/F 1276 13-04-2019 05:00:00 2.54167 C 4.5 g/m*3 2.54 C 0.4 km/h
1277 13-04-2019 06:00:00 2.28333 C 4.56 g/m*3 2.28 C 0.93333 km/h
1278 13-04-2019 07:00:00 2.5 C 4.6 g/m*3 2.5 C 2 km/h
1279 13-04-2019 08:00:00 3.125 C 4.63 g/m*3 1.24 C 6.975 km/h
1280 13-04-2019 09:00:00 3.60833 C 4.54 g/m*3 1.68 C 7.375 km/h
1281 13-04-2019 10:00:00 4.75833 C 4.42 g/m*3 2.83 C 8.075 km/h
1282 13-04-2019 11:00:00 5.36667 C 4.25 g/m*3 3.66 C 7.65 km/h
1283 13-04-2019 12:00:00 5.96667 C 4.15 g/m*3 3.58 C 11.15 km/h
1284 13-04-2019 13:00:00 5.75833 C 4.51 g/m*3 3.55 C 10.075 km/h
1285 13-04-2019 14:00:00 4.69167 C 5.15 g/m*3 2.3 C 9.93333 km/h
1286 13-04-2019 15:00:00 5.61667 C 5.3 g/m*3 3.85 C 8.05 km/h
1287 13-04-2019 16:00:00 6.21667 C 5.06 g/m*3 3.51 C 13.29167 km/h
1288 13-04-2019 17:00:00 4.55 C 5.59 g/m*3 3.33 C 5.63333 km/h
1289 13-04-2019 18:00:00 6.29167 C 5.7 g/m*3 6.29 C 4.28333 km/h
1290 13-04-2019 19:00:00 5.59167 C 5.48 g/m*3 5.59 C 1.73333 km/h
1291 13-04-2019 20:00:00 4.63333 C 5.35 g/m*3 4.63 C 2.54167 km/h
1292 13-04-2019 21:00:00 3.075 C 5 g/m*3 3.08 C 0 km/h
1293 13-04-2019 22:00:00 1.56667 C 4.72 g/m*3 1.57 C 0 km/h
1294 13-04-2019 23:00:00 1.04167 C 4.68 g/m*3 1.04 C 0 km/h
1295 14-04-2019 00:00:00 0.475 C 4.56 g/m*3 0.48 C 0 km/h
1296 14-04-2019 01:00:00 0.45 C 4.63 g/m*3 0.45 C 0 km/h
1297 14-04-2019 02:00:00 1.23333 C 4.92 g/m*3 1.23 C 0.13333 km/h
1298 14-04-2019 03:00:00 1.575 C 5.02 g/m*3 1.58 C 0.53333 km/h
1299 14-04-2019 04:00:00 1.63333 C 5.04 g/m*3 1.63 C 0.26667 km/h
1300 14-04-2019 05:00:00 1.56667 C 5.05 g/m*3 1.57 C 0.66667 km/h
Sensor: Nr:Datum:Temp:Abs-Feuchte:Windchill:Wind:
Aussen-T/F 1301 14-04-2019 06:00:00 1.25833 C 4.97 g/m*3 1.26 C 0 km/h
1302 14-04-2019 07:00:00 1.225 C 5.01 g/m*3 1.23 C 0 km/h
1303 14-04-2019 08:00:00 1.5 C 5.11 g/m*3 1.5 C 0 km/h
1304 14-04-2019 09:00:00 2.66667 C 5.57 g/m*3 2.67 C 0.13333 km/h
1305 14-04-2019 10:00:00 4.15 C 6.06 g/m*3 4.15 C 4.69167 km/h
1306 14-04-2019 11:00:00 6.00833 C 6.14 g/m*3 4.71 C 6.575 km/h
1307 14-04-2019 12:00:00 7.71667 C 5.62 g/m*3 5.62 C 11.55833 km/h
1308 14-04-2019 13:00:00 8.99167 C 5.14 g/m*3 7.21 C 11.275 km/h
1309 14-04-2019 14:00:00 10.43333 C 5.05 g/m*3 8.63 C 13.56667 km/h
1310 14-04-2019 15:00:00 11.46667 C 4.99 g/m*3 11.47 C 12.89167 km/h
1311 14-04-2019 16:00:00 12.08333 C 4.9 g/m*3 12.08 C 12.63333 km/h
1312 14-04-2019 17:00:00 12.50833 C 4.81 g/m*3 12.51 C 13.69167 km/h
1313 14-04-2019 18:00:00 12.06667 C 4.87 g/m*3 12.07 C 12.625 km/h
1314 14-04-2019 19:00:00 10.99167 C 5.18 g/m*3 9.87 C 9.66667 km/h
1315 14-04-2019 20:00:00 8.25 C 5.41 g/m*3 8.25 C 2.40833 km/h
1316 14-04-2019 21:00:00 5.925 C 5.5 g/m*3 5.93 C 2.14167 km/h
1317 14-04-2019 22:00:00 4.61667 C 5.42 g/m*3 4.62 C 1.86667 km/h
1318 14-04-2019 23:00:00 4.06667 C 5.39 g/m*3 4.07 C 1.6 km/h
1319 15-04-2019 00:00:00 4.11667 C 5.51 g/m*3 4.12 C 0.93333 km/h
1320 15-04-2019 01:00:00 5.075 C 5.83 g/m*3 5.08 C 0.53333 km/h
1321 15-04-2019 02:00:00 5.64167 C 5.91 g/m*3 5.64 C 0.26667 km/h
1322 15-04-2019 03:00:00 4.81667 C 5.71 g/m*3 4.82 C 0.66667 km/h
1323 15-04-2019 04:00:00 4.78333 C 5.81 g/m*3 4.78 C 0 km/h
1324 15-04-2019 05:00:00 4.26667 C 5.68 g/m*3 4.27 C 0.4 km/h
1325 15-04-2019 06:00:00 4.48333 C 5.87 g/m*3 4.48 C 0 km/h
Sensor: Nr:Datum:Temp:Abs-Feuchte:Windchill:Wind:
Aussen-T/F 1326 15-04-2019 07:00:00 5.1 C 6.13 g/m*3 5.1 C 0 km/h
1327 15-04-2019 08:00:00 5.98333 C 6.38 g/m*3 5.98 C 2.14167 km/h
1328 15-04-2019 09:00:00 7.175 C 6.61 g/m*3 5.98 C 6.84167 km/h
1329 15-04-2019 10:00:00 8.34167 C 6.78 g/m*3 6.68 C 9.83333 km/h
1330 15-04-2019 11:00:00 10.15833 C 7.1 g/m*3 9.48 C 6.70833 km/h
1331 15-04-2019 12:00:00 12.475 C 7.23 g/m*3 12.48 C 13.025 km/h
1332 15-04-2019 13:00:00 14.29167 C 7.15 g/m*3 14.29 C 15.16667 km/h
1333 15-04-2019 14:00:00 16.025 C 7.25 g/m*3 16.02 C 14.23333 km/h
1334 15-04-2019 15:00:00 17.53333 C 6.95 g/m*3 17.53 C 16.63333 km/h
1335 15-04-2019 16:00:00 18.31667 C 7 g/m*3 18.32 C 14.75833 km/h
1336 15-04-2019 17:00:00 18.95833 C 6.68 g/m*3 18.96 C 11.7 km/h
1337 15-04-2019 18:00:00 19.13333 C 6.32 g/m*3 19.13 C 11.95833 km/h
1338 15-04-2019 19:00:00 18.19167 C 6.42 g/m*3 18.19 C 5.89167 km/h
1339 15-04-2019 20:00:00 14.2 C 6.99 g/m*3 14.2 C 3.6 km/h
1340 15-04-2019 21:00:00 11.575 C 6.81 g/m*3 11.58 C 3.6 km/h
1341 15-04-2019 22:00:00 10.24167 C 6.5 g/m*3 10.24 C 0.53333 km/h
1342 15-04-2019 23:00:00 9.24167 C 6.19 g/m*3 9.24 C 3.6 km/h
1343 16-04-2019 00:00:00 8.16667 C 5.98 g/m*3 8.17 C 4.66667 km/h
1344 16-04-2019 01:00:00 7.25833 C 5.82 g/m*3 7.26 C 2.93333 km/h
1345 16-04-2019 02:00:00 6.48333 C 5.69 g/m*3 6.48 C 2.53333 km/h
1346 16-04-2019 03:00:00 6.06667 C 5.55 g/m*3 6.07 C 2 km/h
1347 16-04-2019 04:00:00 5.83333 C 5.4 g/m*3 5.83 C 2.66667 km/h
1348 16-04-2019 05:00:00 5.50833 C 5.35 g/m*3 5.51 C 2.93333 km/h
1349 16-04-2019 06:00:00 4.99167 C 5.27 g/m*3 4.99 C 1.46667 km/h
1350 16-04-2019 07:00:00 3.91667 C 5.23 g/m*3 3.92 C 0 km/h
Sensor: Nr:Datum:Temp:Abs-Feuchte:Windchill:Wind:
Aussen-T/F 1351 16-04-2019 08:00:00 4.51667 C 5.48 g/m*3 4.52 C 0.4 km/h
1352 16-04-2019 09:00:00 6.2 C 5.94 g/m*3 6.2 C 0.66667 km/h
1353 16-04-2019 10:00:00 10.39167 C 6.13 g/m*3 10.39 C 3.875 km/h
1354 16-04-2019 11:00:00 13.69167 C 6.06 g/m*3 13.69 C 6.85833 km/h
1355 16-04-2019 12:00:00 15.59167 C 6.26 g/m*3 15.59 C 9.28333 km/h
1356 16-04-2019 13:00:00 17.025 C 6.68 g/m*3 17.02 C 9.41667 km/h
1357 16-04-2019 14:00:00 18.3 C 7.24 g/m*3 18.3 C 9.14167 km/h
1358 16-04-2019 15:00:00 19.025 C 7.4 g/m*3 19.02 C 8.45833 km/h
1359 16-04-2019 16:00:00 18.85833 C 7.5 g/m*3 18.86 C 7.24167 km/h
1360 16-04-2019 17:00:00 18.09167 C 8.11 g/m*3 18.09 C 16.36667 km/h
1361 16-04-2019 18:00:00 15.5 C 8.21 g/m*3 15.5 C 12.1 km/h
1362 16-04-2019 19:00:00 14.63333 C 8.39 g/m*3 14.63 C 2.55 km/h
1363 16-04-2019 20:00:00 13.25833 C 8.37 g/m*3 13.26 C 0.13333 km/h
1364 16-04-2019 21:00:00 12.29167 C 8.25 g/m*3 12.29 C 0.8 km/h
1365 16-04-2019 22:00:00 11.825 C 8.35 g/m*3 11.83 C 0.66667 km/h
1366 16-04-2019 23:00:00 11.475 C 8.29 g/m*3 11.48 C 0 km/h
1367 17-04-2019 00:00:00 11.01667 C 8.31 g/m*3 11.02 C 0 km/h
1368 17-04-2019 01:00:00 10.725 C 8.68 g/m*3 10.73 C 1.86667 km/h
1369 17-04-2019 02:00:00 10.25833 C 8.74 g/m*3 10.26 C 0.26667 km/h
1370 17-04-2019 03:00:00 9.91667 C 8.72 g/m*3 9.92 C 0 km/h
1371 17-04-2019 04:00:00 9.73333 C 8.71 g/m*3 9.73 C 0 km/h
1372 17-04-2019 05:00:00 9.60833 C 8.71 g/m*3 9.61 C 0 km/h
1373 17-04-2019 06:00:00 9.66667 C 8.77 g/m*3 9.67 C 0 km/h
1374 17-04-2019 07:00:00 10 C 9.02 g/m*3 10 C 0.4 km/h
1375 17-04-2019 08:00:00 10.64167 C 9.39 g/m*3 10.64 C 2.275 km/h
Sensor: Nr:Datum:Temp:Abs-Feuchte:Windchill:Wind:
Aussen-T/F 1376 17-04-2019 09:00:00 11.36667 C 9.81 g/m*3 11.37 C 3.2 km/h
1377 17-04-2019 10:00:00 12.30833 C 10.16 g/m*3 12.31 C 2.675 km/h
1378 17-04-2019 11:00:00 13.04167 C 10.32 g/m*3 13.04 C 4.80833 km/h
1379 17-04-2019 12:00:00 13.675 C 10.3 g/m*3 13.68 C 5.23333 km/h
1380 17-04-2019 13:00:00 14.88333 C 10.47 g/m*3 14.88 C 6.98333 km/h
1381 17-04-2019 14:00:00 16.18333 C 10.25 g/m*3 16.18 C 7.24167 km/h
1382 17-04-2019 15:00:00 17.19167 C 10.21 g/m*3 17.19 C 7.9 km/h
1383 17-04-2019 16:00:00 18.00833 C 9.67 g/m*3 18.01 C 13.01667 km/h
1384 17-04-2019 17:00:00 18.225 C 9.74 g/m*3 18.23 C 7.91667 km/h
1385 17-04-2019 18:00:00 18.16667 C 9.51 g/m*3 18.17 C 5.24167 km/h
1386 17-04-2019 19:00:00 16.38333 C 10.26 g/m*3 16.38 C 0 km/h
1387 17-04-2019 20:00:00 13.575 C 9.15 g/m*3 13.58 C 2.13333 km/h
1388 17-04-2019 21:00:00 11.65 C 8.36 g/m*3 11.65 C 3.2 km/h
1389 17-04-2019 22:00:00 10.36667 C 8 g/m*3 10.37 C 0 km/h
1390 17-04-2019 23:00:00 9.375 C 7.68 g/m*3 9.38 C 0 km/h
1391 18-04-2019 00:00:00 8.70833 C 7.58 g/m*3 8.71 C 0 km/h
1392 18-04-2019 01:00:00 8.75833 C 7.65 g/m*3 8.76 C 0 km/h
1393 18-04-2019 02:00:00 8.55 C 7.51 g/m*3 8.55 C 0 km/h
1394 18-04-2019 03:00:00 8.01667 C 7.15 g/m*3 8.02 C 0 km/h
1395 18-04-2019 04:00:00 7.16667 C 6.89 g/m*3 7.17 C 0 km/h
1396 18-04-2019 05:00:00 6.875 C 6.9 g/m*3 6.88 C 0 km/h
1397 18-04-2019 06:00:00 6.76667 C 6.9 g/m*3 6.77 C 0 km/h
1398 18-04-2019 07:00:00 7.44167 C 7.08 g/m*3 7.44 C 0 km/h
1399 18-04-2019 08:00:00 8.475 C 7.49 g/m*3 8.48 C 0 km/h
1400 18-04-2019 09:00:00 9.88333 C 7.78 g/m*3 9.88 C 2 km/h
Sensor: Nr:Datum:Temp:Abs-Feuchte:Windchill:Wind:
Aussen-T/F 1401 18-04-2019 10:00:00 12.95 C 8.06 g/m*3 12.95 C 7.38333 km/h
1402 18-04-2019 11:00:00 16.38333 C 7.92 g/m*3 16.38 C 10.60833 km/h
1403 18-04-2019 12:00:00 17.65833 C 7.83 g/m*3 17.66 C 12.20833 km/h
1404 18-04-2019 13:00:00 18.76667 C 7.61 g/m*3 18.77 C 12.76667 km/h
1405 18-04-2019 14:00:00 19.91667 C 7.29 g/m*3 19.92 C 15.03333 km/h
1406 18-04-2019 15:00:00 21.35 C 7.23 g/m*3 21.35 C 14.63333 km/h
1407 18-04-2019 16:00:00 22.525 C 6.83 g/m*3 22.53 C 13.7 km/h
1408 18-04-2019 17:00:00 23.375 C 6.88 g/m*3 23.38 C 12.35833 km/h
1409 18-04-2019 18:00:00 23.40833 C 6.89 g/m*3 23.41 C 10.48333 km/h
1410 18-04-2019 19:00:00 22.28333 C 7.18 g/m*3 22.28 C 6.04167 km/h
1411 18-04-2019 20:00:00 18.05833 C 8.09 g/m*3 18.06 C 4 km/h
1412 18-04-2019 21:00:00 15.33333 C 7.77 g/m*3 15.33 C 4.8 km/h
1413 18-04-2019 22:00:00 14.23333 C 7.54 g/m*3 14.23 C 4.8 km/h
1414 18-04-2019 23:00:00 13.08333 C 7.44 g/m*3 13.08 C 2.4 km/h
1415 19-04-2019 00:00:00 11.55833 C 7.45 g/m*3 11.56 C 0 km/h
1416 19-04-2019 01:00:00 10.70833 C 7.37 g/m*3 10.71 C 0.26667 km/h
1417 19-04-2019 02:00:00 11.01667 C 7.17 g/m*3 11.02 C 3.33333 km/h
1418 19-04-2019 03:00:00 10.29167 C 7.05 g/m*3 10.29 C 1.86667 km/h
1419 19-04-2019 04:00:00 9.61667 C 6.99 g/m*3 9.62 C 0.13333 km/h
1420 19-04-2019 05:00:00 8.24167 C 6.84 g/m*3 8.24 C 0 km/h
1421 19-04-2019 06:00:00 7.04167 C 6.51 g/m*3 7.04 C 0 km/h
1422 19-04-2019 07:00:00 6.65 C 6.58 g/m*3 6.65 C 0 km/h
1423 19-04-2019 08:00:00 6.85 C 6.8 g/m*3 6.85 C 0 km/h
1424 19-04-2019 09:00:00 8.975 C 7.61 g/m*3 8.98 C 0.66667 km/h
1425 19-04-2019 10:00:00 13.525 C 7.82 g/m*3 13.53 C 7.66667 km/h
Sensor: Nr:Datum:Temp:Abs-Feuchte:Windchill:Wind:
Aussen-T/F 1426 19-04-2019 11:00:00 17.95833 C 7.47 g/m*3 17.96 C 14.1 km/h
1427 19-04-2019 12:00:00 19.9 C 7.13 g/m*3 19.9 C 13.7 km/h
1428 19-04-2019 13:00:00 21.36667 C 6.41 g/m*3 21.37 C 12.35 km/h
1429 19-04-2019 14:00:00 22.44167 C 6.24 g/m*3 22.44 C 15.43333 km/h
1430 19-04-2019 15:00:00 23.675 C 5.75 g/m*3 23.68 C 14.63333 km/h
1431 19-04-2019 16:00:00 24.89167 C 5.51 g/m*3 24.89 C 13.825 km/h
1432 19-04-2019 17:00:00 25.28333 C 5.26 g/m*3 25.28 C 12.76667 km/h
1433 19-04-2019 18:00:00 25.50833 C 5.29 g/m*3 25.51 C 9.83333 km/h
1434 19-04-2019 19:00:00 24.25 C 5.77 g/m*3 24.25 C 4.95833 km/h
1435 19-04-2019 20:00:00 19.21667 C 6.74 g/m*3 19.22 C 4.66667 km/h
1436 19-04-2019 21:00:00 15.875 C 6.68 g/m*3 15.88 C 2.93333 km/h
1437 19-04-2019 22:00:00 13.33333 C 6.74 g/m*3 13.33 C 0.8 km/h
1438 19-04-2019 23:00:00 11.73333 C 6.73 g/m*3 11.73 C 1.2 km/h
1439 20-04-2019 00:00:00 10.40833 C 6.81 g/m*3 10.41 C 0.4 km/h
1440 20-04-2019 01:00:00 9.45833 C 6.91 g/m*3 9.46 C 0 km/h
1441 20-04-2019 02:00:00 8.55833 C 6.93 g/m*3 8.56 C 0 km/h
1442 20-04-2019 03:00:00 7.64167 C 6.79 g/m*3 7.64 C 0 km/h
1443 20-04-2019 04:00:00 6.85 C 6.68 g/m*3 6.85 C 0 km/h
1444 20-04-2019 05:00:00 6.23333 C 6.58 g/m*3 6.23 C 0 km/h
1445 20-04-2019 06:00:00 5.775 C 6.48 g/m*3 5.78 C 0 km/h
1446 20-04-2019 07:00:00 5.85833 C 6.61 g/m*3 5.86 C 0.13333 km/h
1447 20-04-2019 08:00:00 6.48333 C 6.92 g/m*3 6.48 C 0 km/h
1448 20-04-2019 09:00:00 8.16667 C 7.71 g/m*3 8.17 C 0 km/h
1449 20-04-2019 10:00:00 11.68333 C 8.74 g/m*3 11.68 C 1.33333 km/h
1450 20-04-2019 11:00:00 16.725 C 9.1 g/m*3 16.73 C 3.46667 km/h
Sensor: Nr:Datum:Temp:Abs-Feuchte:Windchill:Wind:
Aussen-T/F 1451 20-04-2019 12:00:00 20.225 C 8.22 g/m*3 20.23 C 6.7 km/h
1452 20-04-2019 13:00:00 22.05 C 7.07 g/m*3 22.05 C 10.61667 km/h
1453 20-04-2019 14:00:00 23.275 C 6.04 g/m*3 23.28 C 11.95 km/h
1454 20-04-2019 15:00:00 24.25833 C 6.13 g/m*3 24.26 C 11.96667 km/h
1455 20-04-2019 16:00:00 25.21667 C 6.21 g/m*3 25.22 C 12.36667 km/h
1456 20-04-2019 17:00:00 25.30833 C 5.89 g/m*3 25.31 C 14.1 km/h
1457 20-04-2019 18:00:00 25.39167 C 5.55 g/m*3 25.39 C 10.89167 km/h
1458 20-04-2019 19:00:00 24.575 C 6.03 g/m*3 24.58 C 5.5 km/h
1459 20-04-2019 20:00:00 19.875 C 7.41 g/m*3 19.88 C 3.6 km/h
1460 20-04-2019 21:00:00 16.175 C 7.52 g/m*3 16.18 C 0.66667 km/h
1461 20-04-2019 22:00:00 13.81667 C 7.54 g/m*3 13.82 C 0 km/h
1462 20-04-2019 23:00:00 12.90833 C 7.4 g/m*3 12.91 C 0 km/h
1463 21-04-2019 00:00:00 12.84167 C 7.27 g/m*3 12.84 C 0 km/h
1464 21-04-2019 01:00:00 12.48333 C 7.18 g/m*3 12.48 C 0 km/h
1465 21-04-2019 02:00:00 11.36667 C 7.19 g/m*3 11.37 C 0 km/h
1466 21-04-2019 03:00:00 10.81667 C 7.23 g/m*3 10.82 C 0 km/h
1467 21-04-2019 04:00:00 9.23333 C 7.01 g/m*3 9.23 C 0 km/h
1468 21-04-2019 05:00:00 7.375 C 6.74 g/m*3 7.38 C 0 km/h
1469 21-04-2019 06:00:00 6.45 C 6.56 g/m*3 6.45 C 0 km/h
1470 21-04-2019 07:00:00 6.68333 C 6.77 g/m*3 6.68 C 0 km/h
1471 21-04-2019 08:00:00 7.16667 C 7.04 g/m*3 7.17 C 0 km/h
1472 21-04-2019 09:00:00 8.675 C 7.73 g/m*3 8.68 C 0 km/h
1473 21-04-2019 10:00:00 11.98333 C 8.67 g/m*3 11.98 C 0 km/h
1474 21-04-2019 11:00:00 16.48333 C 8.88 g/m*3 16.48 C 1.2 km/h
1475 21-04-2019 12:00:00 19.65833 C 7.65 g/m*3 19.66 C 5.08333 km/h
Sensor: Nr:Datum:Temp:Abs-Feuchte:Windchill:Wind:
Aussen-T/F 1476 21-04-2019 13:00:00 21.525 C 6.63 g/m*3 21.53 C 7.65833 km/h
1477 21-04-2019 14:00:00 22.98333 C 6.16 g/m*3 22.98 C 8.2 km/h
1478 21-04-2019 15:00:00 24.46667 C 6.78 g/m*3 24.47 C 9.81667 km/h
1479 21-04-2019 16:00:00 25.73333 C 6.32 g/m*3 25.73 C 11.41667 km/h
1480 21-04-2019 17:00:00 25.94167 C 5.95 g/m*3 25.94 C 11.825 km/h
1481 21-04-2019 18:00:00 26.13333 C 5.97 g/m*3 26.13 C 7.50833 km/h
1482 21-04-2019 19:00:00 24.58333 C 6.37 g/m*3 24.58 C 4.95 km/h
1483 21-04-2019 20:00:00 19.69167 C 6.89 g/m*3 19.69 C 3.6 km/h
1484 21-04-2019 21:00:00 16.725 C 7.21 g/m*3 16.73 C 2.26667 km/h
1485 21-04-2019 22:00:00 13.85833 C 7.54 g/m*3 13.86 C 0 km/h
1486 21-04-2019 23:00:00 12.21667 C 7.25 g/m*3 12.22 C 0 km/h
1487 22-04-2019 00:00:00 10.54167 C 7.03 g/m*3 10.54 C 0 km/h
1488 22-04-2019 01:00:00 9.24167 C 6.98 g/m*3 9.24 C 0 km/h
1489 22-04-2019 02:00:00 8.2 C 6.91 g/m*3 8.2 C 0.13333 km/h
1490 22-04-2019 03:00:00 7.56667 C 6.83 g/m*3 7.57 C 0.13333 km/h
1491 22-04-2019 04:00:00 6.64167 C 6.65 g/m*3 6.64 C 0 km/h
1492 22-04-2019 05:00:00 5.89167 C 6.51 g/m*3 5.89 C 0 km/h
1493 22-04-2019 06:00:00 5.475 C 6.43 g/m*3 5.48 C 0 km/h
1494 22-04-2019 07:00:00 5.74167 C 6.63 g/m*3 5.74 C 0 km/h
1495 22-04-2019 08:00:00 6.54167 C 6.99 g/m*3 6.54 C 0 km/h
1496 22-04-2019 09:00:00 8.40833 C 7.81 g/m*3 8.41 C 0.8 km/h
1497 22-04-2019 10:00:00 12.55 C 8.39 g/m*3 12.55 C 3.075 km/h
1498 22-04-2019 11:00:00 17.96667 C 7.52 g/m*3 17.97 C 11.825 km/h
1499 22-04-2019 12:00:00 20.89167 C 6.96 g/m*3 20.89 C 12.76667 km/h
1500 22-04-2019 13:00:00 22.65 C 5.99 g/m*3 22.65 C 14.36667 km/h
Sensor: Nr:Datum:Temp:Abs-Feuchte:Windchill:Wind:
Aussen-T/F 1501 22-04-2019 14:00:00 23.45 C 6.13 g/m*3 23.45 C 15.3 km/h
1502 22-04-2019 15:00:00 24.375 C 6.32 g/m*3 24.38 C 15.03333 km/h
1503 22-04-2019 16:00:00 25.49167 C 6.11 g/m*3 25.49 C 15.83333 km/h
1504 22-04-2019 17:00:00 25.70833 C 5.93 g/m*3 25.71 C 12.9 km/h
1505 22-04-2019 18:00:00 24.4 C 6.25 g/m*3 24.4 C 4.55833 km/h
1506 22-04-2019 19:00:00 21.4 C 7.8 g/m*3 21.4 C 2 km/h
1507 22-04-2019 20:00:00 19.55 C 7.24 g/m*3 19.55 C 5.50833 km/h
1508 22-04-2019 21:00:00 16.975 C 7.06 g/m*3 16.98 C 3.46667 km/h
1509 22-04-2019 22:00:00 15.15 C 6.63 g/m*3 15.15 C 3.74167 km/h
1510 22-04-2019 23:00:00 15.04167 C 6.34 g/m*3 15.04 C 5.36667 km/h
1511 23-04-2019 00:00:00 13.175 C 6.4 g/m*3 13.18 C 2.13333 km/h
1512 23-04-2019 01:00:00 11.55 C 6.45 g/m*3 11.55 C 0.53333 km/h
1513 23-04-2019 02:00:00 10.31667 C 6.42 g/m*3 10.32 C 0.66667 km/h
1514 23-04-2019 03:00:00 9.7 C 6.31 g/m*3 9.7 C 0 km/h
1515 23-04-2019 04:00:00 9.15833 C 6.39 g/m*3 9.16 C 0 km/h
1516 23-04-2019 05:00:00 8.83333 C 6.38 g/m*3 8.83 C 0 km/h
1517 23-04-2019 06:00:00 8.31667 C 6.41 g/m*3 8.32 C 0 km/h
1518 23-04-2019 07:00:00 8.99167 C 6.81 g/m*3 8.99 C 0 km/h
1519 23-04-2019 08:00:00 10.325 C 7.31 g/m*3 10.33 C 0 km/h
1520 23-04-2019 09:00:00 12.53333 C 7.04 g/m*3 12.53 C 7.94167 km/h
1521 23-04-2019 10:00:00 14.025 C 7.28 g/m*3 14.03 C 9.95833 km/h
1522 23-04-2019 11:00:00 15.475 C 7.58 g/m*3 15.48 C 12.76667 km/h
1523 23-04-2019 12:00:00 17.04167 C 8.01 g/m*3 17.04 C 11.56667 km/h
1524 23-04-2019 13:00:00 18.89167 C 8.29 g/m*3 18.89 C 14.36667 km/h
1525 23-04-2019 14:00:00 20.44167 C 8.5 g/m*3 20.44 C 13.16667 km/h
Sensor: Nr:Datum:Temp:Abs-Feuchte:Windchill:Wind:
Aussen-T/F 1526 23-04-2019 15:00:00 21.76667 C 8.55 g/m*3 21.77 C 14.76667 km/h
1527 23-04-2019 16:00:00 23.1 C 8.79 g/m*3 23.1 C 10.875 km/h
1528 23-04-2019 17:00:00 23.4 C 8.97 g/m*3 23.4 C 8.475 km/h
1529 23-04-2019 18:00:00 21.775 C 8.86 g/m*3 21.78 C 7.91667 km/h
1530 23-04-2019 19:00:00 20.31667 C 9.21 g/m*3 20.32 C 2.93333 km/h
1531 23-04-2019 20:00:00 17.975 C 9.41 g/m*3 17.98 C 0.53333 km/h
1532 23-04-2019 21:00:00 16.08333 C 9.45 g/m*3 16.08 C 0.13333 km/h
1533 23-04-2019 22:00:00 15.54167 C 9.44 g/m*3 15.54 C 0 km/h
1534 23-04-2019 23:00:00 15.08333 C 9.3 g/m*3 15.08 C 0 km/h
1535 24-04-2019 00:00:00 14.425 C 9.31 g/m*3 14.43 C 0 km/h
1536 24-04-2019 01:00:00 12.65833 C 8.71 g/m*3 12.66 C 0 km/h
1537 24-04-2019 02:00:00 11.325 C 8.48 g/m*3 11.33 C 0 km/h
1538 24-04-2019 03:00:00 10.39167 C 8.33 g/m*3 10.39 C 0 km/h
1539 24-04-2019 04:00:00 9.89167 C 8.28 g/m*3 9.89 C 0 km/h
1540 24-04-2019 05:00:00 9.35 C 8.12 g/m*3 9.35 C 0 km/h
1541 24-04-2019 06:00:00 9.1 C 8.13 g/m*3 9.1 C 0.26667 km/h
1542 24-04-2019 07:00:00 9.66667 C 8.51 g/m*3 9.67 C 0 km/h
1543 24-04-2019 08:00:00 11.55833 C 9.01 g/m*3 11.56 C 0 km/h
1544 24-04-2019 09:00:00 13.39167 C 9.57 g/m*3 13.39 C 0 km/h
1545 24-04-2019 10:00:00 16.14167 C 10.2 g/m*3 16.14 C 0 km/h
1546 24-04-2019 11:00:00 18.73333 C 10.71 g/m*3 18.73 C 1.74167 km/h
1547 24-04-2019 12:00:00 21.425 C 9.5 g/m*3 21.43 C 9.14167 km/h
1548 24-04-2019 13:00:00 22.38333 C 9.03 g/m*3 22.38 C 9.14167 km/h
1549 24-04-2019 14:00:00 23.45 C 9.01 g/m*3 23.45 C 6.05 km/h
1550 24-04-2019 15:00:00 24.80833 C 8.88 g/m*3 24.81 C 6.56667 km/h
Sensor: Nr:Datum:Temp:Abs-Feuchte:Windchill:Wind:
Aussen-T/F 1551 24-04-2019 16:00:00 25.20833 C 9.14 g/m*3 25.21 C 6.15833 km/h
1552 24-04-2019 17:00:00 25.675 C 9.78 g/m*3 25.68 C 6.16667 km/h
1553 24-04-2019 18:00:00 19.91667 C 9.77 g/m*3 19.92 C 24.66667 km/h
1554 24-04-2019 19:00:00 13.875 C 9.24 g/m*3 13.88 C 28.94167 km/h
1555 24-04-2019 20:00:00 11.34167 C 8.8 g/m*3 11.34 C 16.225 km/h
1556 24-04-2019 21:00:00 9.85 C 8.55 g/m*3 9.85 C 1.86667 km/h
1557 24-04-2019 22:00:00 9.16667 C 8.33 g/m*3 9.17 C 0 km/h
1558 24-04-2019 23:00:00 9.00833 C 8.37 g/m*3 9.01 C 0 km/h
1559 25-04-2019 00:00:00 8.85833 C 8.3 g/m*3 8.86 C 0.4 km/h
1560 25-04-2019 01:00:00 8.125 C 7.92 g/m*3 8.13 C 0.66667 km/h
1561 25-04-2019 02:00:00 7.45 C 7.6 g/m*3 7.45 C 0 km/h
1562 25-04-2019 03:00:00 7.2 C 7.54 g/m*3 7.2 C 0 km/h
1563 25-04-2019 04:00:00 7.05833 C 7.47 g/m*3 7.06 C 0 km/h
1564 25-04-2019 05:00:00 7.10833 C 7.49 g/m*3 7.11 C 0 km/h
1565 25-04-2019 06:00:00 7.05833 C 7.53 g/m*3 7.06 C 0.4 km/h
1566 25-04-2019 07:00:00 7.85833 C 7.95 g/m*3 7.86 C 0.53333 km/h
1567 25-04-2019 08:00:00 9.16667 C 8.64 g/m*3 9.17 C 3.06667 km/h
1568 25-04-2019 09:00:00 10.63333 C 9.49 g/m*3 10.63 C 0.13333 km/h
1569 25-04-2019 10:00:00 11.54167 C 9.93 g/m*3 11.54 C 1.75 km/h
1570 25-04-2019 11:00:00 14.14167 C 9.69 g/m*3 14.14 C 8.06667 km/h
1571 25-04-2019 12:00:00 16.96667 C 9.24 g/m*3 16.97 C 8.60833 km/h
1572 25-04-2019 13:00:00 18.6 C 9.35 g/m*3 18.6 C 8.61667 km/h
1573 25-04-2019 14:00:00 20.25833 C 9.3 g/m*3 20.26 C 7.39167 km/h
1574 25-04-2019 15:00:00 21.525 C 9.32 g/m*3 21.53 C 8.19167 km/h
1575 25-04-2019 16:00:00 22.125 C 10.75 g/m*3 22.13 C 3.21667 km/h
Sensor: Nr:Datum:Temp:Abs-Feuchte:Windchill:Wind:
Aussen-T/F 1576 25-04-2019 17:00:00 21.35 C 11.08 g/m*3 21.35 C 6.725 km/h
1577 25-04-2019 18:00:00 20.55833 C 9.8 g/m*3 20.56 C 13.95833 km/h
1578 25-04-2019 19:00:00 16.88333 C 8.82 g/m*3 16.88 C 17.45 km/h
1579 25-04-2019 20:00:00 15.125 C 8.62 g/m*3 15.13 C 12.61667 km/h
1580 25-04-2019 21:00:00 13.85 C 8.64 g/m*3 13.85 C 7.125 km/h
1581 25-04-2019 22:00:00 13.04167 C 8.49 g/m*3 13.04 C 2.4 km/h
1582 25-04-2019 23:00:00 12.425 C 8.57 g/m*3 12.43 C 0 km/h
1583 26-04-2019 00:00:00 11.39167 C 8.43 g/m*3 11.39 C 0 km/h
1584 26-04-2019 01:00:00 10.93333 C 8.5 g/m*3 10.93 C 0 km/h
1585 26-04-2019 02:00:00 11.00833 C 8.44 g/m*3 11.01 C 0 km/h
1586 26-04-2019 03:00:00 10.98333 C 8.31 g/m*3 10.98 C 0 km/h
1587 26-04-2019 04:00:00 10.8 C 8.27 g/m*3 10.8 C 2.80833 km/h
1588 26-04-2019 05:00:00 10.4 C 8.38 g/m*3 10.4 C 2.80833 km/h
1589 26-04-2019 06:00:00 9.625 C 8.44 g/m*3 9.63 C 0.93333 km/h
1590 26-04-2019 07:00:00 9.5 C 8.55 g/m*3 9.5 C 0.93333 km/h
1591 26-04-2019 08:00:00 9.50833 C 8.62 g/m*3 9.51 C 0.8 km/h
1592 26-04-2019 09:00:00 9.99167 C 8.92 g/m*3 9.99 C 3.08333 km/h
1593 26-04-2019 10:00:00 10.275 C 9.08 g/m*3 10.28 C 3.48333 km/h
1594 26-04-2019 11:00:00 10.88333 C 9.29 g/m*3 10.88 C 4.55833 km/h
1595 26-04-2019 12:00:00 11.95833 C 9.42 g/m*3 11.96 C 8.73333 km/h
1596 26-04-2019 13:00:00 13.00833 C 9.36 g/m*3 13.01 C 9.68333 km/h
1597 26-04-2019 14:00:00 13.53333 C 9.16 g/m*3 13.53 C 10.9 km/h
1598 26-04-2019 15:00:00 13.525 C 8.98 g/m*3 13.53 C 9 km/h
1599 26-04-2019 16:00:00 15.06667 C 9.1 g/m*3 15.07 C 8.74167 km/h
1600 26-04-2019 17:00:00 15.74167 C 8.85 g/m*3 15.74 C 6.025 km/h
Sensor: Nr:Datum:Temp:Abs-Feuchte:Windchill:Wind:
Aussen-T/F 1601 26-04-2019 18:00:00 16.925 C 8.93 g/m*3 16.93 C 3.60833 km/h
1602 26-04-2019 19:00:00 15.84167 C 9.71 g/m*3 15.84 C 0 km/h
1603 26-04-2019 20:00:00 12.575 C 8.92 g/m*3 12.58 C 7.89167 km/h
1604 26-04-2019 21:00:00 10.89167 C 8.66 g/m*3 10.89 C 2.13333 km/h
1605 26-04-2019 22:00:00 10.45833 C 8.59 g/m*3 10.46 C 0 km/h
1606 26-04-2019 23:00:00 10.00833 C 8.49 g/m*3 10.01 C 0 km/h
1607 27-04-2019 00:00:00 9.20833 C 8.21 g/m*3 9.21 C 0 km/h
1608 27-04-2019 01:00:00 9.14167 C 8.27 g/m*3 9.14 C 0 km/h
1609 27-04-2019 02:00:00 8.575 C 7.99 g/m*3 8.57 C 0.26667 km/h
1610 27-04-2019 03:00:00 7.875 C 7.71 g/m*3 7.88 C 0 km/h
1611 27-04-2019 04:00:00 7.18333 C 7.39 g/m*3 7.18 C 0 km/h
1612 27-04-2019 05:00:00 6.64167 C 7.18 g/m*3 6.64 C 0 km/h
1613 27-04-2019 06:00:00 6.425 C 7.12 g/m*3 6.43 C 0 km/h
1614 27-04-2019 07:00:00 7.15 C 7.51 g/m*3 7.15 C 0 km/h
1615 27-04-2019 08:00:00 8.66667 C 8.36 g/m*3 8.67 C 0 km/h
1616 27-04-2019 09:00:00 10.16667 C 9.01 g/m*3 10.17 C 1.33333 km/h
1617 27-04-2019 10:00:00 11.30833 C 8.95 g/m*3 11.31 C 3.075 km/h
1618 27-04-2019 11:00:00 12.64167 C 8.49 g/m*3 12.64 C 11.14167 km/h
1619 27-04-2019 12:00:00 12.69167 C 9.08 g/m*3 12.69 C 9.29167 km/h
1620 27-04-2019 13:00:00 13.025 C 8.85 g/m*3 13.03 C 14.90833 km/h
1621 27-04-2019 14:00:00 9.525 C 8.21 g/m*3 8.62 C 7.24167 km/h
1622 27-04-2019 15:00:00 10.46667 C 8.71 g/m*3 10.47 C 3.475 km/h
1623 27-04-2019 16:00:00 11.75 C 8.58 g/m*3 11.75 C 6.85 km/h
1624 27-04-2019 17:00:00 12.35 C 8.56 g/m*3 12.35 C 6.84167 km/h
1625 27-04-2019 18:00:00 11.34167 C 8.22 g/m*3 11.34 C 5.89167 km/h
Sensor: Nr:Datum:Temp:Abs-Feuchte:Windchill:Wind:
Aussen-T/F 1626 27-04-2019 19:00:00 9.55833 C 8.23 g/m*3 8.92 C 6.16667 km/h
1627 27-04-2019 20:00:00 7.725 C 7.49 g/m*3 7.73 C 3.33333 km/h
1628 27-04-2019 21:00:00 7.3 C 7.41 g/m*3 7.3 C 0.8 km/h
1629 27-04-2019 22:00:00 6.76667 C 7.22 g/m*3 6.77 C 1.33333 km/h
1630 27-04-2019 23:00:00 6.84167 C 7.28 g/m*3 6.84 C 4.55833 km/h
1631 28-04-2019 00:00:00 6.86667 C 7.2 g/m*3 6.87 C 4.15 km/h
1632 28-04-2019 01:00:00 6.875 C 7.09 g/m*3 5.87 C 6.025 km/h
1633 28-04-2019 02:00:00 6.43333 C 6.8 g/m*3 5.45 C 5.76667 km/h
1634 28-04-2019 03:00:00 6.19167 C 6.63 g/m*3 5 C 6.30833 km/h
1635 28-04-2019 04:00:00 6.41667 C 6.58 g/m*3 4.26 C 10.475 km/h
1636 28-04-2019 05:00:00 6.26667 C 6.55 g/m*3 4.13 C 10.20833 km/h
1637 28-04-2019 06:00:00 6.2 C 6.53 g/m*3 4.7 C 7.39167 km/h
1638 28-04-2019 07:00:00 6.80833 C 6.75 g/m*3 5.45 C 7.25833 km/h
1639 28-04-2019 08:00:00 7.575 C 6.92 g/m*3 6.24 C 7.65833 km/h
1640 28-04-2019 09:00:00 7.93333 C 7.13 g/m*3 7.93 C 4.28333 km/h
1641 28-04-2019 10:00:00 8.90833 C 7.27 g/m*3 8.18 C 6.15 km/h
1642 28-04-2019 11:00:00 10 C 6.98 g/m*3 8.42 C 11.3 km/h
1643 28-04-2019 12:00:00 10.325 C 6.77 g/m*3 9.12 C 9.39167 km/h
1644 28-04-2019 13:00:00 11.3 C 6.83 g/m*3 11.3 C 8.61667 km/h
1645 28-04-2019 14:00:00 12.35 C 7.24 g/m*3 12.35 C 7.125 km/h
1646 28-04-2019 15:00:00 11.50833 C 7.58 g/m*3 11.51 C 6.56667 km/h
1647 28-04-2019 16:00:00 10.375 C 8.07 g/m*3 10.11 C 5.23333 km/h
1648 28-04-2019 17:00:00 11.44167 C 8.14 g/m*3 11.44 C 2.54167 km/h
1649 28-04-2019 18:00:00 11.48333 C 7.7 g/m*3 11.48 C 6.73333 km/h
1650 28-04-2019 19:00:00 10.86667 C 7.54 g/m*3 10.24 C 6.975 km/h
Sensor: Nr:Datum:Temp:Abs-Feuchte:Windchill:Wind:
Aussen-T/F 1651 28-04-2019 20:00:00 9.65 C 7.37 g/m*3 9.65 C 1.475 km/h
1652 28-04-2019 21:00:00 7.30833 C 6.87 g/m*3 7.31 C 0 km/h
1653 28-04-2019 22:00:00 5.96667 C 6.55 g/m*3 5.97 C 0 km/h
1654 28-04-2019 23:00:00 5 C 6.27 g/m*3 5 C 0 km/h
1655 29-04-2019 00:00:00 4.41667 C 6.12 g/m*3 4.42 C 0 km/h
1656 29-04-2019 01:00:00 4.03333 C 5.99 g/m*3 4.03 C 0 km/h
1657 29-04-2019 02:00:00 3.425 C 5.8 g/m*3 3.43 C 0 km/h
1658 29-04-2019 03:00:00 3.675 C 5.91 g/m*3 3.68 C 0 km/h
1659 29-04-2019 04:00:00 3.54167 C 5.89 g/m*3 3.54 C 0 km/h
1660 29-04-2019 05:00:00 3.35833 C 5.85 g/m*3 3.36 C 4.26667 km/h
1661 29-04-2019 06:00:00 3.15 C 5.77 g/m*3 3.15 C 1.46667 km/h
1662 29-04-2019 07:00:00 3.225 C 5.79 g/m*3 3.23 C 1.73333 km/h
1663 29-04-2019 08:00:00 3.85833 C 6.07 g/m*3 3.86 C 4.26667 km/h
1664 29-04-2019 09:00:00 4.99167 C 6.59 g/m*3 4.99 C 4.13333 km/h
1665 29-04-2019 10:00:00 6.51667 C 7.15 g/m*3 6.52 C 2.4 km/h
1666 29-04-2019 11:00:00 8.7 C 7.85 g/m*3 8.7 C 2.4 km/h
1667 29-04-2019 12:00:00 11.925 C 8.18 g/m*3 11.93 C 5.48333 km/h
1668 29-04-2019 13:00:00 13.975 C 7.63 g/m*3 13.98 C 9.025 km/h
1669 29-04-2019 14:00:00 14.83333 C 7.25 g/m*3 14.83 C 9.69167 km/h
1670 29-04-2019 15:00:00 15.29167 C 7.35 g/m*3 15.29 C 9.68333 km/h
1671 29-04-2019 16:00:00 15.31667 C 7.23 g/m*3 15.32 C 11.43333 km/h
1672 29-04-2019 17:00:00 15.31667 C 7.29 g/m*3 15.32 C 11.7 km/h
1673 29-04-2019 18:00:00 13.69167 C 8.13 g/m*3 13.69 C 7.26667 km/h
1674 29-04-2019 19:00:00 11.075 C 8.86 g/m*3 11.08 C 1.2 km/h
1675 29-04-2019 20:00:00 10.25 C 8.74 g/m*3 10.25 C 0 km/h
Sensor: Nr:Datum:Temp:Abs-Feuchte:Windchill:Wind:
Aussen-T/F 1676 29-04-2019 21:00:00 10.13333 C 8.75 g/m*3 10.13 C 0.4 km/h
1677 29-04-2019 22:00:00 10.25833 C 8.76 g/m*3 10.26 C 2.675 km/h
1678 29-04-2019 23:00:00 10.65833 C 8.78 g/m*3 10.66 C 1.73333 km/h
1679 30-04-2019 00:00:00 10.98333 C 8.73 g/m*3 10.98 C 3.48333 km/h
1680 30-04-2019 01:00:00 11.16667 C 8.72 g/m*3 11.17 C 5.09167 km/h
1681 30-04-2019 02:00:00 10.85 C 8.73 g/m*3 10.85 C 4.01667 km/h
1682 30-04-2019 03:00:00 10.59167 C 8.68 g/m*3 10.59 C 2.94167 km/h
1683 30-04-2019 04:00:00 10.30833 C 8.52 g/m*3 10.31 C 2.275 km/h
1684 30-04-2019 05:00:00 10.18333 C 8.37 g/m*3 9.9 C 5.225 km/h
1685 30-04-2019 06:00:00 10.05833 C 8.38 g/m*3 10.06 C 3.89167 km/h
1686 30-04-2019 07:00:00 10.075 C 8.38 g/m*3 9.62 C 5.775 km/h
1687 30-04-2019 08:00:00 10.725 C 8.26 g/m*3 9.87 C 7.925 km/h
1688 30-04-2019 09:00:00 11.51667 C 7.94 g/m*3 11.52 C 10.225 km/h
1689 30-04-2019 10:00:00 12.61667 C 7.76 g/m*3 12.62 C 10.76667 km/h
1690 30-04-2019 11:00:00 13.60833 C 7.39 g/m*3 13.61 C 10.34167 km/h
1691 30-04-2019 12:00:00 14.5 C 7.26 g/m*3 14.5 C 12.225 km/h
1692 30-04-2019 13:00:00 15.65833 C 7.11 g/m*3 15.66 C 11.29167 km/h
1693 30-04-2019 14:00:00 16.86667 C 6.96 g/m*3 16.87 C 10.35 km/h
1694 30-04-2019 15:00:00 18.59167 C 7.21 g/m*3 18.59 C 12.9 km/h
1695 30-04-2019 16:00:00 20.025 C 7.07 g/m*3 20.02 C 12.23333 km/h
1696 30-04-2019 17:00:00 20.46667 C 7.37 g/m*3 20.47 C 11.425 km/h
1697 30-04-2019 18:00:00 20.24167 C 7.51 g/m*3 20.24 C 10.075 km/h
1698 30-04-2019 19:00:00 18.90833 C 7.92 g/m*3 18.91 C 10.09167 km/h
1699 30-04-2019 20:00:00 16.95833 C 8.22 g/m*3 16.96 C 6.96667 km/h
1700 30-04-2019 21:00:00 15.48333 C 8.56 g/m*3 15.48 C 5.625 km/h
Sensor: Nr:Datum:Temp:Abs-Feuchte:Windchill:Wind:
Aussen-T/F 1701 30-04-2019 22:00:00 14.225 C 8.66 g/m*3 14.23 C 7.925 km/h
1702 30-04-2019 23:00:00 12.65833 C 8.65 g/m*3 12.66 C 2.81667 km/h
1703 01-05-2019 00:00:00 11.25833 C 8.45 g/m*3 11.26 C 0.8 km/h
1704 01-05-2019 01:00:00 10.36667 C 8.22 g/m*3 10.37 C 0.66667 km/h
1705 01-05-2019 02:00:00 9.26667 C 7.91 g/m*3 9.27 C 0 km/h
1706 01-05-2019 03:00:00 8.45833 C 7.73 g/m*3 8.46 C 0.13333 km/h
1707 01-05-2019 04:00:00 8.075 C 7.62 g/m*3 8.07 C 0.4 km/h
1708 01-05-2019 05:00:00 6.95833 C 7.13 g/m*3 6.96 C 0 km/h
1709 01-05-2019 06:00:00 6.275 C 6.92 g/m*3 6.28 C 0.13333 km/h
1710 01-05-2019 07:00:00 6.79167 C 7.26 g/m*3 6.79 C 0.53333 km/h
1711 01-05-2019 08:00:00 7.9 C 7.79 g/m*3 7.9 C 0.8 km/h
1712 01-05-2019 09:00:00 8.89167 C 8.14 g/m*3 8.89 C 1.46667 km/h
1713 01-05-2019 10:00:00 10.11667 C 8.5 g/m*3 10.12 C 3.06667 km/h
1714 01-05-2019 11:00:00 11.40833 C 8.86 g/m*3 11.41 C 3.06667 km/h
1715 01-05-2019 12:00:00 13.80833 C 9.43 g/m*3 13.81 C 4.40833 km/h
1716 01-05-2019 13:00:00 16.03333 C 9.07 g/m*3 16.03 C 7.54167 km/h
1717 01-05-2019 14:00:00 17.69167 C 8.31 g/m*3 17.69 C 9.15833 km/h
1718 01-05-2019 15:00:00 19.35 C 8.11 g/m*3 19.35 C 9.40833 km/h
1719 01-05-2019 16:00:00 21.31667 C 8.18 g/m*3 21.32 C 7.40833 km/h
1720 01-05-2019 17:00:00 21.48333 C 8.34 g/m*3 21.48 C 8.05833 km/h
1721 01-05-2019 18:00:00 20.325 C 9.25 g/m*3 20.33 C 10.225 km/h
1722 01-05-2019 19:00:00 18.21667 C 9.06 g/m*3 18.22 C 7.65833 km/h
1723 01-05-2019 20:00:00 15.65833 C 8.45 g/m*3 15.66 C 3.475 km/h
1724 01-05-2019 21:00:00 13.53333 C 8.59 g/m*3 13.53 C 5.90833 km/h
1725 01-05-2019 22:00:00 12.76667 C 8.71 g/m*3 12.77 C 2.81667 km/h
Sensor: Nr:Datum:Temp:Abs-Feuchte:Windchill:Wind:
Aussen-T/F 1726 01-05-2019 23:00:00 10.80833 C 8.45 g/m*3 10.81 C 0 km/h
1727 02-05-2019 00:00:00 9.98333 C 8.29 g/m*3 9.98 C 0 km/h
1728 02-05-2019 01:00:00 8.96667 C 7.95 g/m*3 8.97 C 0 km/h
1729 02-05-2019 02:00:00 8.23333 C 7.78 g/m*3 8.23 C 0 km/h
1730 02-05-2019 03:00:00 7.73333 C 7.6 g/m*3 7.73 C 0 km/h
1731 02-05-2019 04:00:00 7.025 C 7.3 g/m*3 7.03 C 0 km/h
1732 02-05-2019 05:00:00 6.325 C 6.99 g/m*3 6.33 C 0 km/h
1733 02-05-2019 06:00:00 5.89167 C 6.85 g/m*3 5.89 C 0 km/h
1734 02-05-2019 07:00:00 6.84167 C 7.36 g/m*3 6.84 C 0.8 km/h
1735 02-05-2019 08:00:00 8.325 C 8.08 g/m*3 8.32 C 2.13333 km/h
1736 02-05-2019 09:00:00 9.075 C 8.18 g/m*3 9.07 C 1.73333 km/h
1737 02-05-2019 10:00:00 10.725 C 8.12 g/m*3 10.73 C 3.2 km/h
1738 02-05-2019 11:00:00 12.15833 C 8.24 g/m*3 12.16 C 5.21667 km/h
1739 02-05-2019 12:00:00 12.925 C 8.35 g/m*3 12.93 C 6.98333 km/h
1740 02-05-2019 13:00:00 14.15 C 8.46 g/m*3 14.15 C 7.25833 km/h
1741 02-05-2019 14:00:00 15.85 C 8.81 g/m*3 15.85 C 6.96667 km/h
1742 02-05-2019 15:00:00 16.58333 C 8.62 g/m*3 16.58 C 9.69167 km/h
1743 02-05-2019 16:00:00 17.225 C 8.51 g/m*3 17.23 C 8.86667 km/h
1744 02-05-2019 17:00:00 17.75 C 7.79 g/m*3 17.75 C 9.28333 km/h
1745 02-05-2019 18:00:00 17.96667 C 7.18 g/m*3 17.97 C 9.425 km/h
1746 02-05-2019 19:00:00 15.54167 C 7.98 g/m*3 15.54 C 12.9 km/h
1747 02-05-2019 20:00:00 12.78333 C 8.61 g/m*3 12.78 C 8.175 km/h
1748 02-05-2019 21:00:00 11.44167 C 9.11 g/m*3 11.44 C 0.4 km/h
1749 02-05-2019 22:00:00 10.75833 C 8.96 g/m*3 10.76 C 2.93333 km/h
1750 02-05-2019 23:00:00 10.7 C 9.01 g/m*3 10.7 C 0.53333 km/h
Sensor: Nr:Datum:Temp:Abs-Feuchte:Windchill:Wind:
Aussen-T/F 1751 03-05-2019 00:00:00 10.6 C 9.01 g/m*3 10.6 C 2.93333 km/h
1752 03-05-2019 01:00:00 10.51667 C 8.41 g/m*3 9.44 C 8.88333 km/h
1753 03-05-2019 02:00:00 9.85 C 7.83 g/m*3 9.32 C 5.91667 km/h
1754 03-05-2019 03:00:00 9.375 C 7.74 g/m*3 9.38 C 2.675 km/h
1755 03-05-2019 04:00:00 9.16667 C 7.81 g/m*3 9.17 C 0.53333 km/h
1756 03-05-2019 05:00:00 9.28333 C 7.9 g/m*3 9.28 C 3.46667 km/h
1757 03-05-2019 06:00:00 9.25 C 7.86 g/m*3 9.25 C 3.475 km/h
1758 03-05-2019 07:00:00 9.25 C 7.67 g/m*3 8.71 C 5.63333 km/h
1759 03-05-2019 08:00:00 9.65833 C 7.68 g/m*3 9.14 C 5.76667 km/h
1760 03-05-2019 09:00:00 10.10833 C 7.52 g/m*3 8.86 C 9.425 km/h
1761 03-05-2019 10:00:00 10.78333 C 7.28 g/m*3 9.39 C 11.15833 km/h
1762 03-05-2019 11:00:00 11.16667 C 6.99 g/m*3 11.17 C 10.625 km/h
1763 03-05-2019 12:00:00 11.34167 C 7.05 g/m*3 11.34 C 8.61667 km/h
1764 03-05-2019 13:00:00 12.075 C 7.02 g/m*3 12.08 C 9.95 km/h
1765 03-05-2019 14:00:00 12.98333 C 6.74 g/m*3 12.98 C 14.9 km/h
1766 03-05-2019 15:00:00 14.38333 C 6.53 g/m*3 14.38 C 15.03333 km/h
1767 03-05-2019 16:00:00 15 C 6.54 g/m*3 15 C 13.16667 km/h
1768 03-05-2019 17:00:00 14.125 C 6.55 g/m*3 14.13 C 13.56667 km/h
1769 03-05-2019 18:00:00 13.64167 C 6.65 g/m*3 13.64 C 10.225 km/h
1770 03-05-2019 19:00:00 12.4 C 6.56 g/m*3 12.4 C 8.06667 km/h
1771 03-05-2019 20:00:00 11.18333 C 6.51 g/m*3 11.18 C 7.25 km/h
1772 03-05-2019 21:00:00 9.875 C 6.54 g/m*3 9.88 C 4.81667 km/h
1773 03-05-2019 22:00:00 9.375 C 6.71 g/m*3 9.38 C 3.075 km/h
1774 03-05-2019 23:00:00 8.65833 C 6.78 g/m*3 8.66 C 0.8 km/h
1775 04-05-2019 00:00:00 8.05833 C 6.78 g/m*3 8.06 C 0 km/h
Sensor: Nr:Datum:Temp:Abs-Feuchte:Windchill:Wind:
Aussen-T/F 1776 04-05-2019 01:00:00 7.625 C 6.71 g/m*3 7.63 C 0 km/h
1777 04-05-2019 02:00:00 7.575 C 6.82 g/m*3 7.58 C 0 km/h
1778 04-05-2019 03:00:00 7.43333 C 6.91 g/m*3 7.43 C 0 km/h
1779 04-05-2019 04:00:00 7.4 C 7.16 g/m*3 6.28 C 6.7 km/h
1780 04-05-2019 05:00:00 5.025 C 6.22 g/m*3 2.08 C 13.16667 km/h
1781 04-05-2019 06:00:00 3.74167 C 5.77 g/m*3 1.07 C 10.36667 km/h
1782 04-05-2019 07:00:00 3.23333 C 5.62 g/m*3 1.54 C 6.425 km/h
1783 04-05-2019 08:00:00 3.26667 C 5.68 g/m*3 2.08 C 5.08333 km/h
1784 04-05-2019 09:00:00 3.99167 C 5.97 g/m*3 3.99 C 3.74167 km/h
1785 04-05-2019 10:00:00 4.64167 C 6.04 g/m*3 2.92 C 7.25 km/h
1786 04-05-2019 11:00:00 5.00833 C 6.06 g/m*3 3.16 C 7.93333 km/h
1787 04-05-2019 12:00:00 5.93333 C 6.19 g/m*3 4.05 C 8.75 km/h
1788 04-05-2019 13:00:00 7.25833 C 6.17 g/m*3 5.59 C 8.88333 km/h
1789 04-05-2019 14:00:00 7.44167 C 6.19 g/m*3 4.75 C 15.04167 km/h
1790 04-05-2019 15:00:00 4.74167 C 5.96 g/m*3 3.2 C 6.70833 km/h
1791 04-05-2019 16:00:00 7.80833 C 6.95 g/m*3 6.87 C 6.3 km/h
1792 04-05-2019 17:00:00 10.13333 C 7.32 g/m*3 9.42 C 6.85 km/h
1793 04-05-2019 18:00:00 10.36667 C 5.83 g/m*3 8.33 C 15.3 km/h
1794 04-05-2019 19:00:00 9.3 C 6.04 g/m*3 7.26 C 13.43333 km/h
1795 04-05-2019 20:00:00 7.475 C 5.99 g/m*3 6.81 C 5.23333 km/h
1796 04-05-2019 21:00:00 6.49167 C 5.93 g/m*3 5.52 C 5.75833 km/h
1797 04-05-2019 22:00:00 5.00833 C 5.78 g/m*3 5.01 C 3.48333 km/h
1798 04-05-2019 23:00:00 3.8 C 5.63 g/m*3 3.8 C 2.94167 km/h
1799 05-05-2019 00:00:00 3.71667 C 5.72 g/m*3 3.72 C 2.14167 km/h
1800 05-05-2019 01:00:00 3.80833 C 5.82 g/m*3 3.81 C 0.53333 km/h
Sensor: Nr:Datum:Temp:Abs-Feuchte:Windchill:Wind:
Aussen-T/F 1801 05-05-2019 02:00:00 3.45833 C 5.68 g/m*3 3.46 C 0.8 km/h
1802 05-05-2019 03:00:00 3.68333 C 5.84 g/m*3 3.68 C 1.06667 km/h
1803 05-05-2019 04:00:00 3.69167 C 5.78 g/m*3 3.69 C 2.8 km/h
1804 05-05-2019 05:00:00 3.33333 C 5.59 g/m*3 3.33 C 3.625 km/h
1805 05-05-2019 06:00:00 2.73333 C 5.38 g/m*3 2.73 C 0.4 km/h
1806 05-05-2019 07:00:00 2.46667 C 5.35 g/m*3 2.47 C 0.26667 km/h
1807 05-05-2019 08:00:00 3.35833 C 5.73 g/m*3 2.03 C 5.475 km/h
1808 05-05-2019 09:00:00 4.73333 C 6.07 g/m*3 4.73 C 4.28333 km/h
1809 05-05-2019 10:00:00 5.84167 C 6.21 g/m*3 4.64 C 6.175 km/h
1810 05-05-2019 11:00:00 6.98333 C 6.46 g/m*3 5.66 C 7.23333 km/h
1811 05-05-2019 12:00:00 7.63333 C 6.51 g/m*3 6.25 C 7.90833 km/h
1812 05-05-2019 13:00:00 8.91667 C 6.42 g/m*3 7.45 C 9.4 km/h
1813 05-05-2019 14:00:00 9.29167 C 6.35 g/m*3 7.42 C 12.23333 km/h
1814 05-05-2019 15:00:00 9.86667 C 6.42 g/m*3 9.2 C 6.44167 km/h
1815 05-05-2019 16:00:00 12.39167 C 6.29 g/m*3 12.39 C 12.5 km/h
1816 05-05-2019 17:00:00 12.55833 C 6.48 g/m*3 12.56 C 11.83333 km/h
1817 05-05-2019 18:00:00 11.3 C 6.59 g/m*3 11.3 C 10.75 km/h
1818 05-05-2019 19:00:00 9.66667 C 6.45 g/m*3 8.75 C 7.39167 km/h
1819 05-05-2019 20:00:00 9.19167 C 6.42 g/m*3 8.08 C 7.90833 km/h
1820 05-05-2019 21:00:00 8.26667 C 6.4 g/m*3 7.76 C 5.075 km/h
1821 05-05-2019 22:00:00 7.15 C 6.27 g/m*3 7.15 C 2.54167 km/h
1822 05-05-2019 23:00:00 6.25 C 6.3 g/m*3 6.25 C 0.4 km/h
1823 06-05-2019 00:00:00 6.11667 C 6.33 g/m*3 6.12 C 0.26667 km/h
1824 06-05-2019 01:00:00 5.90833 C 6.32 g/m*3 5.91 C 2 km/h
1825 06-05-2019 02:00:00 5.1 C 6.01 g/m*3 5.1 C 1.6 km/h
Sensor: Nr:Datum:Temp:Abs-Feuchte:Windchill:Wind:
Aussen-T/F 1826 06-05-2019 03:00:00 4.25833 C 5.85 g/m*3 4.26 C 0.26667 km/h
1827 06-05-2019 04:00:00 3.59167 C 5.65 g/m*3 3.59 C 0 km/h
1828 06-05-2019 05:00:00 3.01667 C 5.5 g/m*3 3.02 C 0.4 km/h
1829 06-05-2019 06:00:00 3.14167 C 5.63 g/m*3 3.14 C 2 km/h
1830 06-05-2019 07:00:00 3.70833 C 5.86 g/m*3 3.71 C 4.81667 km/h
1831 06-05-2019 08:00:00 4.56667 C 6.1 g/m*3 4.57 C 4 km/h
1832 06-05-2019 09:00:00 6.31667 C 6.24 g/m*3 6.32 C 4.275 km/h
1833 06-05-2019 10:00:00 8.01667 C 6.11 g/m*3 7.18 C 6.04167 km/h
1834 06-05-2019 11:00:00 9.33333 C 6.01 g/m*3 9.33 C 4.275 km/h
1835 06-05-2019 12:00:00 10.05 C 5.61 g/m*3 9.29 C 6.975 km/h
1836 06-05-2019 13:00:00 10.95 C 5.6 g/m*3 9.96 C 8.86667 km/h
1837 06-05-2019 14:00:00 11.24167 C 5.59 g/m*3 11.24 C 9.26667 km/h
1838 06-05-2019 15:00:00 11.29167 C 5.83 g/m*3 11.29 C 9.15833 km/h
1839 06-05-2019 16:00:00 11.01667 C 6.05 g/m*3 11.02 C 9.14167 km/h
1840 06-05-2019 17:00:00 10.675 C 6 g/m*3 10.35 C 5.61667 km/h
1841 06-05-2019 18:00:00 11.425 C 6.3 g/m*3 11.43 C 4.275 km/h
1842 06-05-2019 19:00:00 10.75833 C 6.73 g/m*3 10.76 C 1.60833 km/h
1843 06-05-2019 20:00:00 9.18333 C 6.73 g/m*3 9.18 C 3.48333 km/h
1844 06-05-2019 21:00:00 8.26667 C 6.9 g/m*3 8.27 C 0.13333 km/h
1845 06-05-2019 22:00:00 7.75 C 6.96 g/m*3 7.75 C 0.26667 km/h
1846 06-05-2019 23:00:00 7.30833 C 6.86 g/m*3 7.31 C 0 km/h
1847 07-05-2019 00:00:00 7.29167 C 6.99 g/m*3 7.29 C 0.26667 km/h
1848 07-05-2019 01:00:00 7.04167 C 6.93 g/m*3 7.04 C 0 km/h
1849 07-05-2019 02:00:00 6.7 C 6.84 g/m*3 6.7 C 0 km/h
1850 07-05-2019 03:00:00 6.64167 C 6.81 g/m*3 6.64 C 0 km/h
Sensor: Nr:Datum:Temp:Abs-Feuchte:Windchill:Wind:
Aussen-T/F 1851 07-05-2019 04:00:00 6.35 C 6.7 g/m*3 6.35 C 0 km/h
1852 07-05-2019 05:00:00 6.16667 C 6.68 g/m*3 6.17 C 0 km/h
1853 07-05-2019 06:00:00 5.85833 C 6.57 g/m*3 5.86 C 0 km/h
1854 07-05-2019 07:00:00 6.38333 C 6.85 g/m*3 6.38 C 0 km/h
1855 07-05-2019 08:00:00 7.30833 C 7.06 g/m*3 7.31 C 0.26667 km/h
1856 07-05-2019 09:00:00 8.475 C 7.31 g/m*3 8.48 C 1.6 km/h
1857 07-05-2019 10:00:00 9.60833 C 7.32 g/m*3 9.13 C 5.6 km/h
1858 07-05-2019 11:00:00 10.575 C 6.99 g/m*3 10.58 C 4.53333 km/h
1859 07-05-2019 12:00:00 11.88333 C 6.4 g/m*3 11.88 C 7.11667 km/h
1860 07-05-2019 13:00:00 11.86667 C 6.2 g/m*3 11.87 C 6.14167 km/h
1861 07-05-2019 14:00:00 12.76667 C 6.17 g/m*3 12.77 C 6.83333 km/h
1862 07-05-2019 15:00:00 13.05833 C 5.99 g/m*3 13.06 C 9.81667 km/h
1863 07-05-2019 16:00:00 14.13333 C 6.16 g/m*3 14.13 C 6.71667 km/h
1864 07-05-2019 17:00:00 14.9 C 6.04 g/m*3 14.9 C 5.49167 km/h
1865 07-05-2019 18:00:00 14.94167 C 5.88 g/m*3 14.94 C 5.75 km/h
1866 07-05-2019 19:00:00 13.4 C 7.19 g/m*3 13.4 C 0.13333 km/h
1867 07-05-2019 20:00:00 11.275 C 6.41 g/m*3 11.28 C 0.8 km/h
1868 07-05-2019 21:00:00 9.01667 C 6.03 g/m*3 9.02 C 0 km/h
1869 07-05-2019 22:00:00 7.98333 C 6.27 g/m*3 7.98 C 0 km/h
1870 07-05-2019 23:00:00 6.93333 C 6.23 g/m*3 6.93 C 0 km/h
1871 08-05-2019 00:00:00 6.325 C 6.15 g/m*3 6.33 C 0 km/h
1872 08-05-2019 01:00:00 5.75 C 6.03 g/m*3 5.75 C 0 km/h
1873 08-05-2019 02:00:00 5.15 C 5.97 g/m*3 5.15 C 0 km/h
1874 08-05-2019 03:00:00 4.7 C 5.96 g/m*3 4.7 C 0 km/h
1875 08-05-2019 04:00:00 4.95 C 6.16 g/m*3 4.95 C 0 km/h
Sensor: Nr:Datum:Temp:Abs-Feuchte:Windchill:Wind:
Aussen-T/F 1876 08-05-2019 05:00:00 5.25 C 6.29 g/m*3 5.25 C 0 km/h
1877 08-05-2019 06:00:00 5.49167 C 6.41 g/m*3 5.49 C 0 km/h
1878 08-05-2019 07:00:00 6.21667 C 6.66 g/m*3 6.22 C 0.53333 km/h
1879 08-05-2019 08:00:00 7.49167 C 7.03 g/m*3 7.49 C 2 km/h
1880 08-05-2019 09:00:00 8.85 C 7.21 g/m*3 8.85 C 3.48333 km/h
1881 08-05-2019 10:00:00 9.025 C 7.7 g/m*3 9.03 C 1.46667 km/h
1882 08-05-2019 11:00:00 9.69167 C 8.24 g/m*3 9.69 C 0.8 km/h
1883 08-05-2019 12:00:00 11.325 C 9.05 g/m*3 11.33 C 4.41667 km/h
1884 08-05-2019 13:00:00 13.61667 C 9.77 g/m*3 13.62 C 5.89167 km/h
1885 08-05-2019 14:00:00 14.7 C 9.91 g/m*3 14.7 C 5.875 km/h
1886 08-05-2019 15:00:00 14.56667 C 9.86 g/m*3 14.57 C 5.35 km/h
1887 08-05-2019 16:00:00 13.39167 C 10.08 g/m*3 13.39 C 5.35 km/h
1888 08-05-2019 17:00:00 12.51667 C 10.05 g/m*3 12.52 C 3.06667 km/h
1889 08-05-2019 18:00:00 12.5 C 10.22 g/m*3 12.5 C 2 km/h
1890 08-05-2019 19:00:00 12.25833 C 10.13 g/m*3 12.26 C 0.13333 km/h
1891 08-05-2019 20:00:00 11.71667 C 9.84 g/m*3 11.72 C 0.4 km/h
1892 08-05-2019 21:00:00 10.95833 C 9.43 g/m*3 10.96 C 0.13333 km/h
1893 08-05-2019 22:00:00 10.14167 C 9 g/m*3 10.14 C 1.6 km/h
1894 08-05-2019 23:00:00 9.41667 C 8.56 g/m*3 9.42 C 2.53333 km/h
1895 09-05-2019 00:00:00 8.78333 C 8.22 g/m*3 8.78 C 3.48333 km/h
1896 09-05-2019 01:00:00 8.31667 C 7.99 g/m*3 8.32 C 1.6 km/h
1897 09-05-2019 02:00:00 7.425 C 7.55 g/m*3 7.43 C 0.13333 km/h
1898 09-05-2019 03:00:00 7.31667 C 7.57 g/m*3 7.32 C 0.26667 km/h
1899 09-05-2019 04:00:00 7.75833 C 7.81 g/m*3 7.76 C 1.475 km/h
1900 09-05-2019 05:00:00 7.80833 C 7.84 g/m*3 7.81 C 0 km/h
Sensor: Nr:Datum:Temp:Abs-Feuchte:Windchill:Wind:
Aussen-T/F 1901 09-05-2019 06:00:00 7.46667 C 7.63 g/m*3 7.47 C 0 km/h
1902 09-05-2019 07:00:00 8.7 C 8.33 g/m*3 8.7 C 0.13333 km/h
1903 09-05-2019 08:00:00 9.9 C 8.72 g/m*3 9.9 C 2.4 km/h
1904 09-05-2019 09:00:00 11.4 C 8.97 g/m*3 11.4 C 2.8 km/h
1905 09-05-2019 10:00:00 11.6 C 9.17 g/m*3 11.6 C 5.475 km/h
1906 09-05-2019 11:00:00 12.78333 C 9.4 g/m*3 12.78 C 6.56667 km/h
1907 09-05-2019 12:00:00 13.21667 C 9.7 g/m*3 13.22 C 6.43333 km/h
1908 09-05-2019 13:00:00 13.26667 C 9.67 g/m*3 13.27 C 8.60833 km/h
1909 09-05-2019 14:00:00 13.60833 C 9.43 g/m*3 13.61 C 5.35 km/h
1910 09-05-2019 15:00:00 13.43333 C 9.64 g/m*3 13.43 C 4.80833 km/h
1911 09-05-2019 16:00:00 13.80833 C 9.68 g/m*3 13.81 C 4.4 km/h
1912 09-05-2019 17:00:00 14.375 C 10.05 g/m*3 14.38 C 2.66667 km/h
1913 09-05-2019 18:00:00 15.625 C 10.57 g/m*3 15.63 C 5.76667 km/h
1914 09-05-2019 19:00:00 15.4 C 10.41 g/m*3 15.4 C 3.89167 km/h
1915 09-05-2019 20:00:00 13.70833 C 10.14 g/m*3 13.71 C 0.93333 km/h
1916 09-05-2019 21:00:00 11.66667 C 9.47 g/m*3 11.67 C 7.09167 km/h
1917 09-05-2019 22:00:00 10.89167 C 9.36 g/m*3 10.89 C 1.86667 km/h
1918 09-05-2019 23:00:00 10.76667 C 9.37 g/m*3 10.77 C 3.88333 km/h
1919 10-05-2019 00:00:00 10.525 C 9.23 g/m*3 10.53 C 1.2 km/h
1920 10-05-2019 01:00:00 9.51667 C 8.66 g/m*3 9.52 C 0.26667 km/h
1921 10-05-2019 02:00:00 8.85833 C 8.34 g/m*3 8.86 C 0.13333 km/h
1922 10-05-2019 03:00:00 8.16667 C 7.97 g/m*3 8.17 C 0 km/h
1923 10-05-2019 04:00:00 8.56667 C 8.25 g/m*3 8.57 C 0 km/h
1924 10-05-2019 05:00:00 8.28333 C 8.08 g/m*3 7.49 C 6.03333 km/h
1925 10-05-2019 06:00:00 8.40833 C 8.15 g/m*3 7.63 C 6.03333 km/h
Sensor: Nr:Datum:Temp:Abs-Feuchte:Windchill:Wind:
Aussen-T/F 1926 10-05-2019 07:00:00 8.75 C 8.29 g/m*3 8.75 C 2.675 km/h
1927 10-05-2019 08:00:00 9.175 C 8.39 g/m*3 8.71 C 5.36667 km/h
1928 10-05-2019 09:00:00 10.7 C 8.59 g/m*3 9.13 C 12.225 km/h
1929 10-05-2019 10:00:00 12.1 C 8.73 g/m*3 12.1 C 11.03333 km/h
1930 10-05-2019 11:00:00 13.23333 C 8.72 g/m*3 13.23 C 11.025 km/h
1931 10-05-2019 12:00:00 14.35 C 8.31 g/m*3 14.35 C 12.9 km/h
1932 10-05-2019 13:00:00 15.44167 C 7.9 g/m*3 15.44 C 12.23333 km/h
1933 10-05-2019 14:00:00 16.75 C 7.76 g/m*3 16.75 C 13.83333 km/h
1934 10-05-2019 15:00:00 17.21667 C 7.7 g/m*3 17.22 C 10.9 km/h
1935 10-05-2019 16:00:00 17.93333 C 7.55 g/m*3 17.93 C 8.05 km/h
1936 10-05-2019 17:00:00 17.6 C 7.32 g/m*3 17.6 C 9.80833 km/h
1937 10-05-2019 18:00:00 17.25 C 7.43 g/m*3 17.25 C 5.36667 km/h
1938 10-05-2019 19:00:00 17.18333 C 9.07 g/m*3 17.18 C 0.66667 km/h
1939 10-05-2019 20:00:00 14.175 C 8.72 g/m*3 14.18 C 0 km/h
1940 10-05-2019 21:00:00 12.35 C 8.43 g/m*3 12.35 C 0 km/h
1941 10-05-2019 22:00:00 11.76667 C 8.54 g/m*3 11.77 C 0 km/h
1942 10-05-2019 23:00:00 11.53333 C 8.62 g/m*3 11.53 C 0 km/h
1943 11-05-2019 00:00:00 11.04167 C 8.69 g/m*3 11.04 C 0.4 km/h
1944 11-05-2019 01:00:00 10.36667 C 8.77 g/m*3 10.37 C 0.13333 km/h
1945 11-05-2019 02:00:00 10.1 C 8.83 g/m*3 10.1 C 0 km/h
1946 11-05-2019 03:00:00 9.925 C 8.81 g/m*3 9.93 C 0.13333 km/h
1947 11-05-2019 04:00:00 9.7 C 8.76 g/m*3 9.7 C 0 km/h
1948 11-05-2019 05:00:00 9.775 C 8.87 g/m*3 9.78 C 0.26667 km/h
1949 11-05-2019 06:00:00 9.7 C 8.85 g/m*3 9.7 C 0.26667 km/h
1950 11-05-2019 07:00:00 9.7 C 8.85 g/m*3 9.7 C 0.4 km/h
Sensor: Nr:Datum:Temp:Abs-Feuchte:Windchill:Wind:
Aussen-T/F 1951 11-05-2019 08:00:00 9.65833 C 8.83 g/m*3 9.66 C 2.80833 km/h
1952 11-05-2019 09:00:00 9.70833 C 8.85 g/m*3 9.71 C 4.95 km/h
1953 11-05-2019 10:00:00 9.85833 C 8.94 g/m*3 9.49 C 5.35 km/h
1954 11-05-2019 11:00:00 10.13333 C 9.1 g/m*3 10.13 C 4.95 km/h
1955 11-05-2019 12:00:00 10.36667 C 9.1 g/m*3 9.27 C 8.875 km/h
1956 11-05-2019 13:00:00 9.79167 C 8.72 g/m*3 8.61 C 8.73333 km/h
1957 11-05-2019 14:00:00 9.76667 C 8.79 g/m*3 9.77 C 1.86667 km/h
1958 11-05-2019 15:00:00 9.91667 C 8.88 g/m*3 9.92 C 3.475 km/h
1959 11-05-2019 16:00:00 10.31667 C 9.2 g/m*3 10.32 C 1.6 km/h
1960 11-05-2019 17:00:00 10.95833 C 9.53 g/m*3 10.96 C 2.94167 km/h
1961 11-05-2019 18:00:00 11.79167 C 9.33 g/m*3 11.79 C 11.96667 km/h
1962 11-05-2019 19:00:00 12.1 C 8.75 g/m*3 12.1 C 14.36667 km/h
1963 11-05-2019 20:00:00 11.3 C 8.59 g/m*3 11.3 C 3.89167 km/h
1964 11-05-2019 21:00:00 9.44167 C 8.27 g/m*3 9.44 C 0 km/h
1965 11-05-2019 22:00:00 8.33333 C 7.84 g/m*3 8.33 C 0 km/h
1966 11-05-2019 23:00:00 7.65 C 7.62 g/m*3 7.65 C 0 km/h
1967 12-05-2019 00:00:00 7.41667 C 7.56 g/m*3 7.42 C 0.4 km/h
1968 12-05-2019 01:00:00 6.75 C 7.24 g/m*3 6.75 C 1.46667 km/h
1969 12-05-2019 02:00:00 6.43333 C 7 g/m*3 6.43 C 3.86667 km/h
1970 12-05-2019 03:00:00 5.66667 C 6.6 g/m*3 5.67 C 1.46667 km/h
1971 12-05-2019 04:00:00 4.70833 C 6.25 g/m*3 4.71 C 0.13333 km/h
1972 12-05-2019 05:00:00 4.225 C 6.11 g/m*3 4.22 C 0 km/h
1973 12-05-2019 06:00:00 4.45833 C 6.23 g/m*3 4.46 C 0.93333 km/h
1974 12-05-2019 07:00:00 5.68333 C 6.53 g/m*3 4.77 C 5.225 km/h
1975 12-05-2019 08:00:00 6.98333 C 6.62 g/m*3 5.69 C 7.1 km/h
Sensor: Nr:Datum:Temp:Abs-Feuchte:Windchill:Wind:
Aussen-T/F 1976 12-05-2019 09:00:00 8.125 C 6.56 g/m*3 6.03 C 12.09167 km/h
1977 12-05-2019 10:00:00 8.83333 C 6.48 g/m*3 6.89 C 12.1 km/h
1978 12-05-2019 11:00:00 9.58333 C 6.35 g/m*3 7.68 C 12.89167 km/h
1979 12-05-2019 12:00:00 10.54167 C 6.3 g/m*3 9.07 C 11.3 km/h
1980 12-05-2019 13:00:00 11.66667 C 6.28 g/m*3 11.67 C 12.76667 km/h
1981 12-05-2019 14:00:00 12.83333 C 6.15 g/m*3 12.83 C 12.1 km/h
1982 12-05-2019 15:00:00 14.13333 C 6.19 g/m*3 14.13 C 12.76667 km/h
1983 12-05-2019 16:00:00 15.25833 C 5.99 g/m*3 15.26 C 12.23333 km/h
1984 12-05-2019 17:00:00 14.83333 C 5.78 g/m*3 14.83 C 11.43333 km/h
1985 12-05-2019 18:00:00 15.19167 C 5.65 g/m*3 15.19 C 14.1 km/h
1986 12-05-2019 19:00:00 13.96667 C 5.43 g/m*3 13.97 C 12.35833 km/h
1987 12-05-2019 20:00:00 13.09167 C 5.62 g/m*3 13.09 C 5.775 km/h
1988 12-05-2019 21:00:00 9.68333 C 6.57 g/m*3 9.68 C 0.66667 km/h
1989 12-05-2019 22:00:00 8.375 C 6.5 g/m*3 8.38 C 0.26667 km/h
1990 12-05-2019 23:00:00 7.30833 C 6.21 g/m*3 7.31 C 0.53333 km/h
1991 13-05-2019 00:00:00 6.45 C 6.14 g/m*3 6.45 C 0 km/h
1992 13-05-2019 01:00:00 5.11667 C 6 g/m*3 5.12 C 0 km/h
1993 13-05-2019 02:00:00 4.15 C 5.82 g/m*3 4.15 C 0 km/h
1994 13-05-2019 03:00:00 3.60833 C 5.71 g/m*3 3.61 C 0 km/h
1995 13-05-2019 04:00:00 3.075 C 5.57 g/m*3 3.08 C 0.13333 km/h
1996 13-05-2019 05:00:00 2.64167 C 5.46 g/m*3 2.64 C 0.13333 km/h
1997 13-05-2019 06:00:00 2.30833 C 5.36 g/m*3 2.31 C 0 km/h
1998 13-05-2019 07:00:00 2.63333 C 5.52 g/m*3 2.63 C 0 km/h
1999 13-05-2019 08:00:00 4.26667 C 6.21 g/m*3 4.27 C 0 km/h
2000 13-05-2019 09:00:00 6.13333 C 6.62 g/m*3 6.13 C 0.53333 km/h
Sensor: Nr:Datum:Temp:Abs-Feuchte:Windchill:Wind:
Aussen-T/F 2001 13-05-2019 10:00:00 9.69167 C 5.33 g/m*3 9.11 C 6.04167 km/h
2002 13-05-2019 11:00:00 11.4 C 5 g/m*3 11.4 C 4.54167 km/h
2003 13-05-2019 12:00:00 13.43333 C 3.8 g/m*3 13.43 C 15.7 km/h
2004 13-05-2019 13:00:00 14.6 C 3.74 g/m*3 14.6 C 12.36667 km/h
2005 13-05-2019 14:00:00 15.575 C 4.12 g/m*3 15.58 C 11.025 km/h
2006 13-05-2019 15:00:00 17.19167 C 4.33 g/m*3 17.19 C 11.025 km/h
2007 13-05-2019 16:00:00 18.43333 C 4.56 g/m*3 18.43 C 15.56667 km/h
2008 13-05-2019 17:00:00 18.6 C 4.52 g/m*3 18.6 C 16.1 km/h
2009 13-05-2019 18:00:00 18.08333 C 4.45 g/m*3 18.08 C 16.36667 km/h
2010 13-05-2019 19:00:00 16.95833 C 4.74 g/m*3 16.96 C 17.03333 km/h
2011 13-05-2019 20:00:00 15.41667 C 4.57 g/m*3 15.42 C 12.76667 km/h
2012 13-05-2019 21:00:00 12.25 C 5.46 g/m*3 12.25 C 1.74167 km/h
2013 13-05-2019 22:00:00 9.325 C 5.48 g/m*3 9.32 C 0.13333 km/h
2014 13-05-2019 23:00:00 7.875 C 5.69 g/m*3 7.88 C 0 km/h
2015 14-05-2019 00:00:00 6.7 C 5.69 g/m*3 6.7 C 0 km/h
2016 14-05-2019 01:00:00 5.76667 C 5.54 g/m*3 5.77 C 0 km/h
2017 14-05-2019 02:00:00 4.74167 C 5.43 g/m*3 4.74 C 0 km/h
2018 14-05-2019 03:00:00 3.83333 C 5.32 g/m*3 3.83 C 0 km/h
2019 14-05-2019 04:00:00 3.18333 C 5.24 g/m*3 3.18 C 0 km/h
2020 14-05-2019 05:00:00 2.66667 C 5.17 g/m*3 2.67 C 0 km/h
2021 14-05-2019 06:00:00 2.41667 C 5.19 g/m*3 2.42 C 0 km/h
2022 14-05-2019 07:00:00 2.825 C 5.44 g/m*3 2.83 C 0 km/h
2023 14-05-2019 08:00:00 4.2 C 5.97 g/m*3 4.2 C 0 km/h
2024 14-05-2019 09:00:00 6.50833 C 6.44 g/m*3 6.51 C 1.46667 km/h
2025 14-05-2019 10:00:00 9.575 C 6.34 g/m*3 8.9 C 6.30833 km/h
Sensor: Nr:Datum:Temp:Abs-Feuchte:Windchill:Wind:
Aussen-T/F 2026 14-05-2019 11:00:00 12.65 C 5.64 g/m*3 12.65 C 15.7 km/h
2027 14-05-2019 12:00:00 13.45833 C 5.35 g/m*3 13.46 C 13.83333 km/h
2028 14-05-2019 13:00:00 14.21667 C 5.35 g/m*3 14.22 C 15.7 km/h
2029 14-05-2019 14:00:00 14.79167 C 5.44 g/m*3 14.79 C 15.83333 km/h
2030 14-05-2019 15:00:00 16.00833 C 5.43 g/m*3 16.01 C 13.96667 km/h
2031 14-05-2019 16:00:00 16.59167 C 5.24 g/m*3 16.59 C 15.69167 km/h
2032 14-05-2019 17:00:00 16.8 C 5.21 g/m*3 16.8 C 14.75833 km/h
2033 14-05-2019 18:00:00 16.475 C 5.22 g/m*3 16.48 C 9.53333 km/h
2034 14-05-2019 19:00:00 16.075 C 5.22 g/m*3 16.08 C 7.50833 km/h
2035 14-05-2019 20:00:00 13.73333 C 5.8 g/m*3 13.73 C 4.15833 km/h
2036 14-05-2019 21:00:00 10.35 C 5.82 g/m*3 10.35 C 0.53333 km/h
2037 14-05-2019 22:00:00 8.73333 C 5.89 g/m*3 8.73 C 0 km/h
2038 14-05-2019 23:00:00 7.69167 C 5.83 g/m*3 7.69 C 0 km/h
2039 15-05-2019 00:00:00 6.88333 C 5.65 g/m*3 6.88 C 0 km/h
2040 15-05-2019 01:00:00 5.89167 C 5.57 g/m*3 5.89 C 0 km/h
2041 15-05-2019 02:00:00 4.74167 C 5.44 g/m*3 4.74 C 0 km/h
2042 15-05-2019 03:00:00 3.98333 C 5.37 g/m*3 3.98 C 0 km/h
2043 15-05-2019 04:00:00 3.15 C 5.25 g/m*3 3.15 C 0 km/h
2044 15-05-2019 05:00:00 2.60833 C 5.15 g/m*3 2.61 C 0 km/h
2045 15-05-2019 06:00:00 2.325 C 5.17 g/m*3 2.33 C 0 km/h
2046 15-05-2019 07:00:00 2.75833 C 5.41 g/m*3 2.76 C 0 km/h
2047 15-05-2019 08:00:00 3.775 C 5.81 g/m*3 3.78 C 0 km/h
2048 15-05-2019 09:00:00 5.99167 C 6.19 g/m*3 5.99 C 2.81667 km/h
2049 15-05-2019 10:00:00 10.15833 C 5.19 g/m*3 9.15 C 8.19167 km/h
2050 15-05-2019 11:00:00 12.05 C 4.88 g/m*3 12.05 C 10.225 km/h
Sensor: Nr:Datum:Temp:Abs-Feuchte:Windchill:Wind:
Aussen-T/F 2051 15-05-2019 12:00:00 12.95 C 4.63 g/m*3 12.95 C 8.85833 km/h
2052 15-05-2019 13:00:00 14.08333 C 4.35 g/m*3 14.08 C 13.56667 km/h
2053 15-05-2019 14:00:00 14.95 C 4.75 g/m*3 14.95 C 15.96667 km/h
2054 15-05-2019 15:00:00 15.975 C 4.64 g/m*3 15.98 C 17.83333 km/h
2055 15-05-2019 16:00:00 17.19167 C 5.03 g/m*3 17.19 C 12.1 km/h
2056 15-05-2019 17:00:00 17.58333 C 4.96 g/m*3 17.58 C 14.1 km/h
2057 15-05-2019 18:00:00 17.38333 C 5.02 g/m*3 17.38 C 13.55833 km/h
2058 15-05-2019 19:00:00 16.55833 C 4.97 g/m*3 16.56 C 11.55 km/h
2059 15-05-2019 20:00:00 15.10833 C 5.45 g/m*3 15.11 C 4.69167 km/h
2060 15-05-2019 21:00:00 11.45833 C 5.85 g/m*3 11.46 C 1.74167 km/h
2061 15-05-2019 22:00:00 9.525 C 5.5 g/m*3 9.53 C 0.53333 km/h
2062 15-05-2019 23:00:00 8.09167 C 5.32 g/m*3 8.09 C 0.93333 km/h
2063 16-05-2019 00:00:00 7.39167 C 5.29 g/m*3 7.39 C 1.6 km/h
2064 16-05-2019 01:00:00 6.64167 C 5.56 g/m*3 6.64 C 0 km/h
2065 16-05-2019 02:00:00 5.725 C 5.61 g/m*3 5.73 C 0 km/h
2066 16-05-2019 03:00:00 5.58333 C 5.8 g/m*3 5.58 C 0 km/h
2067 16-05-2019 04:00:00 5.71667 C 5.95 g/m*3 5.72 C 0 km/h
2068 16-05-2019 05:00:00 5.83333 C 6.04 g/m*3 5.83 C 0 km/h
2069 16-05-2019 06:00:00 5.95 C 6.18 g/m*3 5.95 C 0.13333 km/h
2070 16-05-2019 07:00:00 6.64167 C 6.45 g/m*3 6.64 C 0 km/h
2071 16-05-2019 08:00:00 7.98333 C 6.84 g/m*3 7.98 C 0.13333 km/h
2072 16-05-2019 09:00:00 9.95 C 6.81 g/m*3 9.95 C 4.15 km/h
2073 16-05-2019 10:00:00 11.65833 C 6.56 g/m*3 11.66 C 8.45833 km/h
2074 16-05-2019 11:00:00 12.20833 C 6.32 g/m*3 12.21 C 8.33333 km/h
2075 16-05-2019 12:00:00 13.13333 C 6.73 g/m*3 13.13 C 8.875 km/h
Sensor: Nr:Datum:Temp:Abs-Feuchte:Windchill:Wind:
Aussen-T/F 2076 16-05-2019 13:00:00 14.68333 C 7.13 g/m*3 14.68 C 10.76667 km/h
2077 16-05-2019 14:00:00 15.4 C 7.34 g/m*3 15.4 C 10.48333 km/h
2078 16-05-2019 15:00:00 17.38333 C 7.71 g/m*3 17.38 C 10.08333 km/h
2079 16-05-2019 16:00:00 18.23333 C 7.73 g/m*3 18.23 C 8.45 km/h
2080 16-05-2019 17:00:00 16.90833 C 7.77 g/m*3 16.91 C 9.69167 km/h
2081 16-05-2019 18:00:00 15.44167 C 8.11 g/m*3 15.44 C 11.95 km/h
2082 16-05-2019 19:00:00 14.075 C 8.25 g/m*3 14.08 C 4.41667 km/h
2083 16-05-2019 20:00:00 12.56667 C 8.08 g/m*3 12.57 C 6.70833 km/h
2084 16-05-2019 21:00:00 11.175 C 7.69 g/m*3 11.18 C 8.21667 km/h
2085 16-05-2019 22:00:00 10.23333 C 7.8 g/m*3 10.23 C 4.29167 km/h
2086 16-05-2019 23:00:00 9.60833 C 7.91 g/m*3 9.61 C 0.66667 km/h
2087 17-05-2019 00:00:00 9.08333 C 8.06 g/m*3 9.08 C 0 km/h
2088 17-05-2019 01:00:00 8.79167 C 8.05 g/m*3 8.79 C 0 km/h
2089 17-05-2019 02:00:00 8.7 C 8.1 g/m*3 8.7 C 0 km/h
2090 17-05-2019 03:00:00 8.63333 C 8.11 g/m*3 8.63 C 0.53333 km/h
2091 17-05-2019 04:00:00 8.475 C 8.09 g/m*3 8.48 C 0.13333 km/h
2092 17-05-2019 05:00:00 8.36667 C 8.04 g/m*3 8.37 C 0 km/h
2093 17-05-2019 06:00:00 8.45 C 8.13 g/m*3 8.45 C 0 km/h
2094 17-05-2019 07:00:00 8.71667 C 8.31 g/m*3 8.72 C 0.4 km/h
2095 17-05-2019 08:00:00 8.96667 C 8.45 g/m*3 8.97 C 1.73333 km/h
2096 17-05-2019 09:00:00 9.29167 C 8.62 g/m*3 9.29 C 1.86667 km/h
2097 17-05-2019 10:00:00 9.625 C 8.81 g/m*3 9.63 C 4.825 km/h
2098 17-05-2019 11:00:00 10.2 C 9.05 g/m*3 10.2 C 3.86667 km/h
2099 17-05-2019 12:00:00 11.175 C 9.49 g/m*3 11.18 C 6.425 km/h
2100 17-05-2019 13:00:00 12.825 C 10 g/m*3 12.83 C 8.625 km/h
Sensor: Nr:Datum:Temp:Abs-Feuchte:Windchill:Wind:
Aussen-T/F 2101 17-05-2019 14:00:00 14.44167 C 10.43 g/m*3 14.44 C 6.58333 km/h
2102 17-05-2019 15:00:00 15.54167 C 10.58 g/m*3 15.54 C 7.26667 km/h
2103 17-05-2019 16:00:00 16.35 C 10.47 g/m*3 16.35 C 7.65833 km/h
2104 17-05-2019 17:00:00 17.35 C 10.47 g/m*3 17.35 C 6.70833 km/h
2105 17-05-2019 18:00:00 16.8 C 11.2 g/m*3 16.8 C 2 km/h
2106 17-05-2019 19:00:00 16.625 C 11.34 g/m*3 16.63 C 0.26667 km/h
2107 17-05-2019 20:00:00 13.975 C 10.28 g/m*3 13.98 C 0.26667 km/h
2108 17-05-2019 21:00:00 12.00833 C 9.56 g/m*3 12.01 C 0.26667 km/h
2109 17-05-2019 22:00:00 11.96667 C 9.78 g/m*3 11.97 C 0 km/h
2110 17-05-2019 23:00:00 12.05833 C 9.99 g/m*3 12.06 C 0.4 km/h
2111 18-05-2019 00:00:00 11.6 C 9.77 g/m*3 11.6 C 0 km/h
2112 18-05-2019 01:00:00 10.44167 C 9.12 g/m*3 10.44 C 0.4 km/h
2113 18-05-2019 02:00:00 10.58333 C 9.34 g/m*3 10.58 C 0 km/h
2114 18-05-2019 03:00:00 10.43333 C 9.26 g/m*3 10.43 C 0 km/h
2115 18-05-2019 04:00:00 9.925 C 8.98 g/m*3 9.93 C 0 km/h
2116 18-05-2019 05:00:00 9.31667 C 8.64 g/m*3 9.32 C 0 km/h
2117 18-05-2019 06:00:00 9.35833 C 8.7 g/m*3 9.36 C 0 km/h
2118 18-05-2019 07:00:00 10.23333 C 9.25 g/m*3 10.23 C 0.13333 km/h
2119 18-05-2019 08:00:00 11.2 C 9.82 g/m*3 11.2 C 1.6 km/h
2120 18-05-2019 09:00:00 12.275 C 10.26 g/m*3 12.28 C 0.66667 km/h
2121 18-05-2019 10:00:00 14.16667 C 11.13 g/m*3 14.17 C 1.2 km/h
2122 18-05-2019 11:00:00 16.9 C 11.11 g/m*3 16.9 C 4.675 km/h
2123 18-05-2019 12:00:00 18.14167 C 11.07 g/m*3 18.14 C 3.86667 km/h
2124 18-05-2019 13:00:00 19.01667 C 11.27 g/m*3 19.02 C 4.15833 km/h
2125 18-05-2019 14:00:00 20.34167 C 11.02 g/m*3 20.34 C 5.50833 km/h
Sensor: Nr:Datum:Temp:Abs-Feuchte:Windchill:Wind:
Aussen-T/F 2126 18-05-2019 15:00:00 21.05833 C 10.74 g/m*3 21.06 C 6.30833 km/h
2127 18-05-2019 16:00:00 22.41667 C 11.99 g/m*3 22.42 C 8.05833 km/h
2128 18-05-2019 17:00:00 21.04167 C 12.96 g/m*3 21.04 C 0.26667 km/h
2129 18-05-2019 18:00:00 18.54167 C 12.15 g/m*3 18.54 C 2 km/h
2130 18-05-2019 19:00:00 15.85 C 11.74 g/m*3 15.85 C 1.33333 km/h
2131 18-05-2019 20:00:00 14.79167 C 11.45 g/m*3 14.79 C 0 km/h
2132 18-05-2019 21:00:00 13.71667 C 10.91 g/m*3 13.72 C 0.26667 km/h
2133 18-05-2019 22:00:00 12.75 C 10.42 g/m*3 12.75 C 0.26667 km/h
2134 18-05-2019 23:00:00 12.53333 C 10.43 g/m*3 12.53 C 0.66667 km/h

Maximal/Minimal-Werte vom 17.04.2019 - 19.05.2019

Sensor Min Max Avg
Temp
(Aussen-T/F)
2.2 °C
13-05-2019  06:50:00
26.6 °C
24-04-2019  17:05:00
11.51 °C

Die Daten stammen von einer Davis Vantage Pro 2 Wetter-Station und werden unter Linux mit der Software wview2wettercgi und aufbereitet. Alle Angaben erfolgen ohne Gewähr für ihre Vollständigkeit oder Richtigkeit.
Kontakt: Rainer Krienke krienke@uni-koblenz.de . Meine Webseiten an der Uni Koblenz oder privat.
Version: $Revision: 0.78 $